Tue Apr 16 10:40:08 HST 2024   map only   text only   map and text   present position text
        * 👉 update interval > 1.5 hr (data is culled when not underway)
        v 👉 non-zero velocity
             Date-Time(UTC)       Hawaiʻi-Standard-Time         Nautical-Time        Latitude  Longitude  Course Speed  Vessel
         YYYY-MM-DDThh:mm:ss    YYYY-MM-DDThh:mm:ss-10:00 YYYY-MM-DDThh:mm:ss.HH:MM   degrees    degrees degrees knots           delta_hrs
     1   2024-04-16T20:34:29UTC 2024-04-16T10:34:29-10:00 2024-04-16T09:34:29-11:00  21.24183 -157.93158     209   4.8  Hokulea    1.02  v
     2   2024-04-16T19:33:25UTC 2024-04-16T09:33:25-10:00 2024-04-16T08:33:25-11:00  21.31302 -157.88883      44   0.0  Hokulea   62.98 *  (2.6 days)
     3   2024-04-14T04:34:24UTC 2024-04-13T18:34:24-10:00 2024-04-13T17:34:24-11:00  21.31305 -157.88879     180   0.0  Hokulea    1.01   
     4   2024-04-14T03:33:49UTC 2024-04-13T17:33:49-10:00 2024-04-13T16:33:49-11:00  21.31308 -157.88879      79   3.6  Hokulea    1.99 *v arr-METC
     5   2024-04-14T01:34:28UTC 2024-04-13T15:34:28-10:00 2024-04-13T14:34:28-11:00  21.29068 -158.01475     104   6.8  Hokulea    0.99  v
     6   2024-04-14T00:34:47UTC 2024-04-13T14:34:47-10:00 2024-04-13T13:34:47-11:00  21.31895 -158.13238     152   7.2  Hokulea    1.02  v
     7   2024-04-13T23:33:27UTC 2024-04-13T13:33:27-10:00 2024-04-13T12:33:27-11:00  21.42774 -158.19428     193   0.9  Hokulea    0.98  v dep-Pokai
     8   2024-04-13T22:34:25UTC 2024-04-13T12:34:25-10:00 2024-04-13T11:34:25-11:00  21.44272 -158.19064      54   0.0  Hokulea    5.00 * 
     9   2024-04-13T17:34:29UTC 2024-04-13T07:34:29-10:00 2024-04-13T06:34:29-11:00  21.44262 -158.19072      30   0.0  Hokulea    0.99    arr-Pokai
    10   2024-04-13T16:34:52UTC 2024-04-13T06:34:52-10:00 2024-04-13T05:34:52-11:00  21.44245 -158.19083       4   1.6  Hokulea    1.01  v
    11   2024-04-13T15:34:21UTC 2024-04-13T05:34:21-10:00 2024-04-13T04:34:21-11:00  21.41631 -158.19280     332   7.1  Hokulea    1.00  v
    12   2024-04-13T14:34:29UTC 2024-04-13T04:34:29-10:00 2024-04-13T03:34:29-11:00  21.31232 -158.13386     293   6.3  Hokulea    1.00  v
    13   2024-04-13T13:34:25UTC 2024-04-13T03:34:25-10:00 2024-04-13T02:34:25-11:00  21.27139 -158.02990     265   6.7  Hokulea    0.99  v
    14   2024-04-13T12:34:50UTC 2024-04-13T02:34:50-10:00 2024-04-13T01:34:50-11:00  21.28039 -157.91225     213   2.4  Hokulea    1.01  v dep-METC
    15   2024-04-13T11:34:29UTC 2024-04-13T01:34:29-10:00 2024-04-13T00:34:29-11:00  21.31341 -157.88901       0   0.0  Hokulea   74.99 *  (3.1 days)
    16   2024-04-10T08:34:52UTC 2024-04-09T22:34:52-10:00 2024-04-09T21:34:52-11:00  21.31318 -157.88860     338   0.0  Hokulea    1.02    arr-METC
    17   2024-04-10T07:33:23UTC 2024-04-09T21:33:23-10:00 2024-04-09T20:33:23-11:00  21.31274 -157.88841       1   1.6  Hokulea    0.98  v
    18   2024-04-10T06:34:23UTC 2024-04-09T20:34:23-10:00 2024-04-09T19:34:23-11:00  21.28683 -157.88896     311   3.0  Hokulea    1.00  v
    19   2024-04-10T05:34:26UTC 2024-04-09T19:34:26-10:00 2024-04-09T18:34:26-11:00  21.25426 -157.84852     310   0.6  Hokulea    1.01  v
    20   2024-04-10T04:33:43UTC 2024-04-09T18:33:43-10:00 2024-04-09T17:33:43-11:00  21.24766 -157.84019     145   4.8  Hokulea    0.99  v dep-METC, off-Tonggs-Lēʻahi 1.3nm
    21   2024-04-10T03:34:20UTC 2024-04-09T17:34:20-10:00 2024-04-09T16:34:20-11:00  21.31313 -157.88896       0   0.0  Hokulea   43.02 *  (1.8 days)
    22   2024-04-08T08:33:26UTC 2024-04-07T22:33:26-10:00 2024-04-07T21:33:26-11:00  21.31332 -157.88922     280   0.0  Hokulea    0.99   
    23   2024-04-08T07:34:18UTC 2024-04-07T21:34:18-10:00 2024-04-07T20:34:18-11:00  21.31325 -157.88883     341   2.6  Hokulea    0.99  v arr-METC
    24   2024-04-08T06:34:43UTC 2024-04-07T20:34:43-10:00 2024-04-07T19:34:43-11:00  21.27254 -157.87414     348   1.9  Hokulea    1.00  v
    25   2024-04-08T05:34:30UTC 2024-04-07T19:34:30-10:00 2024-04-07T18:34:30-11:00  21.24078 -157.86701     297   0.6  Hokulea    1.00  v
    26   2024-04-08T04:34:25UTC 2024-04-07T18:34:25-10:00 2024-04-07T17:34:25-11:00  21.23601 -157.85686     186   2.5  Hokulea    1.00  v off-Waikiki 3nm
    27   2024-04-08T03:34:26UTC 2024-04-07T17:34:26-10:00 2024-04-07T16:34:26-11:00  21.27679 -157.85238     137   2.9  Hokulea    1.01  v dep-METC
    28   2024-04-08T02:33:46UTC 2024-04-07T16:33:46-10:00 2024-04-07T15:33:46-11:00  21.31315 -157.88864      75   0.0  Hokulea   27.00 *  (1.1 days)
    29   2024-04-06T23:33:39UTC 2024-04-06T13:33:39-10:00 2024-04-06T12:33:39-11:00  21.31311 -157.88873       0   0.0  Hokulea    0.99   
    30   2024-04-06T22:34:24UTC 2024-04-06T12:34:24-10:00 2024-04-06T11:34:24-11:00  21.31308 -157.88873      27   1.0  Hokulea    1.02  v arr-METC
    31   2024-04-06T21:33:29UTC 2024-04-06T11:33:29-10:00 2024-04-06T10:33:29-11:00  21.29800 -157.89690     294   4.0  Hokulea    0.99  v
    32   2024-04-06T20:33:51UTC 2024-04-06T10:33:51-10:00 2024-04-06T09:33:51-11:00  21.27058 -157.83161     111   2.4  Hokulea    0.99  v off-Waikiki
    33   2024-04-06T19:34:32UTC 2024-04-06T09:34:32-10:00 2024-04-06T08:34:32-11:00  21.28472 -157.87113     150   2.0  Hokulea    1.00  v dep-METC
    34   2024-04-06T18:34:27UTC 2024-04-06T08:34:27-10:00 2024-04-06T07:34:27-11:00  21.31307 -157.88860     124   0.0  Hokulea   11.87 * 
    35   2024-04-06T06:42:32UTC 2024-04-05T20:42:32-10:00 2024-04-05T19:42:32-11:00  21.31313 -157.88864      32   0.0  Hokulea    1.14    arr-METC
    36   2024-04-06T05:34:21UTC 2024-04-05T19:34:21-10:00 2024-04-05T18:34:21-11:00  21.31307 -157.88868      17   2.7  Hokulea    1.00  v
    37   2024-04-06T04:34:27UTC 2024-04-05T18:34:27-10:00 2024-04-05T17:34:27-11:00  21.27053 -157.90246     274   0.9  Hokulea    1.00  v
    38   2024-04-06T03:34:31UTC 2024-04-05T17:34:31-10:00 2024-04-05T16:34:31-11:00  21.26940 -157.88602     352   0.7  Hokulea    0.84  v
    39   2024-04-06T02:44:07UTC 2024-04-05T16:44:07-10:00 2024-04-05T15:44:07-11:00  21.26033 -157.88461     176   2.7  Hokulea    1.16  v dep-METC, 2nm off Kewalo
    40   2024-04-06T01:34:18UTC 2024-04-05T15:34:18-10:00 2024-04-05T14:34:18-11:00  21.31322 -157.88873     280   0.0  Hokulea  100.00 *  (4.2 days)
    41   2024-04-01T21:34:23UTC 2024-04-01T11:34:23-10:00 2024-04-01T10:34:23-11:00  21.31339 -157.88896     328   0.0  Hokulea    1.00   
    42   2024-04-01T20:34:29UTC 2024-04-01T10:34:29-10:00 2024-04-01T09:34:29-11:00  21.31313 -157.88879     158   0.5  Hokulea    0.99  v arr-METC
    43   2024-04-01T19:34:47UTC 2024-04-01T09:34:47-10:00 2024-04-01T08:34:47-11:00  21.32124 -157.89231     321   0.0  Hokulea  305.86 *  (12.7 days)
    44   2024-03-20T01:42:55UTC 2024-03-19T15:42:55-10:00 2024-03-19T14:42:55-11:00  21.32123 -157.89225     331   0.0  Hokulea    1.14   
    45   2024-03-20T00:34:31UTC 2024-03-19T14:34:31-10:00 2024-03-19T13:34:31-11:00  21.32061 -157.89188     338   0.5  Hokulea    1.00  v at Keehi Marine
    46   2024-03-19T23:34:48UTC 2024-03-19T13:34:48-10:00 2024-03-19T12:34:48-11:00  21.31315 -157.88862     199   0.0  Hokulea   65.00 *  (2.7 days)
    47   2024-03-17T06:34:31UTC 2024-03-16T20:34:31-10:00 2024-03-16T19:34:31-11:00  21.31321 -157.88862     255   0.0  Hokulea    1.00   
    48   2024-03-17T05:34:30UTC 2024-03-16T19:34:30-10:00 2024-03-16T18:34:30-11:00  21.31322 -157.88858     338   3.3  Hokulea    0.99  v arr-METC
    49   2024-03-17T04:34:52UTC 2024-03-16T18:34:52-10:00 2024-03-16T17:34:52-11:00  21.26273 -157.86733     298   2.0  Hokulea    1.01  v
    50   2024-03-17T03:34:31UTC 2024-03-16T17:34:31-10:00 2024-03-16T16:34:31-11:00  21.24706 -157.83538     142   5.7  Hokulea    0.88  v outside-Tonggs-Lēʻahi
    51   2024-03-17T02:41:55UTC 2024-03-16T16:41:55-10:00 2024-03-16T15:41:55-11:00  21.31311 -157.89109     268   0.1  Hokulea    1.13  v dep-METC
    52   2024-03-17T01:34:17UTC 2024-03-16T15:34:17-10:00 2024-03-16T14:34:17-11:00  21.31319 -157.88862       0   0.0  Hokulea    7.01 * 
    53   2024-03-16T18:33:36UTC 2024-03-16T08:33:36-10:00 2024-03-16T07:33:36-11:00  21.31312 -157.88864     299   0.0  Hokulea    0.99    arr-METC
    54   2024-03-16T17:34:29UTC 2024-03-16T07:34:29-10:00 2024-03-16T06:34:29-11:00  21.31311 -157.88862       9   1.5  Hokulea    0.83  v
    55   2024-03-16T16:44:36UTC 2024-03-16T06:44:36-10:00 2024-03-16T05:44:36-11:00  21.29185 -157.89231     306   5.5  Hokulea    1.17  v
    56   2024-03-16T15:34:32UTC 2024-03-16T05:34:32-10:00 2024-03-16T04:34:32-11:00  21.22927 -157.80028     317   6.1  Hokulea    1.00  v
    57   2024-03-16T14:34:34UTC 2024-03-16T04:34:34-10:00 2024-03-16T03:34:34-11:00  21.15531 -157.72629     313   6.1  Hokulea    1.00  v
    58   2024-03-16T13:34:23UTC 2024-03-16T03:34:23-10:00 2024-03-16T02:34:23-11:00  21.08600 -157.64583     270   5.8  Hokulea    0.99  v
    59   2024-03-16T12:34:51UTC 2024-03-16T02:34:51-10:00 2024-03-16T01:34:51-11:00  21.08645 -157.54343     314   7.6  Hokulea    1.01  v
    60   2024-03-16T11:34:30UTC 2024-03-16T01:34:30-10:00 2024-03-16T01:34:30-10:00  20.99758 -157.44655     136   1.7  Hokulea    1.02  v Penguin Bank, Southwest of Molokai
    61   2024-03-16T10:33:31UTC 2024-03-16T00:33:31-10:00 2024-03-16T00:33:31-10:00  21.01852 -157.46803     122   6.5  Hokulea    0.99  v
    62   2024-03-16T09:34:22UTC 2024-03-15T23:34:22-10:00 2024-03-15T22:34:22-11:00  21.07533 -157.56521     118   7.6  Hokulea    0.99  v
    63   2024-03-16T08:34:53UTC 2024-03-15T22:34:53-10:00 2024-03-15T21:34:53-11:00  21.13385 -157.68364     127   7.6  Hokulea    1.01  v
    64   2024-03-16T07:34:31UTC 2024-03-15T21:34:31-10:00 2024-03-15T20:34:31-11:00  21.20980 -157.79236     137   4.0  Hokulea    1.00  v
    65   2024-03-16T06:34:30UTC 2024-03-15T20:34:30-10:00 2024-03-15T19:34:30-11:00  21.25872 -157.84113     134   4.2  Hokulea    1.00  v
    66   2024-03-16T05:34:38UTC 2024-03-15T19:34:38-10:00 2024-03-15T18:34:38-11:00  21.30753 -157.89493     227   0.5  Hokulea    1.00  v dep-METC
    67   2024-03-16T04:34:50UTC 2024-03-15T18:34:50-10:00 2024-03-15T17:34:50-11:00  21.31314 -157.88858     189   0.0  Hokulea   22.01 * 
    68   2024-03-15T06:34:31UTC 2024-03-14T20:34:31-10:00 2024-03-14T19:34:31-11:00  21.31323 -157.88858      37   0.0  Hokulea    1.00   
    69   2024-03-15T05:34:20UTC 2024-03-14T19:34:20-10:00 2024-03-14T18:34:20-11:00  21.31318 -157.88862      21   2.3  Hokulea    0.99  v arr-METC
    70   2024-03-15T04:34:49UTC 2024-03-14T18:34:49-10:00 2024-03-14T17:34:49-11:00  21.27799 -157.90287     288   2.4  Hokulea    1.00  v
    71   2024-03-15T03:34:38UTC 2024-03-14T17:34:38-10:00 2024-03-14T16:34:38-11:00  21.26549 -157.86188     152   3.2  Hokulea    1.01  v dep-METC, Off Magic Island
    72   2024-03-15T02:33:47UTC 2024-03-14T16:33:47-10:00 2024-03-14T15:33:47-11:00  21.31352 -157.88883       0   0.0  Hokulea   17.99 * 
    73   2024-03-14T08:34:27UTC 2024-03-13T22:34:27-10:00 2024-03-13T21:34:27-11:00  21.31352 -157.88883     311   0.0  Hokulea    0.99   
    74   2024-03-14T07:34:50UTC 2024-03-13T21:34:50-10:00 2024-03-13T20:34:50-11:00  21.31324 -157.88849     132   0.1  Hokulea    1.01  v arr-METC
    75   2024-03-14T06:34:30UTC 2024-03-13T20:34:30-10:00 2024-03-13T19:34:30-11:00  21.31411 -157.88952      20   2.9  Hokulea    1.00  v
    76   2024-03-14T05:34:30UTC 2024-03-13T19:34:30-10:00 2024-03-13T18:34:30-11:00  21.26780 -157.90705     199   1.7  Hokulea    0.99  v South HNL
    77   2024-03-14T04:34:49UTC 2024-03-13T18:34:49-10:00 2024-03-13T17:34:49-11:00  21.29404 -157.89720     203   1.2  Hokulea    1.01  v dep-METC
    78   2024-03-14T03:34:21UTC 2024-03-13T17:34:21-10:00 2024-03-13T16:34:21-11:00  21.31314 -157.88862       0   0.0  Hokulea   45.00 *  (1.9 days)
    79   2024-03-12T06:34:28UTC 2024-03-11T20:34:28-10:00 2024-03-11T19:34:28-11:00  21.31318 -157.88860       0   0.0  Hokulea    1.02   
    80   2024-03-12T05:33:27UTC 2024-03-11T19:33:27-10:00 2024-03-11T18:33:27-11:00  21.31317 -157.88860       6   2.0  Hokulea    0.98  v arr-METC
    81   2024-03-12T04:34:44UTC 2024-03-11T18:34:44-10:00 2024-03-11T17:34:44-11:00  21.28041 -157.89210     291   3.1  Hokulea    0.83  v
    82   2024-03-12T03:44:45UTC 2024-03-11T17:44:45-10:00 2024-03-11T16:44:45-11:00  21.26478 -157.84931     143   3.5  Hokulea    1.04  v dep-METC, off-Waikiki
    83   2024-03-12T02:42:26UTC 2024-03-11T16:42:26-10:00 2024-03-11T15:42:26-11:00  21.31327 -157.88866     324   0.0  Hokulea   21.13 * 
    84   2024-03-11T05:34:28UTC 2024-03-10T19:34:28-10:00 2024-03-10T18:34:28-11:00  21.31317 -157.88858      32   0.0  Hokulea    0.99    arr-METC
    85   2024-03-11T04:34:51UTC 2024-03-10T18:34:51-10:00 2024-03-10T17:34:51-11:00  21.31313 -157.88860       4   2.6  Hokulea    1.01  v
    86   2024-03-11T03:34:21UTC 2024-03-10T17:34:21-10:00 2024-03-10T16:34:21-11:00  21.26885 -157.89156     307   1.3  Hokulea    1.01  v
    87   2024-03-11T02:33:27UTC 2024-03-10T16:33:27-10:00 2024-03-10T15:33:27-11:00  21.25536 -157.87214     165   3.6  Hokulea    0.99  v dep-METC, SouthSandIsland
    88   2024-03-11T01:34:18UTC 2024-03-10T15:34:18-10:00 2024-03-10T14:34:18-11:00  21.31318 -157.88856      25   0.0  Hokulea  164.00 *  (6.8 days)
    89   2024-03-04T05:34:28UTC 2024-03-03T19:34:28-10:00 2024-03-03T18:34:28-11:00  21.31327 -157.88873      67   0.0  Hokulea    0.99   
    90   2024-03-04T04:34:52UTC 2024-03-03T18:34:52-10:00 2024-03-03T17:34:52-11:00  21.31320 -157.88892     326   3.1  Hokulea    1.01  v arr-METC
    91   2024-03-04T03:34:30UTC 2024-03-03T17:34:30-10:00 2024-03-03T16:34:30-11:00  21.27054 -157.85839     284   1.6  Hokulea    1.02  v
    92   2024-03-04T02:33:20UTC 2024-03-03T16:33:20-10:00 2024-03-03T15:33:20-11:00  21.26409 -157.83049     343   3.4  Hokulea    0.98  v
    93   2024-03-04T01:34:20UTC 2024-03-03T15:34:20-10:00 2024-03-03T14:34:20-11:00  21.21106 -157.81367     145   2.7  Hokulea    1.00  v SouthLeahi
    94   2024-03-04T00:34:17UTC 2024-03-03T14:34:17-10:00 2024-03-03T13:34:17-11:00  21.24755 -157.84064     146   4.8  Hokulea    1.00  v
    95   2024-03-03T23:34:28UTC 2024-03-03T13:34:28-10:00 2024-03-03T12:34:28-11:00  21.31314 -157.88860       0   0.0  Hokulea   22.02 * 
    96   2024-03-03T01:33:27UTC 2024-03-02T15:33:27-10:00 2024-03-02T14:33:27-11:00  21.31317 -157.88862       0   0.0  Hokulea    0.99   
    97   2024-03-03T00:33:49UTC 2024-03-02T14:33:49-10:00 2024-03-02T13:33:49-11:00  21.31313 -157.88862     345   2.5  Hokulea    0.87  v arr-METC
    98   2024-03-02T23:41:47UTC 2024-03-02T13:41:47-10:00 2024-03-02T12:41:47-11:00  21.27769 -157.87873     295   6.9  Hokulea    1.12  v
    99   2024-03-02T22:34:18UTC 2024-03-02T12:34:18-10:00 2024-03-02T11:34:18-11:00  21.22316 -157.75372     202   3.1  Hokulea    1.01  v
   100   2024-03-02T21:33:31UTC 2024-03-02T11:33:31-10:00 2024-03-02T10:33:31-11:00  21.27266 -157.73269     132   0.0  Hokulea    0.99    outside-Niu Peninsula
   101   2024-03-02T20:33:51UTC 2024-03-02T10:33:51-10:00 2024-03-02T09:33:51-11:00  21.27272 -157.73275      67   2.7  Hokulea    0.99  v
   102   2024-03-02T19:34:23UTC 2024-03-02T09:34:23-10:00 2024-03-02T08:34:23-11:00  21.25536 -157.77635     103   7.5  Hokulea    0.85  v
   103   2024-03-02T18:43:38UTC 2024-03-02T08:43:38-10:00 2024-03-02T07:43:38-11:00  21.27927 -157.88680     177   1.7  Hokulea    1.17  v
   104   2024-03-02T17:33:24UTC 2024-03-02T07:33:24-10:00 2024-03-02T06:33:24-11:00  21.31311 -157.88864     223   0.0  Hokulea    9.98 * 
   105   2024-03-02T07:34:24UTC 2024-03-01T21:34:24-10:00 2024-03-01T20:34:24-11:00  21.31317 -157.88860     118   0.0  Hokulea    1.00    arr-METC
   106   2024-03-02T06:34:40UTC 2024-03-01T20:34:40-10:00 2024-03-01T19:34:40-11:00  21.31318 -157.88862      17   2.6  Hokulea    1.02  v
   107   2024-03-02T05:33:28UTC 2024-03-01T19:33:28-10:00 2024-03-01T18:33:28-11:00  21.27050 -157.90295     333   2.0  Hokulea    0.98  v
   108   2024-03-02T04:34:29UTC 2024-03-01T18:34:29-10:00 2024-03-01T17:34:29-11:00  21.24179 -157.88723     179   4.3  Hokulea    1.00  v SouthSandIsland
   109   2024-03-02T03:34:16UTC 2024-03-01T17:34:16-10:00 2024-03-01T16:34:16-11:00  21.31315 -157.88866     251   0.0  Hokulea  162.99 *  (6.8 days)
   110   2024-02-24T08:34:38UTC 2024-02-23T22:34:38-10:00 2024-02-23T21:34:38-11:00  21.31314 -157.88862      32   0.0  Hokulea    3.00 * 
   111   2024-02-24T05:34:27UTC 2024-02-23T19:34:27-10:00 2024-02-23T18:34:27-11:00  21.31311 -157.88864       9   3.7  Hokulea    1.00  v
   112   2024-02-24T04:34:44UTC 2024-02-23T18:34:44-10:00 2024-02-23T17:34:44-11:00  21.25161 -157.89933     197   0.7  Hokulea    1.01  v SouthSandIsland
   113   2024-02-24T03:34:22UTC 2024-02-23T17:34:22-10:00 2024-02-23T16:34:22-11:00  21.26227 -157.89577     187   3.0  Hokulea    1.01  v
   114   2024-02-24T02:33:34UTC 2024-02-23T16:33:34-10:00 2024-02-23T15:33:34-11:00  21.31317 -157.88862     255   0.0  Hokulea  144.00 *  (6.0 days)
   115   2024-02-18T02:33:52UTC 2024-02-17T16:33:52-10:00 2024-02-17T15:33:52-11:00  21.31318 -157.88862     234   0.0  Hokulea    0.99    arr-METC
   116   2024-02-18T01:34:42UTC 2024-02-17T15:34:42-10:00 2024-02-17T14:34:42-11:00  21.31322 -157.88856      69   4.4  Hokulea    1.02  v
   117   2024-02-18T00:33:29UTC 2024-02-17T14:33:29-10:00 2024-02-17T13:33:29-11:00  21.28566 -157.96394      79   7.0  Hokulea    0.98  v
   118   2024-02-17T23:34:31UTC 2024-02-17T13:34:31-10:00 2024-02-17T12:34:31-11:00  21.26261 -158.08509     132   5.3  Hokulea    1.01  v
   119   2024-02-17T22:33:50UTC 2024-02-17T12:33:50-10:00 2024-02-17T11:33:50-11:00  21.32247 -158.15519     146   5.7  Hokulea    0.99  v
   120   2024-02-17T21:34:21UTC 2024-02-17T11:34:21-10:00 2024-02-17T10:34:21-11:00  21.40107 -158.21122     161   4.3  Hokulea    1.01  v
   121   2024-02-17T20:33:30UTC 2024-02-17T10:33:30-10:00 2024-02-17T09:33:30-11:00  21.47067 -158.23623     246   1.2  Hokulea    0.73  v
   122   2024-02-17T19:49:32UTC 2024-02-17T09:49:32-10:00 2024-02-17T08:49:32-11:00  21.47650 -158.22237     287   0.0  Hokulea    1.25   
   123   2024-02-17T18:34:41UTC 2024-02-17T08:34:41-10:00 2024-02-17T07:34:41-11:00  21.47646 -158.22222     295   0.0  Hokulea    1.01    stop-Makaha
   124   2024-02-17T17:34:20UTC 2024-02-17T07:34:20-10:00 2024-02-17T06:34:20-11:00  21.47639 -158.22207      29   2.2  Hokulea    1.00  v
   125   2024-02-17T16:34:18UTC 2024-02-17T06:34:18-10:00 2024-02-17T05:34:18-11:00  21.44435 -158.24115      16   5.3  Hokulea    1.01  v
   126   2024-02-17T15:33:24UTC 2024-02-17T05:33:24-10:00 2024-02-17T04:33:24-11:00  21.35699 -158.26763     314   4.1  Hokulea    0.98  v
   127   2024-02-17T14:34:43UTC 2024-02-17T04:34:43-10:00 2024-02-17T03:34:43-11:00  21.31070 -158.21677     310   3.5  Hokulea    1.01  v
   128   2024-02-17T13:34:18UTC 2024-02-17T03:34:18-10:00 2024-02-17T02:34:18-11:00  21.27309 -158.16937     289   6.0  Hokulea    0.86  v
   129   2024-02-17T12:42:41UTC 2024-02-17T02:42:41-10:00 2024-02-17T01:42:41-11:00  21.24489 -158.08197     258   5.4  Hokulea    1.14  v
   130   2024-02-17T11:34:29UTC 2024-02-17T01:34:29-10:00 2024-02-17T00:34:29-11:00  21.26622 -157.97535     240   5.4  Hokulea    0.99  v
   131   2024-02-17T10:34:52UTC 2024-02-17T00:34:52-10:00 2024-02-16T23:34:52-11:00  21.31068 -157.89300     235   0.3  Hokulea    1.01  v dep-METC
   132   2024-02-17T09:34:16UTC 2024-02-16T23:34:16-10:00 2024-02-16T22:34:16-11:00  21.31332 -157.88898       0   0.0  Hokulea  149.00 *  (6.2 days)
   133   2024-02-11T04:34:26UTC 2024-02-10T18:34:26-10:00 2024-02-10T17:34:26-11:00  21.31320 -157.88860     318   0.0  Hokulea    0.72    arr-METC
   134   2024-02-11T03:51:28UTC 2024-02-10T17:51:28-10:00 2024-02-10T16:51:28-11:00  21.31318 -157.88858       3   2.1  Hokulea    1.30  v
   135   2024-02-11T02:33:45UTC 2024-02-10T16:33:45-10:00 2024-02-10T15:33:45-11:00  21.26847 -157.89145     183   2.7  Hokulea    0.99  v dep-METC SouthSandIsland
   136   2024-02-11T01:34:18UTC 2024-02-10T15:34:18-10:00 2024-02-10T14:34:18-11:00  21.31310 -157.88864      94   0.0  Hokulea  490.00 *  (20.4 days)
   137   2024-01-21T15:34:31UTC 2024-01-21T05:34:31-10:00 2024-01-21T04:34:31-11:00  21.31315 -157.88858      47   0.0  Hokulea    1.00    arr-METC
   138   2024-01-21T14:34:21UTC 2024-01-21T04:34:21-10:00 2024-01-21T03:34:21-11:00  21.31308 -157.88866     318   4.2  Hokulea    1.00  v
   139   2024-01-21T13:34:29UTC 2024-01-21T03:34:29-10:00 2024-01-21T02:34:29-11:00  21.26096 -157.83905     298   2.0  Hokulea    1.00  v
   140   2024-01-21T12:34:40UTC 2024-01-21T02:34:40-10:00 2024-01-21T01:34:40-11:00  21.24503 -157.80736     277   6.6  Hokulea    1.02  v
   141   2024-01-21T11:33:29UTC 2024-01-21T01:33:29-10:00 2024-01-21T00:33:29-11:00  21.23178 -157.68767     296   6.7  Hokulea    0.99  v
   142   2024-01-21T10:34:18UTC 2024-01-21T00:34:18-10:00 2024-01-20T23:34:18-11:00  21.18366 -157.58169     301   6.3  Hokulea    1.00  v
   143   2024-01-21T09:34:22UTC 2024-01-20T23:34:22-10:00 2024-01-20T23:34:22-10:00  21.12977 -157.48487     294   6.0  Hokulea    0.99  v
   144   2024-01-21T08:34:49UTC 2024-01-20T22:34:49-10:00 2024-01-20T22:34:49-10:00  21.09004 -157.38833     299   6.0  Hokulea    1.01  v
   145   2024-01-21T07:34:28UTC 2024-01-20T21:34:28-10:00 2024-01-20T21:34:28-10:00  21.04081 -157.29489     289   7.2  Hokulea    0.88  v
   146   2024-01-21T06:41:23UTC 2024-01-20T20:41:23-10:00 2024-01-20T20:41:23-10:00  21.00633 -157.18676     281   6.2  Hokulea    1.12  v
   147   2024-01-21T05:34:20UTC 2024-01-20T19:34:20-10:00 2024-01-20T19:34:20-10:00  20.98361 -157.06623     282   6.5  Hokulea    0.99  v
   148   2024-01-21T04:34:48UTC 2024-01-20T18:34:48-10:00 2024-01-20T18:34:48-10:00  20.96109 -156.95463     283   6.7  Hokulea    1.00  v
   149   2024-01-21T03:34:30UTC 2024-01-20T17:34:30-10:00 2024-01-20T17:34:30-10:00  20.93612 -156.83852     298   7.0  Hokulea    1.00  v
   150   2024-01-21T02:34:37UTC 2024-01-20T16:34:37-10:00 2024-01-20T16:34:37-10:00  20.88026 -156.72836     300   4.7  Hokulea    1.00  v dep-Launiupoko Beach Park, Maui
   151   2024-01-21T01:34:24UTC 2024-01-20T15:34:24-10:00 2024-01-20T15:34:24-10:00  20.84145 -156.65622     243   0.0  Hokulea    4.99 * 
   152   2024-01-20T20:34:52UTC 2024-01-20T10:34:52-10:00 2024-01-20T10:34:52-10:00  20.84134 -156.65611       7   0.0  Hokulea    1.00    off-Launiupoko Beach Park, Maui
   153   2024-01-20T19:34:35UTC 2024-01-20T09:34:35-10:00 2024-01-20T09:34:35-10:00  20.84119 -156.65613     100   1.1  Hokulea    1.00  v
   154   2024-01-20T18:34:28UTC 2024-01-20T08:34:28-10:00 2024-01-20T08:34:28-10:00  20.84442 -156.67542     152   2.1  Hokulea    1.00  v
   155   2024-01-20T17:34:29UTC 2024-01-20T07:34:29-10:00 2024-01-20T07:34:29-10:00  20.87596 -156.69319     174   1.0  Hokulea    1.00  v
   156   2024-01-20T16:34:44UTC 2024-01-20T06:34:44-10:00 2024-01-20T06:34:44-10:00  20.89227 -156.69499     338   4.4  Hokulea    1.00  v off-Lahaina
   157   2024-01-20T15:34:26UTC 2024-01-20T05:34:26-10:00 2024-01-20T05:34:26-10:00  20.82338 -156.66590     297   7.1  Hokulea    1.01  v
   158   2024-01-20T14:33:38UTC 2024-01-20T04:33:38-10:00 2024-01-20T04:33:38-10:00  20.76981 -156.55168     240   2.7  Hokulea    0.99  v dep-Maalaea
   159   2024-01-20T13:34:24UTC 2024-01-20T03:34:24-10:00 2024-01-20T03:34:24-10:00  20.79183 -156.51114     242   0.0  Hokulea    7.99 * 
   160   2024-01-20T05:34:47UTC 2024-01-19T19:34:47-10:00 2024-01-19T19:34:47-10:00  20.79185 -156.51112     354   0.0  Hokulea    0.80   
   161   2024-01-20T04:46:41UTC 2024-01-19T18:46:41-10:00 2024-01-19T18:46:41-10:00  20.79167 -156.51110     180   0.1  Hokulea    0.22  v
   162   2024-01-20T04:33:41UTC 2024-01-19T18:33:41-10:00 2024-01-19T18:33:41-10:00  20.79187 -156.51110       0   1.2  Hokulea    0.01  v
   163   2024-01-20T04:33:05UTC 2024-01-19T18:33:05-10:00 2024-01-19T18:33:05-10:00  20.79167 -156.51110     180   0.2  Hokulea    0.05  v
   164   2024-01-20T04:30:21UTC 2024-01-19T18:30:21-10:00 2024-01-19T18:30:21-10:00  20.79182 -156.51110     206   0.1  Hokulea    0.04  v
   165   2024-01-20T04:27:49UTC 2024-01-19T18:27:49-10:00 2024-01-19T18:27:49-10:00  20.79186 -156.51108      52   0.0  Hokulea   17.11 * 
   166   2024-01-19T11:21:26UTC 2024-01-19T01:21:26-10:00 2024-01-19T01:21:26-10:00  20.79183 -156.51110     353   0.0  Hokulea    1.00   
   167   2024-01-19T10:21:25UTC 2024-01-19T00:21:25-10:00 2024-01-19T00:21:25-10:00  20.79135 -156.51104      34   2.7  Hokulea    1.00  v
   168   2024-01-19T09:21:16UTC 2024-01-18T23:21:16-10:00 2024-01-18T23:21:16-10:00  20.75402 -156.53756     104   4.9  Hokulea    0.99  v
   169   2024-01-19T08:21:48UTC 2024-01-18T22:21:48-10:00 2024-01-18T22:21:48-10:00  20.77331 -156.62214     119   7.2  Hokulea    1.01  v
   170   2024-01-19T07:21:26UTC 2024-01-18T21:21:26-10:00 2024-01-18T21:21:26-10:00  20.83212 -156.73568     134   7.1  Hokulea    1.00  v
   171   2024-01-19T06:21:33UTC 2024-01-18T20:21:33-10:00 2024-01-18T20:21:33-10:00  20.91514 -156.82674     111   7.0  Hokulea    1.00  v
   172   2024-01-19T05:21:24UTC 2024-01-18T19:21:24-10:00 2024-01-18T19:21:24-10:00  20.95727 -156.94384     103   7.3  Hokulea    0.99  v
   173   2024-01-19T04:21:46UTC 2024-01-18T18:21:46-10:00 2024-01-18T18:21:46-10:00  20.98388 -157.06960     100   7.3  Hokulea    1.02  v
   174   2024-01-19T03:20:26UTC 2024-01-18T17:20:26-10:00 2024-01-18T17:20:26-10:00  21.00527 -157.20125     104   7.2  Hokulea    0.98  v
   175   2024-01-19T02:21:24UTC 2024-01-18T16:21:24-10:00 2024-01-18T16:21:24-10:00  21.03383 -157.32392     114   7.8  Hokulea    0.86  v
   176   2024-01-19T01:29:41UTC 2024-01-18T15:29:41-10:00 2024-01-18T15:29:41-10:00  21.07946 -157.43412     110   6.3  Hokulea    1.13  v
   177   2024-01-19T00:21:43UTC 2024-01-18T14:21:43-10:00 2024-01-18T13:21:43-11:00  21.12079 -157.55298     113   7.3  Hokulea    1.02  v
   178   2024-01-18T23:20:36UTC 2024-01-18T13:20:36-10:00 2024-01-18T12:20:36-11:00  21.16827 -157.67475     115   7.3  Hokulea    1.00  v
   179   2024-01-18T22:20:34UTC 2024-01-18T12:20:34-10:00 2024-01-18T11:20:34-11:00  21.22008 -157.79245     123   5.8  Hokulea    1.00  v
   180   2024-01-18T21:20:17UTC 2024-01-18T11:20:17-10:00 2024-01-18T10:20:17-11:00  21.27335 -157.87881     167   2.5  Hokulea    0.98  v dep-METC for Maui dep-METC for Maui
   181   2024-01-18T20:21:38UTC 2024-01-18T10:21:38-10:00 2024-01-18T09:21:38-11:00  21.31319 -157.88862       0   0.0  Hokulea 1008.03 *  (42.0 days)
   182   2023-12-07T20:19:54UTC 2023-12-07T10:19:54-10:00 2023-12-07T09:19:54-11:00  21.31299 -157.88886     180   0.0  Hokulea    0.99    arr-METC
   183   2023-12-07T19:20:30UTC 2023-12-07T09:20:30-10:00 2023-12-07T08:20:30-11:00  21.31302 -157.88886     271   0.5  Hokulea    1.01  v
   184   2023-12-07T18:19:59UTC 2023-12-07T08:19:59-10:00 2023-12-07T07:19:59-11:00  21.31289 -157.87926      90   0.0  Hokulea   13.82 *  dep-Matson Terminal
   185   2023-12-07T04:30:51UTC 2023-12-06T18:30:51-10:00 2023-12-06T17:30:51-11:00  21.31292 -157.87920      78   0.0  Hokulea    1.20    arr-Honolulu Harbor on Matson
   186   2023-12-07T03:19:09UTC 2023-12-06T17:19:09-10:00 2023-12-06T16:19:09-11:00  21.31289 -157.87937     306   0.8  Hokulea    0.98  v
   187   2023-12-07T02:20:14UTC 2023-12-06T16:20:14-10:00 2023-12-06T15:20:14-11:00  21.30530 -157.86813     352   4.9  Hokulea    1.00  v
   188   2023-12-07T01:20:11UTC 2023-12-06T15:20:11-10:00 2023-12-06T14:20:11-11:00  21.22392 -157.85587     286  10.2  Hokulea    0.85  v
   189   2023-12-07T00:29:03UTC 2023-12-06T14:29:03-10:00 2023-12-06T13:29:03-11:00  21.18448 -157.70700     243  12.3  Hokulea    1.17  v
   190   2023-12-06T23:18:56UTC 2023-12-06T13:18:56-10:00 2023-12-06T13:18:56-10:00  21.29512 -157.48011     243  18.9  Hokulea    0.82  v
   191   2023-12-06T22:29:57UTC 2023-12-06T12:29:57-10:00 2023-12-06T12:29:57-10:00  21.41232 -157.23515     243  17.5  Hokulea    1.16  v
   192   2023-12-06T21:20:06UTC 2023-12-06T11:20:06-10:00 2023-12-06T11:20:06-10:00  21.56565 -156.90936     244  21.9  Hokulea    1.02  v
   193   2023-12-06T20:18:55UTC 2023-12-06T10:18:55-10:00 2023-12-06T10:18:55-10:00  21.72904 -156.55108     243  22.7  Hokulea    0.98  v
   194   2023-12-06T19:20:13UTC 2023-12-06T09:20:13-10:00 2023-12-06T09:20:13-10:00  21.89851 -156.19655     244  26.9  Hokulea    0.82  v
   195   2023-12-06T18:30:46UTC 2023-12-06T08:30:46-10:00 2023-12-06T08:30:46-10:00  22.06207 -155.83911     243  18.5  Hokulea    1.18  v
   196   2023-12-06T17:20:03UTC 2023-12-06T07:20:03-10:00 2023-12-06T07:20:03-10:00  22.22501 -155.48937     244  22.3  Hokulea    0.98  v
   197   2023-12-06T16:21:11UTC 2023-12-06T06:21:11-10:00 2023-12-06T06:21:11-10:00  22.38545 -155.13596     244  22.0  Hokulea    1.00  v
   198   2023-12-06T15:21:11UTC 2023-12-06T05:21:11-10:00 2023-12-06T05:21:11-10:00  22.54730 -154.77990     244  21.1  Hokulea    1.04  v
   199   2023-12-06T14:18:56UTC 2023-12-06T04:18:56-10:00 2023-12-06T04:18:56-10:00  22.70712 -154.42460     244  22.5  Hokulea    0.98  v
   200   2023-12-06T13:20:11UTC 2023-12-06T03:20:11-10:00 2023-12-06T03:20:11-10:00  22.86623 -154.06667     244  35.5  Hokulea    0.61  v
   201   2023-12-06T12:43:28UTC 2023-12-06T02:43:28-10:00 2023-12-06T02:43:28-10:00  23.02798 -153.71499     245  15.5  Hokulea    1.39  v
   202   2023-12-06T11:20:20UTC 2023-12-06T01:20:20-10:00 2023-12-06T01:20:20-10:00  23.17825 -153.36337     245  21.8  Hokulea    1.01  v
   203   2023-12-06T10:20:01UTC 2023-12-06T00:20:01-10:00 2023-12-06T00:20:01-10:00  23.33620 -153.00468     245  21.8  Hokulea    1.00  v
   204   2023-12-06T09:20:09UTC 2023-12-05T23:20:09-10:00 2023-12-05T23:20:09-10:00  23.49231 -152.64954     245  26.5  Hokulea    0.82  v
   205   2023-12-06T08:30:45UTC 2023-12-05T22:30:45-10:00 2023-12-05T22:30:45-10:00  23.64476 -152.28946     245  23.3  Hokulea    0.92  v
   206   2023-12-06T07:35:46UTC 2023-12-05T21:35:46-10:00 2023-12-05T21:35:46-10:00  23.79349 -151.93744     245  16.8  Hokulea    1.26  v
   207   2023-12-06T06:20:22UTC 2023-12-05T20:20:22-10:00 2023-12-05T20:20:22-10:00  23.94139 -151.58787     246  21.2  Hokulea    1.00  v
   208   2023-12-06T05:20:08UTC 2023-12-05T19:20:08-10:00 2023-12-05T19:20:08-10:00  24.08918 -151.23485     245  20.9  Hokulea    1.02  v
   209   2023-12-06T04:18:54UTC 2023-12-05T18:18:54-10:00 2023-12-05T18:18:54-10:00  24.23820 -150.88078     246  21.8  Hokulea    0.98  v
   210   2023-12-06T03:20:14UTC 2023-12-05T17:20:14-10:00 2023-12-05T17:20:14-10:00  24.38469 -150.52540     246  26.9  Hokulea    0.80  v
   211   2023-12-06T02:32:29UTC 2023-12-05T16:32:29-10:00 2023-12-05T16:32:29-10:00  24.53327 -150.16948     246  17.5  Hokulea    1.22  v
   212   2023-12-06T01:19:18UTC 2023-12-05T15:19:18-10:00 2023-12-05T15:19:18-10:00  24.67912 -149.81202     247  22.3  Hokulea    0.99  v
   213   2023-12-06T00:20:06UTC 2023-12-05T14:20:06-10:00 2023-12-05T14:20:06-10:00  24.82461 -149.44224     247  26.5  Hokulea    0.83  v
   214   2023-12-05T23:30:35UTC 2023-12-05T13:30:35-10:00 2023-12-05T13:30:35-10:00  24.97044 -149.07404     246  18.4  Hokulea    1.19  v
   215   2023-12-05T22:19:10UTC 2023-12-05T12:19:10-10:00 2023-12-05T12:19:10-10:00  25.11715 -148.70682     246  22.2  Hokulea    0.98  v
   216   2023-12-05T21:20:05UTC 2023-12-05T11:20:05-10:00 2023-12-05T11:20:05-10:00  25.26519 -148.34015     248  21.8  Hokulea    1.00  v
   217   2023-12-05T20:20:05UTC 2023-12-05T10:20:05-10:00 2023-12-05T10:20:05-10:00  25.40311 -147.96865     247  25.2  Hokulea    0.85  v
   218   2023-12-05T19:28:56UTC 2023-12-05T09:28:56-10:00 2023-12-05T09:28:56-10:00  25.54539 -147.60522     246  19.0  Hokulea    1.15  v
   219   2023-12-05T18:19:59UTC 2023-12-05T08:19:59-10:00 2023-12-05T08:19:59-10:00  25.69271 -147.23746     248  25.3  Hokulea    0.87  v
   220   2023-12-05T17:28:00UTC 2023-12-05T07:28:00-10:00 2023-12-05T07:28:00-10:00  25.82818 -146.86161     247  19.8  Hokulea    1.11  v
   221   2023-12-05T16:21:35UTC 2023-12-05T06:21:35-10:00 2023-12-05T06:21:35-10:00  25.97035 -146.48719     248  21.6  Hokulea    1.02  v
   222   2023-12-05T15:20:34UTC 2023-12-05T05:20:34-10:00 2023-12-05T05:20:34-10:00  26.10916 -146.10997     248  21.7  Hokulea    1.00  v
   223   2023-12-05T14:20:30UTC 2023-12-05T04:20:30-10:00 2023-12-05T04:20:30-10:00  26.24679 -145.73673     248  24.3  Hokulea    0.89  v
   224   2023-12-05T13:27:23UTC 2023-12-05T03:27:23-10:00 2023-12-05T03:27:23-10:00  26.38470 -145.36865     248  19.1  Hokulea    1.12  v
   225   2023-12-05T12:20:07UTC 2023-12-05T02:20:07-10:00 2023-12-05T02:20:07-10:00  26.51665 -144.99818     248  21.5  Hokulea    1.00  v
   226   2023-12-05T11:20:05UTC 2023-12-05T01:20:05-10:00 2023-12-05T01:20:05-10:00  26.65003 -144.62778     248  21.2  Hokulea    1.00  v
   227   2023-12-05T10:20:11UTC 2023-12-05T00:20:11-10:00 2023-12-05T00:20:11-10:00  26.78094 -144.26257     249  21.4  Hokulea    0.98  v
   228   2023-12-05T09:21:06UTC 2023-12-04T23:21:06-10:00 2023-12-04T23:21:06-10:00  26.91075 -143.89672     249  23.4  Hokulea    0.89  v
   229   2023-12-05T08:27:25UTC 2023-12-04T22:27:25-10:00 2023-12-04T22:27:25-10:00  27.03874 -143.53331     249  20.9  Hokulea    1.00  v
   230   2023-12-05T07:27:25UTC 2023-12-04T21:27:25-10:00 2023-12-04T21:27:25-10:00  27.16618 -143.16924     250  18.8  Hokulea    1.12  v
   231   2023-12-05T06:20:03UTC 2023-12-04T20:20:03-10:00 2023-12-04T20:20:03-10:00  27.28680 -142.79800     249  24.4  Hokulea    0.87  v
   232   2023-12-05T05:27:58UTC 2023-12-04T19:27:58-10:00 2023-12-04T20:27:58-09:00  27.41616 -142.42970     250  18.8  Hokulea    1.10  v
   233   2023-12-05T04:21:47UTC 2023-12-04T18:21:47-10:00 2023-12-04T19:21:47-09:00  27.53717 -142.06522     249  20.3  Hokulea    1.02  v
   234   2023-12-05T03:20:19UTC 2023-12-04T17:20:19-10:00 2023-12-04T18:20:19-09:00  27.66063 -141.69962     250  21.0  Hokulea    1.00  v
   235   2023-12-05T02:20:02UTC 2023-12-04T16:20:02-10:00 2023-12-04T17:20:02-09:00  27.78098 -141.32778     250  20.6  Hokulea    1.02  v
   236   2023-12-05T01:18:55UTC 2023-12-04T15:18:55-10:00 2023-12-04T16:18:55-09:00  27.90335 -140.95837     250  21.2  Hokulea    0.98  v
   237   2023-12-05T00:20:08UTC 2023-12-04T14:20:08-10:00 2023-12-04T15:20:08-09:00  28.02245 -140.59028     251  23.0  Hokulea    0.91  v
   238   2023-12-04T23:25:41UTC 2023-12-04T13:25:41-10:00 2023-12-04T14:25:41-09:00  28.13778 -140.21848     251  21.5  Hokulea    0.99  v
   239   2023-12-04T22:26:21UTC 2023-12-04T12:26:21-10:00 2023-12-04T13:26:21-09:00  28.25445 -139.83982     251  19.5  Hokulea    1.11  v
   240   2023-12-04T21:19:57UTC 2023-12-04T11:19:57-10:00 2023-12-04T12:19:57-09:00  28.37287 -139.45474     251  21.3  Hokulea    1.01  v
   241   2023-12-04T20:19:10UTC 2023-12-04T10:19:10-10:00 2023-12-04T11:19:10-09:00  28.49286 -139.06977     250  25.5  Hokulea    0.85  v
   242   2023-12-04T19:28:04UTC 2023-12-04T09:28:04-10:00 2023-12-04T10:28:04-09:00  28.61472 -138.68306     252  19.3  Hokulea    1.13  v
   243   2023-12-04T18:20:16UTC 2023-12-04T08:20:16-10:00 2023-12-04T09:20:16-09:00  28.72619 -138.28974     251  21.3  Hokulea    1.00  v
   244   2023-12-04T17:20:04UTC 2023-12-04T07:20:04-10:00 2023-12-04T08:20:04-09:00  28.84479 -137.90812     252  21.4  Hokulea    0.99  v
   245   2023-12-04T16:20:28UTC 2023-12-04T06:20:28-10:00 2023-12-04T07:20:28-09:00  28.95612 -137.52413     251  21.5  Hokulea    1.01  v
   246   2023-12-04T15:19:59UTC 2023-12-04T05:19:59-10:00 2023-12-04T06:19:59-09:00  29.07213 -137.13407     252  34.1  Hokulea    0.63  v
   247   2023-12-04T14:42:13UTC 2023-12-04T04:42:13-10:00 2023-12-04T05:42:13-09:00  29.18216 -136.74474     252  15.8  Hokulea    1.36  v
   248   2023-12-04T13:20:20UTC 2023-12-04T03:20:20-10:00 2023-12-04T04:20:20-09:00  29.29257 -136.35482     252  21.7  Hokulea    1.01  v
   249   2023-12-04T12:19:59UTC 2023-12-04T02:19:59-10:00 2023-12-04T03:19:59-09:00  29.40582 -135.95922     252  35.8  Hokulea    0.61  v
   250   2023-12-04T11:43:30UTC 2023-12-04T01:43:30-10:00 2023-12-04T02:43:30-09:00  29.51590 -135.56344     253  17.6  Hokulea    1.23  v
   251   2023-12-04T10:29:38UTC 2023-12-04T00:29:38-10:00 2023-12-04T01:29:38-09:00  29.62415 -135.16926     254  18.7  Hokulea    1.16  v
   252   2023-12-04T09:20:09UTC 2023-12-03T23:20:09-10:00 2023-12-04T00:20:09-09:00  29.72568 -134.77180     254  21.6  Hokulea    1.00  v
   253   2023-12-04T08:20:02UTC 2023-12-03T22:20:02-10:00 2023-12-03T23:20:02-09:00  29.82856 -134.37423     253  22.4  Hokulea    0.98  v
   254   2023-12-04T07:21:12UTC 2023-12-03T21:21:12-10:00 2023-12-03T22:21:12-09:00  29.93775 -133.97233     254  26.0  Hokulea    0.84  v
   255   2023-12-04T06:30:57UTC 2023-12-03T20:30:57-10:00 2023-12-03T21:30:57-09:00  30.04166 -133.57165     254  21.5  Hokulea    2.03 *v
   256   2023-12-04T04:28:56UTC 2023-12-03T18:28:56-10:00 2023-12-03T19:28:56-09:00  30.24687 -132.76319     254  19.5  Hokulea    1.15  v
   257   2023-12-04T03:19:59UTC 2023-12-03T17:19:59-10:00 2023-12-03T18:19:59-09:00  30.34815 -132.34895     254  22.0  Hokulea    1.00  v
   258   2023-12-04T02:20:12UTC 2023-12-03T16:20:12-10:00 2023-12-03T17:20:12-09:00  30.44885 -131.94329     255  22.1  Hokulea    1.00  v
   259   2023-12-04T01:19:54UTC 2023-12-03T15:19:54-10:00 2023-12-03T16:19:54-09:00  30.54735 -131.52946     255  22.5  Hokulea    0.99  v
   260   2023-12-04T00:20:15UTC 2023-12-03T14:20:15-10:00 2023-12-03T15:20:15-09:00  30.64707 -131.11395     255  21.7  Hokulea    1.02  v
   261   2023-12-03T23:19:12UTC 2023-12-03T13:19:12-10:00 2023-12-03T14:19:12-09:00  30.74104 -130.70115     255  22.3  Hokulea    1.99 *v
   262   2023-12-03T21:19:57UTC 2023-12-03T11:19:57-10:00 2023-12-03T12:19:57-09:00  30.92937 -129.87280     256  22.4  Hokulea    1.00  v
   263   2023-12-03T20:20:05UTC 2023-12-03T10:20:05-10:00 2023-12-03T11:20:05-09:00  31.02290 -129.45411     256  22.4  Hokulea    1.00  v
   264   2023-12-03T19:20:20UTC 2023-12-03T09:20:20-10:00 2023-12-03T10:20:20-09:00  31.11575 -129.03447     256  32.2  Hokulea    0.70  v
   265   2023-12-03T18:38:32UTC 2023-12-03T08:38:32-10:00 2023-12-03T09:38:32-09:00  31.20672 -128.61211     257  17.2  Hokulea    1.31  v
   266   2023-12-03T17:19:57UTC 2023-12-03T07:19:57-10:00 2023-12-03T08:19:57-09:00  31.29410 -128.18695     256  22.1  Hokulea    0.99  v
   267   2023-12-03T16:20:29UTC 2023-12-03T06:20:29-10:00 2023-12-03T07:20:29-09:00  31.38141 -127.77215     257  25.6  Hokulea    0.87  v
   268   2023-12-03T15:28:16UTC 2023-12-03T05:28:16-10:00 2023-12-03T07:28:16-08:00  31.46606 -127.34989     257  22.5  Hokulea    0.98  v
   269   2023-12-03T14:29:18UTC 2023-12-03T04:29:18-10:00 2023-12-03T06:29:18-08:00  31.55221 -126.93011     258  19.3  Hokulea    1.13  v
   270   2023-12-03T13:21:20UTC 2023-12-03T03:21:20-10:00 2023-12-03T05:21:20-08:00  31.63092 -126.51351     257  21.8  Hokulea    1.02  v
   271   2023-12-03T12:20:15UTC 2023-12-03T02:20:15-10:00 2023-12-03T04:20:15-08:00  31.71753 -126.09234     257  21.9  Hokulea    1.00  v
   272   2023-12-03T11:20:10UTC 2023-12-03T01:20:10-10:00 2023-12-03T03:20:10-08:00  31.79756 -125.67452     258  21.9  Hokulea    1.00  v
   273   2023-12-03T10:20:25UTC 2023-12-03T00:20:25-10:00 2023-12-03T02:20:25-08:00  31.87534 -125.25768     259  22.0  Hokulea    1.01  v
   274   2023-12-03T09:19:58UTC 2023-12-02T23:19:58-10:00 2023-12-03T01:19:58-08:00  31.94895 -124.83325     259  22.4  Hokulea    0.98  v
   275   2023-12-03T08:21:06UTC 2023-12-02T22:21:06-10:00 2023-12-03T00:21:06-08:00  32.02154 -124.41032     258  26.3  Hokulea    0.83  v
   276   2023-12-03T07:31:09UTC 2023-12-02T21:31:09-10:00 2023-12-02T23:31:09-08:00  32.09805 -123.99110     259  18.3  Hokulea    1.17  v
   277   2023-12-03T06:20:45UTC 2023-12-02T20:20:45-10:00 2023-12-02T22:20:45-08:00  32.16855 -123.57900     259  21.1  Hokulea    1.01  v
   278   2023-12-03T05:19:57UTC 2023-12-02T19:19:57-10:00 2023-12-02T21:19:57-08:00  32.23673 -123.16620     259  21.3  Hokulea    0.99  v
   279   2023-12-03T04:20:23UTC 2023-12-02T18:20:23-10:00 2023-12-02T20:20:23-08:00  32.30475 -122.75915     260  21.2  Hokulea    1.00  v
   280   2023-12-03T03:20:14UTC 2023-12-02T17:20:14-10:00 2023-12-02T19:20:14-08:00  32.36857 -122.34808     260  21.0  Hokulea    1.00  v
   281   2023-12-03T02:20:05UTC 2023-12-02T16:20:05-10:00 2023-12-02T18:20:05-08:00  32.43280 -121.94125     260  21.0  Hokulea    1.00  v
   282   2023-12-03T01:20:12UTC 2023-12-02T15:20:12-10:00 2023-12-02T17:20:12-08:00  32.49272 -121.53488     260  20.6  Hokulea    1.02  v
   283   2023-12-03T00:19:14UTC 2023-12-02T14:19:14-10:00 2023-12-02T16:19:14-08:00  32.55557 -121.12841     260  29.8  Hokulea    0.70  v
   284   2023-12-02T23:37:20UTC 2023-12-02T13:37:20-10:00 2023-12-02T15:37:20-08:00  32.61696 -120.72402     260  16.1  Hokulea    1.29  v dep-Long Beach, CA on Matson Mahimahi
   285   2023-12-02T22:20:04UTC 2023-12-02T12:20:04-10:00 2023-12-02T14:20:04-08:00  32.67616 -120.32051     261  20.8  Hokulea    1.01  v
   286   2023-12-02T21:19:33UTC 2023-12-02T11:19:33-10:00 2023-12-02T13:19:33-08:00  32.73347 -119.91176     262  17.9  Hokulea    1.01  v
   287   2023-12-02T20:19:04UTC 2023-12-02T10:19:04-10:00 2023-12-02T12:19:04-08:00  32.77827 -119.55949     259  16.5  Hokulea    0.98  v
   288   2023-12-02T19:20:11UTC 2023-12-02T09:20:11-10:00 2023-12-02T11:20:11-08:00  32.82925 -119.24496     239  17.0  Hokulea    1.98 *v
   289   2023-12-02T17:21:07UTC 2023-12-02T07:21:07-10:00 2023-12-02T09:21:07-08:00  33.12231 -118.67397     250  18.4  Hokulea    1.00  v
   290   2023-12-02T16:20:54UTC 2023-12-02T06:20:54-10:00 2023-12-02T08:20:54-08:00  33.22702 -118.32913     243  12.4  Hokulea    1.01  v
   291   2023-12-02T15:20:14UTC 2023-12-02T05:20:14-10:00 2023-12-02T07:20:14-08:00  33.32287 -118.10657     160   9.7  Hokulea    1.00  v
   292   2023-12-02T14:20:22UTC 2023-12-02T04:20:22-10:00 2023-12-02T06:20:22-08:00  33.47380 -118.17298     168   9.3  Hokulea    1.00  v
   293   2023-12-02T13:20:18UTC 2023-12-02T03:20:18-10:00 2023-12-02T05:20:18-08:00  33.62555 -118.21223     178   7.5  Hokulea    1.00  v
   294   2023-12-02T12:20:20UTC 2023-12-02T02:20:20-10:00 2023-12-02T04:20:20-08:00  33.75128 -118.21819     184   1.1  Hokulea    1.01  v
   295   2023-12-02T11:19:54UTC 2023-12-02T01:19:54-10:00 2023-12-02T03:19:54-08:00  33.76992 -118.21682       0   0.0  Hokulea   11.99 * 
   296   2023-12-01T23:20:22UTC 2023-12-01T13:20:22-10:00 2023-12-01T15:20:22-08:00  33.76975 -118.21693      83   0.0  Hokulea    1.00   
   297   2023-12-01T22:20:10UTC 2023-12-01T12:20:10-10:00 2023-12-01T14:20:10-08:00  33.76969 -118.21757     243   0.1  Hokulea    1.00  v
   298   2023-12-01T21:20:08UTC 2023-12-01T11:20:08-10:00 2023-12-01T13:20:08-08:00  33.77035 -118.21602       7   2.7  Hokulea    1.01  v
   299   2023-12-01T20:19:21UTC 2023-12-01T10:19:21-10:00 2023-12-01T12:19:21-08:00  33.72515 -118.22220     103   2.8  Hokulea    1.01  v
   300   2023-12-01T19:19:02UTC 2023-12-01T09:19:02-10:00 2023-12-01T11:19:02-08:00  33.73588 -118.27795       0   0.0  Hokulea    3.98 * 
   301   2023-12-01T15:19:58UTC 2023-12-01T05:19:58-10:00 2023-12-01T07:19:58-08:00  33.73588 -118.27795       0   0.0  Hokulea    1.00   
   302   2023-12-01T14:20:02UTC 2023-12-01T04:20:02-10:00 2023-12-01T06:20:02-08:00  33.73588 -118.27795     318   0.2  Hokulea  367.02 *v (15.3 days)
   303   2023-11-16T07:18:33UTC 2023-11-15T21:18:33-10:00 2023-11-15T23:18:33-08:00  32.72076 -117.17427     318   0.0  Hokulea   75.83 *  (3.2 days)
   304   2023-11-13T03:28:55UTC 2023-11-12T17:28:55-10:00 2023-11-12T19:28:55-08:00  32.72074 -117.17430     240   0.0  Hokulea    2.17 * 
   305   2023-11-13T01:18:54UTC 2023-11-12T15:18:54-10:00 2023-11-12T17:18:54-08:00  32.72076 -117.17425      84   0.8  Hokulea    1.00  v return to San Diego, CA
   306   2023-11-13T00:18:43UTC 2023-11-12T14:18:43-10:00 2023-11-12T16:18:43-08:00  32.71945 -117.18955      23   4.5  Hokulea    1.01  v
   307   2023-11-12T23:17:56UTC 2023-11-12T13:17:56-10:00 2023-11-12T15:17:56-08:00  32.64889 -117.22468       4   3.5  Hokulea    0.99  v
   308   2023-11-12T22:18:32UTC 2023-11-12T12:18:32-10:00 2023-11-12T14:18:32-08:00  32.59076 -117.22983       5   0.6  Hokulea    1.01  v
   309   2023-11-12T21:17:38UTC 2023-11-12T11:17:38-10:00 2023-11-12T13:17:38-08:00  32.58133 -117.23086     158   1.2  Hokulea    1.98 *v
   310   2023-11-12T19:18:42UTC 2023-11-12T09:18:42-10:00 2023-11-12T11:18:42-08:00  32.61898 -117.24899     195   5.7  Hokulea    1.02  v
   311   2023-11-12T18:17:41UTC 2023-11-12T08:17:41-10:00 2023-11-12T10:17:41-08:00  32.71295 -117.21854     258   2.7  Hokulea    0.84  v uw-day sail
   312   2023-11-12T17:27:15UTC 2023-11-12T07:27:15-10:00 2023-11-12T09:27:15-08:00  32.72078 -117.17430     180   0.0  Hokulea   14.15 * 
   313   2023-11-12T03:18:30UTC 2023-11-11T17:18:30-10:00 2023-11-11T19:18:30-08:00  32.72077 -117.17425       0   0.0  Hokulea    1.00    return to San Diego, CA
   314   2023-11-12T02:18:46UTC 2023-11-11T16:18:46-10:00 2023-11-11T18:18:46-08:00  32.72076 -117.17425      72   1.4  Hokulea    2.00 *v
   315   2023-11-12T00:18:41UTC 2023-11-11T14:18:41-10:00 2023-11-11T16:18:41-08:00  32.70643 -117.22657      19   5.7  Hokulea    1.01  v
   316   2023-11-11T23:17:47UTC 2023-11-11T13:17:47-10:00 2023-11-11T15:17:47-08:00  32.61516 -117.26296      57   5.7  Hokulea    0.99  v
   317   2023-11-11T22:18:27UTC 2023-11-11T12:18:27-10:00 2023-11-11T14:18:27-08:00  32.56461 -117.35649     237   4.0  Hokulea    1.00  v 13nm/brg225 from San Diego
   318   2023-11-11T21:18:40UTC 2023-11-11T11:18:40-10:00 2023-11-11T13:18:40-08:00  32.60029 -117.29107     228   1.8  Hokulea    2.02 *v
   319   2023-11-11T19:17:30UTC 2023-11-11T09:17:30-10:00 2023-11-11T11:17:30-08:00  32.64126 -117.23678     206   5.3  Hokulea    0.98  v
   320   2023-11-11T18:18:33UTC 2023-11-11T08:18:33-10:00 2023-11-11T10:18:33-08:00  32.71962 -117.19176     266   0.9  Hokulea    1.01  v uw-day sail
   321   2023-11-11T17:17:46UTC 2023-11-11T07:17:46-10:00 2023-11-11T09:17:46-08:00  32.72076 -117.17430      90   0.0  Hokulea   62.98 *  (2.6 days)
   322   2023-11-09T02:18:49UTC 2023-11-08T16:18:49-10:00 2023-11-08T18:18:49-08:00  32.72075 -117.17425       0   0.0  Hokulea    1.00   
   323   2023-11-09T01:18:35UTC 2023-11-08T15:18:35-10:00 2023-11-08T17:18:35-08:00  32.72074 -117.17425      70   1.4  Hokulea    2.00 *v arr-San Diego, CA
   324   2023-11-08T23:18:52UTC 2023-11-08T13:18:52-10:00 2023-11-08T15:18:52-08:00  32.70477 -117.22760      58   2.6  Hokulea    1.02  v
   325   2023-11-08T22:17:33UTC 2023-11-08T12:17:33-10:00 2023-11-08T14:17:33-08:00  32.68111 -117.27294     169   7.5  Hokulea    0.98  v
   326   2023-11-08T21:18:32UTC 2023-11-08T11:18:32-10:00 2023-11-08T13:18:32-08:00  32.80209 -117.30010     191   3.9  Hokulea    1.01  v
   327   2023-11-08T20:17:51UTC 2023-11-08T10:17:51-10:00 2023-11-08T12:17:51-08:00  32.86632 -117.28532     168   6.9  Hokulea    0.99  v
   328   2023-11-08T19:18:38UTC 2023-11-08T09:18:38-10:00 2023-11-08T11:18:38-08:00  32.97744 -117.31281     140   6.5  Hokulea    2.02 *v
   329   2023-11-08T17:17:29UTC 2023-11-08T07:17:29-10:00 2023-11-08T09:17:29-08:00  33.14536 -117.47831     156   7.3  Hokulea    0.98  v
   330   2023-11-08T16:18:35UTC 2023-11-08T06:18:35-10:00 2023-11-08T08:18:35-08:00  33.25395 -117.53607     156   5.9  Hokulea    1.00  v
   331   2023-11-08T15:18:52UTC 2023-11-08T05:18:52-10:00 2023-11-08T07:18:52-08:00  33.34317 -117.58296     140   4.1  Hokulea    1.00  v
   332   2023-11-08T14:18:42UTC 2023-11-08T04:18:42-10:00 2023-11-08T06:18:42-08:00  33.39543 -117.63467     137   5.8  Hokulea    0.87  v
   333   2023-11-08T13:26:13UTC 2023-11-08T03:26:13-10:00 2023-11-08T05:26:13-08:00  33.45813 -117.70327     144   0.2  Hokulea    1.12  v dep-Dana Point, CA
   334   2023-11-08T12:18:51UTC 2023-11-08T02:18:51-10:00 2023-11-08T04:18:51-08:00  33.46132 -117.70606       0   0.0  Hokulea   84.00 *  (3.5 days)
   335   2023-11-05T00:18:34UTC 2023-11-04T14:18:34-10:00 2023-11-04T16:18:34-08:00  33.46127 -117.70606       0   0.0  Hokulea    1.01    arr-Dana Point, CA
   336   2023-11-04T23:17:44UTC 2023-11-04T13:17:44-10:00 2023-11-04T15:17:44-08:00  33.46126 -117.70606     319   1.9  Hokulea    0.99  v
   337   2023-11-04T22:18:37UTC 2023-11-04T12:18:37-10:00 2023-11-04T14:18:37-08:00  33.43730 -117.68098      99   0.2  Hokulea    1.02  v
   338   2023-11-04T21:17:41UTC 2023-11-04T11:17:41-10:00 2023-11-04T13:17:41-08:00  33.43787 -117.68548      98   3.8  Hokulea    1.00  v
   339   2023-11-04T20:17:43UTC 2023-11-04T10:17:43-10:00 2023-11-04T12:17:43-08:00  33.44635 -117.76110     139   6.4  Hokulea    0.99  v
   340   2023-11-04T19:18:27UTC 2023-11-04T09:18:27-10:00 2023-11-04T11:18:27-08:00  33.52571 -117.84363     156   2.4  Hokulea    2.01 *v
   341   2023-11-04T17:17:47UTC 2023-11-04T07:17:47-10:00 2023-11-04T09:17:47-08:00  33.59811 -117.88141     121   2.2  Hokulea    0.99  v dep-Newport Beach, CA
   342   2023-11-04T16:18:24UTC 2023-11-04T06:18:24-10:00 2023-11-04T08:18:24-08:00  33.61672 -117.91905     150   0.0  Hokulea  111.00 *  (4.6 days)
   343   2023-10-31T01:18:33UTC 2023-10-30T15:18:33-10:00 2023-10-30T17:18:33-08:00  33.61668 -117.91888     291   0.0  Hokulea    1.01    arr-Newport Beach, CA
   344   2023-10-31T00:17:48UTC 2023-10-30T14:17:48-10:00 2023-10-30T16:17:48-08:00  33.61666 -117.91881     303   0.9  Hokulea    0.99  v
   345   2023-10-30T23:18:30UTC 2023-10-30T13:18:30-10:00 2023-10-30T15:18:30-08:00  33.60852 -117.90409      97   3.3  Hokulea    2.01 *v
   346   2023-10-30T21:17:41UTC 2023-10-30T11:17:41-10:00 2023-10-30T13:17:41-08:00  33.62273 -118.03400     106   7.6  Hokulea    1.00  v
   347   2023-10-30T20:17:40UTC 2023-10-30T10:17:40-10:00 2023-10-30T12:17:40-08:00  33.65706 -118.17991     111   4.7  Hokulea    2.00 *v
   348   2023-10-30T18:17:57UTC 2023-10-30T08:17:57-10:00 2023-10-30T10:17:57-08:00  33.71299 -118.35533     136   6.7  Hokulea    1.00  v
   349   2023-10-30T17:17:44UTC 2023-10-30T07:17:44-10:00 2023-10-30T09:17:44-08:00  33.79414 -118.44785     172   6.3  Hokulea    0.99  v
   350   2023-10-30T16:18:29UTC 2023-10-30T06:18:29-10:00 2023-10-30T08:18:29-08:00  33.89728 -118.46581     192   2.4  Hokulea    2.00 *v
   351   2023-10-30T14:18:46UTC 2023-10-30T04:18:46-10:00 2023-10-30T06:18:46-08:00  33.97613 -118.44590       0   0.0  Hokulea  133.00 *  (5.5 days)
   352   2023-10-25T01:18:33UTC 2023-10-24T15:18:33-10:00 2023-10-24T17:18:33-08:00  33.97611 -118.44590     180   0.0  Hokulea    0.99   
   353   2023-10-25T00:18:51UTC 2023-10-24T14:18:51-10:00 2023-10-24T16:18:51-08:00  33.97613 -118.44590      21   0.2  Hokulea    1.01  v arr-Marina del Rey, Los Angeles, CA
   354   2023-10-24T23:18:31UTC 2023-10-24T13:18:31-10:00 2023-10-24T15:18:31-08:00  33.97261 -118.44749      93   6.6  Hokulea    2.02 *v
   355   2023-10-24T21:17:33UTC 2023-10-24T11:17:33-10:00 2023-10-24T13:17:33-08:00  33.98461 -118.71451     100   8.0  Hokulea    0.98  v
   356   2023-10-24T20:18:46UTC 2023-10-24T10:18:46-10:00 2023-10-24T12:18:46-08:00  34.00732 -118.86941     109   7.5  Hokulea    1.02  v
   357   2023-10-24T19:17:41UTC 2023-10-24T09:17:41-10:00 2023-10-24T11:17:41-08:00  34.04875 -119.01401     114   7.2  Hokulea    0.99  v
   358   2023-10-24T18:18:31UTC 2023-10-24T08:18:31-10:00 2023-10-24T10:18:31-08:00  34.09653 -119.14347     129   7.0  Hokulea    1.01  v
   359   2023-10-24T17:17:49UTC 2023-10-24T07:17:49-10:00 2023-10-24T09:17:49-08:00  34.17164 -119.25346     172   4.5  Hokulea    0.99  v dep-Ventura Harbor, CA (Leg 9 to San Diego)
   360   2023-10-24T16:18:24UTC 2023-10-24T06:18:24-10:00 2023-10-24T08:18:24-08:00  34.24583 -119.26560       0   0.0  Hokulea  135.99 *  (5.7 days)
   361   2023-10-19T00:18:48UTC 2023-10-18T14:18:48-10:00 2023-10-18T16:18:48-08:00  34.24583 -119.26560      90   0.0  Hokulea    1.00   
   362   2023-10-18T23:18:34UTC 2023-10-18T13:18:34-10:00 2023-10-18T15:18:34-08:00  34.24583 -119.26562      89   2.2  Hokulea    1.00  v arr-Ventura Harbor, CA
   363   2023-10-18T22:18:35UTC 2023-10-18T12:18:35-10:00 2023-10-18T14:18:35-08:00  34.24518 -119.31013     102   9.5  Hokulea    1.01  v
   364   2023-10-18T21:17:42UTC 2023-10-18T11:17:42-10:00 2023-10-18T13:17:42-08:00  34.27802 -119.49932      97   9.4  Hokulea    1.00  v
   365   2023-10-18T20:17:43UTC 2023-10-18T10:17:43-10:00 2023-10-18T12:17:43-08:00  34.29859 -119.68699      97   9.2  Hokulea    0.99  v
   366   2023-10-18T19:18:32UTC 2023-10-18T09:18:32-10:00 2023-10-18T11:18:32-08:00  34.31747 -119.86717      96   8.4  Hokulea    1.00  v
   367   2023-10-18T18:18:40UTC 2023-10-18T08:18:40-10:00 2023-10-18T10:18:40-08:00  34.33211 -120.03531     102   7.4  Hokulea    1.02  v
   368   2023-10-18T17:17:40UTC 2023-10-18T07:17:40-10:00 2023-10-18T09:17:40-08:00  34.35778 -120.18369     102   7.3  Hokulea    1.99 *v
   369   2023-10-18T15:18:32UTC 2023-10-18T05:18:32-10:00 2023-10-18T07:18:32-08:00  34.40854 -120.46981     117   5.9  Hokulea    1.00  v
   370   2023-10-18T14:18:31UTC 2023-10-18T04:18:31-10:00 2023-10-18T06:18:31-08:00  34.45293 -120.57648     131   6.8  Hokulea    1.00  v
   371   2023-10-18T13:18:40UTC 2023-10-18T03:18:40-10:00 2023-10-18T05:18:40-08:00  34.52707 -120.68076     139   6.2  Hokulea    1.00  v
   372   2023-10-18T12:18:52UTC 2023-10-18T02:18:52-10:00 2023-10-18T04:18:52-08:00  34.60501 -120.76138     176   6.3  Hokulea    0.99  v
   373   2023-10-18T11:19:29UTC 2023-10-18T01:19:29-10:00 2023-10-18T03:19:29-08:00  34.70909 -120.76936     166   6.7  Hokulea    1.01  v
   374   2023-10-18T10:18:35UTC 2023-10-18T00:18:35-10:00 2023-10-18T02:18:35-08:00  34.81943 -120.80146     168   6.6  Hokulea    1.00  v
   375   2023-10-18T09:18:50UTC 2023-10-17T23:18:50-10:00 2023-10-18T01:18:50-08:00  34.92622 -120.82907     166   6.7  Hokulea    2.00 *v
   376   2023-10-18T07:18:33UTC 2023-10-17T21:18:33-10:00 2023-10-17T23:18:33-08:00  35.14383 -120.89602     169   6.9  Hokulea    1.01  v
   377   2023-10-18T06:17:49UTC 2023-10-17T20:17:49-10:00 2023-10-17T22:17:49-08:00  35.25781 -120.92194     201   6.7  Hokulea    0.99  v
   378   2023-10-18T05:18:26UTC 2023-10-17T19:18:26-10:00 2023-10-17T21:18:26-08:00  35.36070 -120.87379     263   1.0  Hokulea    1.00  v dep-Morro Bay, CA
   379   2023-10-18T04:18:33UTC 2023-10-17T18:18:33-10:00 2023-10-17T20:18:33-08:00  35.36284 -120.85283     180   0.0  Hokulea   97.00 *  (4.0 days)
   380   2023-10-14T03:18:25UTC 2023-10-13T17:18:25-10:00 2023-10-13T19:18:25-08:00  35.36268 -120.85274      29   0.0  Hokulea    0.99   
   381   2023-10-14T02:18:52UTC 2023-10-13T16:18:52-10:00 2023-10-13T18:18:52-08:00  35.36265 -120.85276     349   0.2  Hokulea    1.00  v moveto-Morro Bay, CA Yacht Club
   382   2023-10-14T01:18:40UTC 2023-10-13T15:18:40-10:00 2023-10-13T17:18:40-08:00  35.36008 -120.85214     339   0.0  Hokulea    1.02   
   383   2023-10-14T00:17:34UTC 2023-10-13T14:17:34-10:00 2023-10-13T16:17:34-08:00  35.35956 -120.85191     159   0.1  Hokulea    0.98  v arr-Morro Bay, CA Tidelands Park
   384   2023-10-13T23:18:38UTC 2023-10-13T13:18:38-10:00 2023-10-13T15:18:38-08:00  35.36111 -120.85264     110   2.7  Hokulea    1.02  v
   385   2023-10-13T22:17:34UTC 2023-10-13T12:17:34-10:00 2023-10-13T14:17:34-08:00  35.37676 -120.90636     130   8.2  Hokulea    0.98  v
   386   2023-10-13T21:18:34UTC 2023-10-13T11:18:34-10:00 2023-10-13T13:18:34-08:00  35.46306 -121.03307     132   8.2  Hokulea    2.02 *v
   387   2023-10-13T19:17:32UTC 2023-10-13T09:17:32-10:00 2023-10-13T11:17:32-08:00  35.64635 -121.28447     135   7.4  Hokulea    1.00  v
   388   2023-10-13T18:17:49UTC 2023-10-13T08:17:49-10:00 2023-10-13T10:17:49-08:00  35.73284 -121.39036     142   8.6  Hokulea    0.88  v
   389   2023-10-13T17:25:15UTC 2023-10-13T07:25:15-10:00 2023-10-13T09:25:15-08:00  35.83299 -121.48467     140   6.7  Hokulea    1.11  v
   390   2023-10-13T16:18:39UTC 2023-10-13T06:18:39-10:00 2023-10-13T08:18:39-08:00  35.92814 -121.58267     142   7.3  Hokulea    1.00  v
   391   2023-10-13T15:18:39UTC 2023-10-13T05:18:39-10:00 2023-10-13T07:18:39-08:00  36.02438 -121.67521     143   7.5  Hokulea    2.00 *v
   392   2023-10-13T13:18:40UTC 2023-10-13T03:18:40-10:00 2023-10-13T05:18:40-08:00  36.22612 -121.86121     157   7.2  Hokulea    1.98 *v
   393   2023-10-13T11:19:48UTC 2023-10-13T01:19:48-10:00 2023-10-13T03:19:48-08:00  36.44485 -121.97588     175   7.0  Hokulea    1.04  v
   394   2023-10-13T10:17:37UTC 2023-10-13T00:17:37-10:00 2023-10-13T02:17:37-08:00  36.56556 -121.98996     212   5.9  Hokulea    0.98  v
   395   2023-10-13T09:18:42UTC 2023-10-12T23:18:42-10:00 2023-10-13T01:18:42-08:00  36.64695 -121.92706     326   3.0  Hokulea    1.00  v dep-Monterey Bay, CA
   396   2023-10-13T08:18:26UTC 2023-10-12T22:18:26-10:00 2023-10-13T00:18:26-08:00  36.60554 -121.89235       0   0.0  Hokulea  175.00 *  (7.3 days)
   397   2023-10-06T01:18:33UTC 2023-10-05T15:18:33-10:00 2023-10-05T17:18:33-08:00  36.60563 -121.89224      67   0.0  Hokulea    1.00   
   398   2023-10-06T00:18:50UTC 2023-10-05T14:18:50-10:00 2023-10-05T16:18:50-08:00  36.60551 -121.89258     163   1.1  Hokulea    2.00 *v arr-Monterey Bay, CA
   399   2023-10-05T22:18:32UTC 2023-10-05T12:18:32-10:00 2023-10-05T14:18:32-08:00  36.64199 -121.90604     137   8.1  Hokulea    0.99  v
   400   2023-10-05T21:18:56UTC 2023-10-05T11:18:56-10:00 2023-10-05T13:18:56-08:00  36.74077 -122.02019     140   7.8  Hokulea    1.02  v
   401   2023-10-05T20:17:30UTC 2023-10-05T10:17:30-10:00 2023-10-05T12:17:30-08:00  36.84279 -122.12816     141   8.1  Hokulea    1.99 *v
   402   2023-10-05T18:17:52UTC 2023-10-05T08:17:52-10:00 2023-10-05T10:17:52-08:00  37.05214 -122.33862     146   7.9  Hokulea    1.00  v
   403   2023-10-05T17:17:41UTC 2023-10-05T07:17:41-10:00 2023-10-05T09:17:41-08:00  37.16070 -122.43136     160   8.1  Hokulea    0.99  v
   404   2023-10-05T16:18:32UTC 2023-10-05T06:18:32-10:00 2023-10-05T08:18:32-08:00  37.28575 -122.48728     181   6.5  Hokulea    2.00 *v
   405   2023-10-05T14:18:45UTC 2023-10-05T04:18:45-10:00 2023-10-05T06:18:45-08:00  37.50205 -122.48359       0   0.0  Hokulea   86.02 *  (3.6 days)
   406   2023-10-02T00:17:49UTC 2023-10-01T14:17:49-10:00 2023-10-01T16:17:49-08:00  37.50189 -122.48359       0   0.0  Hokulea    1.01    arr-Pillar Point, Half Moon Bay, CA
   407   2023-10-01T23:17:28UTC 2023-10-01T13:17:28-10:00 2023-10-01T15:17:28-08:00  37.50186 -122.48359      39   1.5  Hokulea    0.98  v
   408   2023-10-01T22:18:28UTC 2023-10-01T12:18:28-10:00 2023-10-01T14:18:28-08:00  37.48288 -122.50260     147   4.2  Hokulea    1.01  v
   409   2023-10-01T21:17:40UTC 2023-10-01T11:17:40-10:00 2023-10-01T13:17:40-08:00  37.54321 -122.55114     179   3.9  Hokulea    1.00  v
   410   2023-10-01T20:17:34UTC 2023-10-01T10:17:34-10:00 2023-10-01T12:17:34-08:00  37.60797 -122.55221     184   2.7  Hokulea    2.00 *v
   411   2023-10-01T18:17:34UTC 2023-10-01T08:17:34-10:00 2023-10-01T10:17:34-08:00  37.69891 -122.54444     195   3.1  Hokulea    1.98 *v
   412   2023-10-01T16:18:51UTC 2023-10-01T06:18:51-10:00 2023-10-01T08:18:51-08:00  37.79821 -122.51131     256   4.9  Hokulea    0.86  v
   413   2023-10-01T15:27:21UTC 2023-10-01T05:27:21-10:00 2023-10-01T07:27:21-08:00  37.81578 -122.42548     332   0.4  Hokulea    1.00  v dep-Hyde St,SanFrancisco,CA (Leg 8 to Ventura)
   414   2023-10-01T14:27:36UTC 2023-10-01T04:27:36-10:00 2023-10-01T06:27:36-08:00  37.81033 -122.42181     180   0.0  Hokulea  155.15 *  (6.5 days)
   415   2023-09-25T03:18:34UTC 2023-09-24T17:18:34-10:00 2023-09-24T19:18:34-08:00  37.81031 -122.42179     213   0.0  Hokulea    2.00 * 
   416   2023-09-25T01:18:34UTC 2023-09-24T15:18:34-10:00 2023-09-24T17:18:34-08:00  37.81062 -122.42153      34   0.2  Hokulea    1.01  v
   417   2023-09-25T00:17:49UTC 2023-09-24T14:17:49-10:00 2023-09-24T16:17:49-08:00  37.80803 -122.42370       0   0.0  Hokulea    1.89 * 
   418   2023-09-24T22:24:34UTC 2023-09-24T12:24:34-10:00 2023-09-24T14:24:34-08:00  37.80808 -122.42374     349   0.0  Hokulea    1.10   
   419   2023-09-24T21:18:37UTC 2023-09-24T11:18:37-10:00 2023-09-24T13:18:37-08:00  37.80799 -122.42372     174   0.1  Hokulea    2.02 *v arr-Aquatic Park Cove,SanFrancisco,CA
   420   2023-09-24T19:17:40UTC 2023-09-24T09:17:40-10:00 2023-09-24T11:17:40-08:00  37.81096 -122.42413      85   4.4  Hokulea    0.98  v
   421   2023-09-24T18:18:41UTC 2023-09-24T08:18:41-10:00 2023-09-24T10:18:41-08:00  37.80457 -122.51528     210   1.8  Hokulea    2.00 *v
   422   2023-09-24T16:18:29UTC 2023-09-24T06:18:29-10:00 2023-09-24T08:18:29-08:00  37.85673 -122.47788     270   0.0  Hokulea   14.01 * 
   423   2023-09-24T02:17:44UTC 2023-09-23T16:17:44-10:00 2023-09-23T18:17:44-08:00  37.85674 -122.47784     237   0.0  Hokulea    0.99   
   424   2023-09-24T01:18:32UTC 2023-09-23T15:18:32-10:00 2023-09-23T17:18:32-08:00  37.85675 -122.47782     124   1.0  Hokulea    0.87  v moveto-Sausalito Yacht Club,CA
   425   2023-09-24T00:26:25UTC 2023-09-23T14:26:25-10:00 2023-09-23T16:26:25-08:00  37.86508 -122.49353       0   0.0  Hokulea  184.14 *  (7.7 days)
   426   2023-09-16T08:17:51UTC 2023-09-15T22:17:51-10:00 2023-09-16T00:17:51-08:00  37.86499 -122.49353     237   0.0  Hokulea    0.99   
   427   2023-09-16T07:18:25UTC 2023-09-15T21:18:25-10:00 2023-09-15T23:18:25-08:00  37.86501 -122.49348     282   0.3  Hokulea    1.99 *v arr-Sausalito,CA
   428   2023-09-16T05:18:49UTC 2023-09-15T19:18:49-10:00 2023-09-15T21:18:49-08:00  37.86318 -122.48267      82   3.9  Hokulea    2.02 *v
   429   2023-09-16T03:17:32UTC 2023-09-15T17:17:32-10:00 2023-09-15T19:17:32-08:00  37.84388 -122.64864     114   6.2  Hokulea    0.98  v
   430   2023-09-16T02:18:45UTC 2023-09-15T16:18:45-10:00 2023-09-15T18:18:45-08:00  37.88576 -122.76559     117   5.9  Hokulea    2.00 *v
   431   2023-09-16T00:18:40UTC 2023-09-15T14:18:40-10:00 2023-09-15T16:18:40-08:00  37.97481 -122.98817     148   4.9  Hokulea    1.00  v
   432   2023-09-15T23:18:35UTC 2023-09-15T13:18:35-10:00 2023-09-15T15:18:35-08:00  38.04472 -123.04239     184   5.5  Hokulea    1.01  v
   433   2023-09-15T22:17:51UTC 2023-09-15T12:17:51-10:00 2023-09-15T14:17:51-08:00  38.13811 -123.03443     179   5.9  Hokulea    0.99  v
   434   2023-09-15T21:18:38UTC 2023-09-15T11:18:38-10:00 2023-09-15T13:18:38-08:00  38.23457 -123.03619     177   3.6  Hokulea    0.90  v
   435   2023-09-15T20:24:25UTC 2023-09-15T10:24:25-10:00 2023-09-15T12:24:25-08:00  38.28848 -123.03921      88   0.4  Hokulea    1.10  v pause-off Bodega Head,CA
   436   2023-09-15T19:18:33UTC 2023-09-15T09:18:33-10:00 2023-09-15T11:18:33-08:00  38.28817 -123.04855     120   2.0  Hokulea    2.00 *v pause-while Kolea in Bodega Bay for Replenishment
   437   2023-09-15T17:18:43UTC 2023-09-15T07:18:43-10:00 2023-09-15T09:18:43-08:00  38.32082 -123.12026     133   6.8  Hokulea    1.02  v
   438   2023-09-15T16:17:32UTC 2023-09-15T06:17:32-10:00 2023-09-15T08:17:32-08:00  38.40037 -123.22686     130   7.2  Hokulea    0.98  v
   439   2023-09-15T15:18:32UTC 2023-09-15T05:18:32-10:00 2023-09-15T07:18:32-08:00  38.47631 -123.34097     136   6.9  Hokulea    1.00  v
   440   2023-09-15T14:18:43UTC 2023-09-15T04:18:43-10:00 2023-09-15T06:18:43-08:00  38.55826 -123.44182     136   6.7  Hokulea    1.00  v
   441   2023-09-15T13:18:37UTC 2023-09-15T03:18:37-10:00 2023-09-15T05:18:37-08:00  38.63853 -123.54120     139   6.8  Hokulea    1.00  v
   442   2023-09-15T12:18:32UTC 2023-09-15T02:18:32-10:00 2023-09-15T04:18:32-08:00  38.72518 -123.63625     143   7.1  Hokulea    1.01  v
   443   2023-09-15T11:17:52UTC 2023-09-15T01:17:52-10:00 2023-09-15T03:17:52-08:00  38.82042 -123.72751     146   8.3  Hokulea    0.85  v
   444   2023-09-15T10:26:49UTC 2023-09-15T00:26:49-10:00 2023-09-15T02:26:49-08:00  38.91802 -123.81036     168   5.8  Hokulea    1.13  v
   445   2023-09-15T09:18:52UTC 2023-09-14T23:18:52-10:00 2023-09-15T01:18:52-08:00  39.02544 -123.83950     166   6.8  Hokulea    1.01  v
   446   2023-09-15T08:18:31UTC 2023-09-14T22:18:31-10:00 2023-09-15T00:18:31-08:00  39.13588 -123.87499     161   7.0  Hokulea    1.00  v
   447   2023-09-15T07:18:36UTC 2023-09-14T21:18:36-10:00 2023-09-14T23:18:36-08:00  39.24594 -123.92473     152   6.7  Hokulea    1.00  v
   448   2023-09-15T06:18:42UTC 2023-09-14T20:18:42-10:00 2023-09-14T22:18:42-08:00  39.34378 -123.99284     154   6.9  Hokulea    1.00  v
   449   2023-09-15T05:18:40UTC 2023-09-14T19:18:40-10:00 2023-09-14T21:18:40-08:00  39.44815 -124.05760     153   6.4  Hokulea    1.00  v
   450   2023-09-15T04:18:37UTC 2023-09-14T18:18:37-10:00 2023-09-14T20:18:37-08:00  39.54385 -124.12055     157   6.6  Hokulea    1.02  v
   451   2023-09-15T03:17:40UTC 2023-09-14T17:17:40-10:00 2023-09-14T19:17:40-08:00  39.64727 -124.17638     159   6.7  Hokulea    0.98  v
   452   2023-09-15T02:18:44UTC 2023-09-14T16:18:44-10:00 2023-09-14T18:18:44-08:00  39.75047 -124.22634     155   6.8  Hokulea    1.00  v
   453   2023-09-15T01:18:32UTC 2023-09-14T15:18:32-10:00 2023-09-14T17:18:32-08:00  39.85334 -124.28878     156   6.8  Hokulea    1.00  v
   454   2023-09-15T00:18:39UTC 2023-09-14T14:18:39-10:00 2023-09-14T16:18:39-08:00  39.95606 -124.34951     180   5.8  Hokulea    1.01  v
   455   2023-09-14T23:17:48UTC 2023-09-14T13:17:48-10:00 2023-09-14T15:17:48-08:00  40.05362 -124.34961     177   5.2  Hokulea    0.98  v
   456   2023-09-14T22:18:44UTC 2023-09-14T12:18:44-10:00 2023-09-14T14:18:44-08:00  40.13941 -124.35584     158   5.4  Hokulea    1.02  v
   457   2023-09-14T21:17:37UTC 2023-09-14T11:17:37-10:00 2023-09-14T13:17:37-08:00  40.22410 -124.40058     156   5.8  Hokulea    0.98  v
   458   2023-09-14T20:18:46UTC 2023-09-14T10:18:46-10:00 2023-09-14T12:18:46-08:00  40.31144 -124.45019     165   6.2  Hokulea    1.02  v
   459   2023-09-14T19:17:42UTC 2023-09-14T09:17:42-10:00 2023-09-14T11:17:42-08:00  40.41248 -124.48548     194   7.0  Hokulea    1.00  v
   460   2023-09-14T18:17:42UTC 2023-09-14T08:17:42-10:00 2023-09-14T10:17:42-08:00  40.52575 -124.44974     208   7.6  Hokulea    1.99 *v
   461   2023-09-14T16:18:34UTC 2023-09-14T06:18:34-10:00 2023-09-14T08:18:34-08:00  40.74870 -124.29724     253   4.1  Hokulea    1.00  v
   462   2023-09-14T15:18:39UTC 2023-09-14T05:18:39-10:00 2023-09-14T07:18:39-08:00  40.76913 -124.21121     222   3.0  Hokulea    1.00  v dep-Eureka,CA
   463   2023-09-14T14:18:39UTC 2023-09-14T04:18:39-10:00 2023-09-14T06:18:39-08:00  40.80616 -124.16714     143   0.0  Hokulea   43.02 *  (1.8 days)
   464   2023-09-12T19:17:26UTC 2023-09-12T09:17:26-10:00 2023-09-12T11:17:26-08:00  40.80618 -124.16716      36   0.0  Hokulea    1.00   
   465   2023-09-12T18:17:43UTC 2023-09-12T08:17:43-10:00 2023-09-12T10:17:43-08:00  40.80616 -124.16718      75   0.3  Hokulea    2.00 *v arr-Eureka,CA
   466   2023-09-12T16:17:32UTC 2023-09-12T06:17:32-10:00 2023-09-12T08:17:32-08:00  40.80351 -124.17978      72   4.3  Hokulea    0.98  v
   467   2023-09-12T15:18:41UTC 2023-09-12T05:18:41-10:00 2023-09-12T07:18:41-08:00  40.78174 -124.26887     171   6.6  Hokulea    1.00  v
   468   2023-09-12T14:18:41UTC 2023-09-12T04:18:41-10:00 2023-09-12T06:18:41-08:00  40.89024 -124.29254     172   7.5  Hokulea    0.85  v
   469   2023-09-12T13:27:26UTC 2023-09-12T03:27:26-10:00 2023-09-12T05:27:26-08:00  40.99626 -124.31271     173   6.2  Hokulea    1.14  v
   470   2023-09-12T12:18:50UTC 2023-09-12T02:18:50-10:00 2023-09-12T04:18:50-08:00  41.11433 -124.33273     171   6.1  Hokulea    1.00  v
   471   2023-09-12T11:18:38UTC 2023-09-12T01:18:38-10:00 2023-09-12T03:18:38-08:00  41.21575 -124.35283     172   6.2  Hokulea    1.00  v
   472   2023-09-12T10:18:34UTC 2023-09-12T00:18:34-10:00 2023-09-12T02:18:34-08:00  41.31828 -124.37150     169   6.5  Hokulea    1.00  v
   473   2023-09-12T09:18:30UTC 2023-09-11T23:18:30-10:00 2023-09-12T01:18:30-08:00  41.42411 -124.39817     170   7.0  Hokulea    0.99  v
   474   2023-09-12T08:18:48UTC 2023-09-11T22:18:48-10:00 2023-09-12T00:18:48-08:00  41.53856 -124.42538     174   7.5  Hokulea    1.00  v
   475   2023-09-12T07:18:36UTC 2023-09-11T21:18:36-10:00 2023-09-11T23:18:36-08:00  41.66280 -124.44158     180   4.0  Hokulea    1.02  v
   476   2023-09-12T06:17:32UTC 2023-09-11T20:17:32-10:00 2023-09-11T22:17:32-08:00  41.73122 -124.44169     173   7.9  Hokulea    0.98  v
   477   2023-09-12T05:18:45UTC 2023-09-11T19:18:45-10:00 2023-09-11T21:18:45-08:00  41.85887 -124.46334     171   7.6  Hokulea    1.00  v
   478   2023-09-12T04:18:33UTC 2023-09-11T18:18:33-10:00 2023-09-11T20:18:33-08:00  41.98524 -124.48922     169   7.3  Hokulea    1.00  v Passing OR/CA border
   479   2023-09-12T03:18:39UTC 2023-09-11T17:18:39-10:00 2023-09-11T19:18:39-08:00  42.10505 -124.52044     160   7.3  Hokulea    1.00  v
   480   2023-09-12T02:18:51UTC 2023-09-11T16:18:51-10:00 2023-09-11T18:18:51-08:00  42.21935 -124.57490     168  10.2  Hokulea    0.84  v
   481   2023-09-12T01:28:38UTC 2023-09-11T15:28:38-10:00 2023-09-11T17:28:38-08:00  42.35869 -124.61620     173   7.3  Hokulea    1.19  v
   482   2023-09-12T00:17:24UTC 2023-09-11T14:17:24-10:00 2023-09-11T16:17:24-08:00  42.50270 -124.64041     176   8.8  Hokulea    0.98  v
   483   2023-09-11T23:18:38UTC 2023-09-11T13:18:38-10:00 2023-09-11T15:18:38-08:00  42.64549 -124.65440     171   7.7  Hokulea    1.02  v
   484   2023-09-11T22:17:40UTC 2023-09-11T12:17:40-10:00 2023-09-11T14:17:40-08:00  42.77457 -124.68122     189   8.0  Hokulea    0.98  v
   485   2023-09-11T21:18:39UTC 2023-09-11T11:18:39-10:00 2023-09-11T13:18:39-08:00  42.90400 -124.65446     199   8.1  Hokulea    1.01  v
   486   2023-09-11T20:17:47UTC 2023-09-11T10:17:47-10:00 2023-09-11T12:17:47-08:00  43.03345 -124.59297     198   8.5  Hokulea    0.99  v
   487   2023-09-11T19:18:39UTC 2023-09-11T09:18:39-10:00 2023-09-11T11:18:39-08:00  43.16598 -124.53357     213   7.0  Hokulea    2.00 *v
   488   2023-09-11T17:18:30UTC 2023-09-11T07:18:30-10:00 2023-09-11T09:18:30-08:00  43.36203 -124.35847     228   5.3  Hokulea    0.99  v
   489   2023-09-11T16:18:51UTC 2023-09-11T06:18:51-10:00 2023-09-11T08:18:51-08:00  43.42112 -124.26855     321   4.0  Hokulea    1.00  v dep-Coos Bay,OR
   490   2023-09-11T15:18:38UTC 2023-09-11T05:18:38-10:00 2023-09-11T07:18:38-08:00  43.36964 -124.21121     154   0.0  Hokulea   46.00 *  (1.9 days)
   491   2023-09-09T17:18:44UTC 2023-09-09T07:18:44-10:00 2023-09-09T09:18:44-08:00  43.36965 -124.21121     180   0.0  Hokulea    1.02    arr-Coos Bay,OR
   492   2023-09-09T16:17:34UTC 2023-09-09T06:17:34-10:00 2023-09-09T08:17:34-08:00  43.36966 -124.21121     150   4.7  Hokulea    0.80  v
   493   2023-09-09T15:29:25UTC 2023-09-09T05:29:25-10:00 2023-09-09T07:29:25-08:00  43.42393 -124.25488      57   5.4  Hokulea    1.18  v
   494   2023-09-09T14:18:47UTC 2023-09-09T04:18:47-10:00 2023-09-09T06:18:47-08:00  43.36628 -124.37588     157   4.7  Hokulea    1.00  v
   495   2023-09-09T13:18:36UTC 2023-09-09T03:18:36-10:00 2023-09-09T05:18:36-08:00  43.43788 -124.41798     183   3.9  Hokulea    1.02  v
   496   2023-09-09T12:17:33UTC 2023-09-09T02:17:33-10:00 2023-09-09T04:17:33-08:00  43.50341 -124.41390     184   5.1  Hokulea    0.98  v
   497   2023-09-09T11:18:39UTC 2023-09-09T01:18:39-10:00 2023-09-09T03:18:39-08:00  43.58599 -124.40592     179   4.6  Hokulea    1.00  v
   498   2023-09-09T10:18:35UTC 2023-09-09T00:18:35-10:00 2023-09-09T02:18:35-08:00  43.66192 -124.40858     184   7.8  Hokulea    0.90  v
   499   2023-09-09T09:24:36UTC 2023-09-08T23:24:36-10:00 2023-09-09T01:24:36-08:00  43.77838 -124.39639     185   6.3  Hokulea    1.10  v
   500   2023-09-09T08:18:27UTC 2023-09-08T22:18:27-10:00 2023-09-09T00:18:27-08:00  43.89273 -124.38137     185   6.8  Hokulea    1.00  v
   501   2023-09-09T07:18:33UTC 2023-09-08T21:18:33-10:00 2023-09-08T23:18:33-08:00  44.00517 -124.36890     189   6.8  Hokulea    1.00  v
   502   2023-09-09T06:18:43UTC 2023-09-08T20:18:43-10:00 2023-09-08T22:18:43-08:00  44.11748 -124.34534     196   6.8  Hokulea    1.00  v
   503   2023-09-09T05:18:27UTC 2023-09-08T19:18:27-10:00 2023-09-08T21:18:27-08:00  44.22766 -124.30279     189   6.6  Hokulea    0.99  v
   504   2023-09-09T04:18:50UTC 2023-09-08T18:18:50-10:00 2023-09-08T20:18:50-08:00  44.33555 -124.27865     190   6.3  Hokulea    1.02  v
   505   2023-09-09T03:17:41UTC 2023-09-08T17:17:41-10:00 2023-09-08T19:17:41-08:00  44.44097 -124.25338     187   6.8  Hokulea    0.99  v
   506   2023-09-09T02:18:32UTC 2023-09-08T16:18:32-10:00 2023-09-08T18:18:32-08:00  44.55242 -124.23514     185   6.8  Hokulea    0.99  v
   507   2023-09-09T01:18:53UTC 2023-09-08T15:18:53-10:00 2023-09-08T17:18:53-08:00  44.66511 -124.22147     188   6.7  Hokulea    1.02  v
   508   2023-09-09T00:17:32UTC 2023-09-08T14:17:32-10:00 2023-09-08T16:17:32-08:00  44.77853 -124.19947     188   8.3  Hokulea    1.00  v
   509   2023-09-08T23:17:42UTC 2023-09-08T13:17:42-10:00 2023-09-08T15:17:42-08:00  44.91503 -124.17347     187   8.8  Hokulea    0.98  v
   510   2023-09-08T22:18:43UTC 2023-09-08T12:18:43-10:00 2023-09-08T14:18:43-08:00  45.05773 -124.14806     190   8.4  Hokulea    1.02  v
   511   2023-09-08T21:17:35UTC 2023-09-08T11:17:35-10:00 2023-09-08T13:17:35-08:00  45.19846 -124.11405     191   7.6  Hokulea    1.00  v
   512   2023-09-08T20:17:52UTC 2023-09-08T10:17:52-10:00 2023-09-08T12:17:52-08:00  45.32166 -124.08126     186   8.1  Hokulea    0.99  v
   513   2023-09-08T19:18:40UTC 2023-09-08T09:18:40-10:00 2023-09-08T11:18:40-08:00  45.45467 -124.06066     187   7.6  Hokulea    1.02  v
   514   2023-09-08T18:17:31UTC 2023-09-08T08:17:31-10:00 2023-09-08T10:17:31-08:00  45.58362 -124.03876     188   3.3  Hokulea    0.98  v
   515   2023-09-08T17:18:39UTC 2023-09-08T07:18:39-10:00 2023-09-08T09:18:39-08:00  45.63770 -124.02850     190   0.7  Hokulea    1.02  v
   516   2023-09-08T16:17:35UTC 2023-09-08T06:17:35-10:00 2023-09-08T08:17:35-08:00  45.64975 -124.02539     183   2.7  Hokulea    0.99  v
   517   2023-09-08T15:18:25UTC 2023-09-08T05:18:25-10:00 2023-09-08T07:18:25-08:00  45.69377 -124.02226     161   7.6  Hokulea    0.99  v
   518   2023-09-08T14:18:52UTC 2023-09-08T04:18:52-10:00 2023-09-08T06:18:52-08:00  45.81235 -124.08154     161   8.0  Hokulea    1.00  v
   519   2023-09-08T13:18:34UTC 2023-09-08T03:18:34-10:00 2023-09-08T05:18:34-08:00  45.93953 -124.14394     163   7.8  Hokulea    1.00  v
   520   2023-09-08T12:18:34UTC 2023-09-08T02:18:34-10:00 2023-09-08T04:18:34-08:00  46.06441 -124.19711     162   7.7  Hokulea    1.00  v
   521   2023-09-08T11:18:38UTC 2023-09-08T01:18:38-10:00 2023-09-08T03:18:38-08:00  46.18679 -124.25438     172   8.4  Hokulea    0.84  v Passing WA/OR border
   522   2023-09-08T10:28:06UTC 2023-09-08T00:28:06-10:00 2023-09-08T02:28:06-08:00  46.30295 -124.27814     175   6.8  Hokulea    1.17  v
   523   2023-09-08T09:17:50UTC 2023-09-07T23:17:50-10:00 2023-09-08T01:17:50-08:00  46.43496 -124.29595     173   8.2  Hokulea    0.99  v
   524   2023-09-08T08:18:26UTC 2023-09-07T22:18:26-10:00 2023-09-08T00:18:26-08:00  46.56904 -124.32075     171   8.1  Hokulea    1.00  v
   525   2023-09-08T07:18:34UTC 2023-09-07T21:18:34-10:00 2023-09-07T23:18:34-08:00  46.70242 -124.35191     173   8.9  Hokulea    0.86  v
   526   2023-09-08T06:26:55UTC 2023-09-07T20:26:55-10:00 2023-09-07T22:26:55-08:00  46.82879 -124.37508     170   6.9  Hokulea    1.15  v
   527   2023-09-08T05:17:38UTC 2023-09-07T19:17:38-10:00 2023-09-07T21:17:38-08:00  46.95952 -124.40929     174   7.7  Hokulea    0.98  v
   528   2023-09-08T04:18:34UTC 2023-09-07T18:18:34-10:00 2023-09-07T20:18:34-08:00  47.08549 -124.42890     171   7.9  Hokulea    1.00  v
   529   2023-09-08T03:18:47UTC 2023-09-07T17:18:47-10:00 2023-09-07T19:18:47-08:00  47.21419 -124.46008     163   8.1  Hokulea    1.00  v
   530   2023-09-08T02:18:40UTC 2023-09-07T16:18:40-10:00 2023-09-07T18:18:40-08:00  47.34415 -124.51724     164   8.9  Hokulea    0.91  v
   531   2023-09-08T01:24:12UTC 2023-09-07T15:24:12-10:00 2023-09-07T17:24:12-08:00  47.47404 -124.57084     163   7.5  Hokulea    1.09  v
   532   2023-09-08T00:18:47UTC 2023-09-07T14:18:47-10:00 2023-09-07T16:18:47-08:00  47.60547 -124.62854     163   7.9  Hokulea    1.02  v
   533   2023-09-07T23:17:31UTC 2023-09-07T13:17:31-10:00 2023-09-07T15:17:31-08:00  47.73369 -124.68530     161   7.9  Hokulea    1.00  v
   534   2023-09-07T22:17:32UTC 2023-09-07T12:17:32-10:00 2023-09-07T14:17:32-08:00  47.85796 -124.74875     166   9.1  Hokulea    0.86  v
   535   2023-09-07T21:25:52UTC 2023-09-07T11:25:52-10:00 2023-09-07T13:25:52-08:00  47.98411 -124.79520     170   6.9  Hokulea    1.14  v
   536   2023-09-07T20:17:40UTC 2023-09-07T10:17:40-10:00 2023-09-07T12:17:40-08:00  48.11173 -124.82979     175   7.3  Hokulea    0.99  v
   537   2023-09-07T19:18:33UTC 2023-09-07T09:18:33-10:00 2023-09-07T11:18:33-08:00  48.23075 -124.84578     191   6.9  Hokulea    1.01  v
   538   2023-09-07T18:17:50UTC 2023-09-07T08:17:50-10:00 2023-09-07T10:17:50-08:00  48.34531 -124.81097     226   5.8  Hokulea    0.99  v
   539   2023-09-07T17:18:31UTC 2023-09-07T07:18:31-10:00 2023-09-07T09:18:31-08:00  48.41106 -124.70727     296   4.9  Hokulea    1.00  v
   540   2023-09-07T16:18:42UTC 2023-09-07T06:18:42-10:00 2023-09-07T08:18:42-08:00  48.37517 -124.59683      51   0.8  Hokulea    1.00  v dep-Neah Bay,WA
   541   2023-09-07T15:18:38UTC 2023-09-07T05:18:38-10:00 2023-09-07T07:18:38-08:00  48.36689 -124.61230      90   0.0  Hokulea   10.00 * 
   542   2023-09-07T05:18:22UTC 2023-09-06T19:18:22-10:00 2023-09-06T21:18:22-08:00  48.36700 -124.61240     180   0.0  Hokulea    2.01 * 
   543   2023-09-07T03:17:49UTC 2023-09-06T17:17:49-10:00 2023-09-06T19:17:49-08:00  48.36703 -124.61240     232   0.8  Hokulea    0.99  v
   544   2023-09-07T02:18:31UTC 2023-09-06T16:18:31-10:00 2023-09-06T18:18:31-08:00  48.37502 -124.59698     289   8.1  Hokulea    2.01 *v
   545   2023-09-07T00:17:43UTC 2023-09-06T14:17:43-10:00 2023-09-06T16:17:43-08:00  48.28786 -124.21361     288   8.3  Hokulea    0.99  v
   546   2023-09-06T23:18:30UTC 2023-09-06T13:18:30-10:00 2023-09-06T15:18:30-08:00  48.24711 -124.01983     280   8.0  Hokulea    1.00  v
   547   2023-09-06T22:18:40UTC 2023-09-06T12:18:40-10:00 2023-09-06T14:18:40-08:00  48.22512 -123.82469     278   8.1  Hokulea    1.01  v
   548   2023-09-06T21:17:52UTC 2023-09-06T11:17:52-10:00 2023-09-06T13:17:52-08:00  48.20649 -123.62151     274   8.4  Hokulea    1.99 *v
   549   2023-09-06T19:18:32UTC 2023-09-06T09:18:32-10:00 2023-09-06T11:18:32-08:00  48.19002 -123.20416     273   7.3  Hokulea    1.00  v
   550   2023-09-06T18:18:48UTC 2023-09-06T08:18:48-10:00 2023-09-06T10:18:48-08:00  48.18350 -123.02261     291   5.8  Hokulea    2.00 *v
   551   2023-09-06T16:18:37UTC 2023-09-06T06:18:37-10:00 2023-09-06T08:18:37-08:00  48.11492 -122.75117       0   0.0  Hokulea   16.01 * 
   552   2023-09-06T00:17:51UTC 2023-09-05T14:17:51-10:00 2023-09-05T16:17:51-08:00  48.11492 -122.75117     205   0.0  Hokulea    0.99    arr-Port Townsend,WA
   553   2023-09-05T23:18:32UTC 2023-09-05T13:18:32-10:00 2023-09-05T15:18:32-08:00  48.11529 -122.75091      25   0.1  Hokulea    1.02  v
   554   2023-09-05T22:17:32UTC 2023-09-05T12:17:32-10:00 2023-09-05T14:17:32-08:00  48.11425 -122.75164     322   7.7  Hokulea    1.98 *v
   555   2023-09-05T20:18:32UTC 2023-09-05T10:18:32-10:00 2023-09-05T12:18:32-08:00  47.91624 -122.51700     342   8.2  Hokulea    1.02  v
   556   2023-09-05T19:17:35UTC 2023-09-05T09:17:35-10:00 2023-09-05T11:17:35-08:00  47.78408 -122.45464     358   8.1  Hokulea    1.00  v
   557   2023-09-05T18:17:43UTC 2023-09-05T08:17:43-10:00 2023-09-05T10:17:43-08:00  47.64894 -122.44851     352   7.9  Hokulea    0.98  v
   558   2023-09-05T17:18:38UTC 2023-09-05T07:18:38-10:00 2023-09-05T09:18:38-08:00  47.52105 -122.42168       6   6.5  Hokulea    2.00 *v
   559   2023-09-05T15:18:49UTC 2023-09-05T05:18:49-10:00 2023-09-05T07:18:49-08:00  47.30436 -122.45524     345   1.4  Hokulea    2.01 *v dep-Foss Waterway Seaport,Tacoma,WA (Leg 7 - to San Francisco, CA)
   560   2023-09-05T13:18:24UTC 2023-09-05T03:18:24-10:00 2023-09-05T05:18:24-08:00  47.25896 -122.43700     180   0.0  Hokulea  136.01 *  (5.7 days)
   561   2023-08-30T21:18:00UTC 2023-08-30T11:18:00-10:00 2023-08-30T13:18:00-08:00  47.25899 -122.43700       0   0.0  Hokulea    0.99    arr-Foss Waterway Seaport,Tacoma,WA
   562   2023-08-30T20:18:28UTC 2023-08-30T10:18:28-10:00 2023-08-30T12:18:28-08:00  47.25897 -122.43700     179   1.0  Hokulea    1.99 *v
   563   2023-08-30T18:18:49UTC 2023-08-30T08:18:49-10:00 2023-08-30T10:18:49-08:00  47.29140 -122.43771     207   6.6  Hokulea    1.02  v
   564   2023-08-30T17:17:51UTC 2023-08-30T07:17:51-10:00 2023-08-30T09:17:51-08:00  47.39065 -122.36364     164   7.5  Hokulea    0.99  v
   565   2023-08-30T16:18:33UTC 2023-08-30T06:18:33-10:00 2023-08-30T08:18:33-08:00  47.50923 -122.41334     196   6.2  Hokulea    1.00  v
   566   2023-08-30T15:18:41UTC 2023-08-30T05:18:41-10:00 2023-08-30T07:18:41-08:00  47.60862 -122.37252     265   1.0  Hokulea    1.00  v dep-Bell Harbor Marina,Seattle,WA
   567   2023-08-30T14:18:45UTC 2023-08-30T04:18:45-10:00 2023-08-30T06:18:45-08:00  47.61019 -122.34708       6   0.0  Hokulea   85.00 *  (3.5 days)
   568   2023-08-27T01:18:35UTC 2023-08-26T15:18:35-10:00 2023-08-26T17:18:35-08:00  47.61009 -122.34714     291   0.0  Hokulea    1.01    arr-Bell Harbor Marina,Seattle,WA
   569   2023-08-27T00:17:49UTC 2023-08-26T14:17:49-10:00 2023-08-26T16:17:49-08:00  47.61008 -122.34710     321   0.1  Hokulea    0.99  v dep-Pier62,Seattle,WA
   570   2023-08-26T23:18:29UTC 2023-08-26T13:18:29-10:00 2023-08-26T15:18:29-08:00  47.60832 -122.34497       0   0.0  Hokulea    4.01 * 
   571   2023-08-26T19:17:50UTC 2023-08-26T09:17:50-10:00 2023-08-26T11:17:50-08:00  47.60832 -122.34499       0   0.0  Hokulea    0.83   
   572   2023-08-26T18:27:45UTC 2023-08-26T08:27:45-10:00 2023-08-26T10:27:45-08:00  47.60832 -122.34499     100   0.3  Hokulea    2.17 *v arr-Pier62,Seattle,WA
   573   2023-08-26T16:17:32UTC 2023-08-26T06:17:32-10:00 2023-08-26T08:17:32-08:00  47.61004 -122.35941     133   5.2  Hokulea    1.98 *v
   574   2023-08-26T14:18:53UTC 2023-08-26T04:18:53-10:00 2023-08-26T06:18:53-08:00  47.72844 -122.54440      99   0.2  Hokulea    1.00  v dep-Suquamish,WA
   575   2023-08-26T13:18:46UTC 2023-08-26T03:18:46-10:00 2023-08-26T05:18:46-08:00  47.72901 -122.54946       0   0.0  Hokulea   36.00 *  (1.5 days)
   576   2023-08-25T01:18:46UTC 2023-08-24T15:18:46-10:00 2023-08-24T17:18:46-08:00  47.72901 -122.54946     190   0.0  Hokulea    0.85    arr-Suquamish,WA
   577   2023-08-25T00:28:03UTC 2023-08-24T14:28:03-10:00 2023-08-24T16:28:03-08:00  47.72940 -122.54936       8   0.1  Hokulea    1.17  v
   578   2023-08-24T23:17:36UTC 2023-08-24T13:17:36-10:00 2023-08-24T15:17:36-08:00  47.72823 -122.54962     270   1.6  Hokulea    0.98  v
   579   2023-08-24T22:18:51UTC 2023-08-24T12:18:51-10:00 2023-08-24T14:18:51-08:00  47.72843 -122.51041     214   3.1  Hokulea    1.02  v
   580   2023-08-24T21:17:38UTC 2023-08-24T11:17:38-10:00 2023-08-24T13:17:38-08:00  47.77258 -122.46685     170   6.0  Hokulea    1.00  v
   581   2023-08-24T20:17:29UTC 2023-08-24T10:17:29-10:00 2023-08-24T12:17:29-08:00  47.87112 -122.49316     141   8.0  Hokulea    1.00  v
   582   2023-08-24T19:17:33UTC 2023-08-24T09:17:33-10:00 2023-08-24T11:17:33-08:00  47.97424 -122.61888     163   7.5  Hokulea    0.99  v
   583   2023-08-24T18:18:17UTC 2023-08-24T08:18:17-10:00 2023-08-24T10:18:17-08:00  48.09260 -122.67400     116   7.8  Hokulea    1.01  v
   584   2023-08-24T17:17:33UTC 2023-08-24T07:17:33-10:00 2023-08-24T09:17:33-08:00  48.15000 -122.84931     119   8.4  Hokulea    0.98  v
   585   2023-08-24T16:18:32UTC 2023-08-24T06:18:32-10:00 2023-08-24T08:18:32-08:00  48.21676 -123.02883     131   7.4  Hokulea    1.99 *v
   586   2023-08-24T14:18:52UTC 2023-08-24T04:18:52-10:00 2023-08-24T06:18:52-08:00  48.37764 -123.30411     135   3.7  Hokulea    1.00  v dep-Causeway Marina,Victoria,BC 
   587   2023-08-24T13:18:35UTC 2023-08-24T03:18:35-10:00 2023-08-24T05:18:35-08:00  48.42148 -123.36928     336   0.0  Hokulea   40.00 *  (1.7 days)
   588   2023-08-22T21:18:32UTC 2023-08-22T11:18:32-10:00 2023-08-22T13:18:32-08:00  48.42138 -123.36921     127   0.0  Hokulea    1.02    arr-Causeway Marina,Victoria,BC
   589   2023-08-22T20:17:31UTC 2023-08-22T10:17:31-10:00 2023-08-22T12:17:31-08:00  48.42139 -123.36923     113   0.4  Hokulea    0.99  v
   590   2023-08-22T19:17:50UTC 2023-08-22T09:17:50-10:00 2023-08-22T11:17:50-08:00  48.42415 -123.37900     266   4.1  Hokulea    0.98  v
   591   2023-08-22T18:18:52UTC 2023-08-22T08:18:52-10:00 2023-08-22T10:18:52-08:00  48.42850 -123.27890     170   7.6  Hokulea    1.02  v
   592   2023-08-22T17:17:39UTC 2023-08-22T07:17:39-10:00 2023-08-22T09:17:39-08:00  48.55585 -123.31248     171   6.8  Hokulea    2.00 *v
   593   2023-08-22T15:17:45UTC 2023-08-22T05:17:45-10:00 2023-08-22T07:17:45-08:00  48.77970 -123.36818     131   6.9  Hokulea    0.99  v dep-Ganges Harbour, Salt Spring Island,BC 
   594   2023-08-22T14:18:22UTC 2023-08-22T04:18:22-10:00 2023-08-22T06:18:22-08:00  48.85426 -123.49740     284   0.0  Hokulea  228.00 *  (9.5 days)
   595   2023-08-13T02:18:36UTC 2023-08-12T16:18:36-10:00 2023-08-12T18:18:36-08:00  48.85429 -123.49744      35   0.0  Hokulea    0.87    arr-Ganges Harbour, Salt Spring Island,BC
   596   2023-08-13T01:26:27UTC 2023-08-12T15:26:27-10:00 2023-08-12T17:26:27-08:00  48.85427 -123.49747     301   1.1  Hokulea    1.13  v
   597   2023-08-13T00:18:32UTC 2023-08-12T14:18:32-10:00 2023-08-12T16:18:32-08:00  48.84323 -123.47002     169   4.1  Hokulea    1.01  v
   598   2023-08-12T23:17:39UTC 2023-08-12T13:17:39-10:00 2023-08-12T15:17:39-08:00  48.91197 -123.49010     145   7.2  Hokulea    0.98  v
   599   2023-08-12T22:18:42UTC 2023-08-12T12:18:42-10:00 2023-08-12T14:18:42-08:00  49.00849 -123.59205     197   3.4  Hokulea    0.89  v
   600   2023-08-12T21:25:31UTC 2023-08-12T11:25:31-10:00 2023-08-12T13:25:31-08:00  49.05628 -123.56918     214   3.1  Hokulea    1.13  v
   601   2023-08-12T20:17:52UTC 2023-08-12T10:17:52-10:00 2023-08-12T12:17:52-08:00  49.10482 -123.51948     194   2.0  Hokulea    1.00  v
   602   2023-08-12T19:17:58UTC 2023-08-12T09:17:58-10:00 2023-08-12T11:17:58-08:00  49.13746 -123.50678      37   2.4  Hokulea    0.99  v
   603   2023-08-12T18:18:41UTC 2023-08-12T08:18:41-10:00 2023-08-12T10:18:41-08:00  49.10582 -123.54373     232   3.6  Hokulea    1.02  v
   604   2023-08-12T17:17:35UTC 2023-08-12T07:17:35-10:00 2023-08-12T09:17:35-08:00  49.14354 -123.47135     224   3.5  Hokulea    0.89  v
   605   2023-08-12T16:24:11UTC 2023-08-12T06:24:11-10:00 2023-08-12T08:24:11-08:00  49.18126 -123.41614     229   3.3  Hokulea    1.09  v
   606   2023-08-12T15:18:32UTC 2023-08-12T05:18:32-10:00 2023-08-12T07:18:32-08:00  49.22141 -123.34602     213   3.3  Hokulea    1.02  v
   607   2023-08-12T14:17:33UTC 2023-08-12T04:17:33-10:00 2023-08-12T06:17:33-08:00  49.26857 -123.29937     268   3.3  Hokulea    1.98 *v
   608   2023-08-12T12:18:39UTC 2023-08-12T02:18:39-10:00 2023-08-12T04:18:39-08:00  49.27303 -123.13457     319   0.0  Hokulea   83.02 *  (3.5 days)
   609   2023-08-09T01:17:34UTC 2023-08-08T15:17:34-10:00 2023-08-08T17:17:34-08:00  49.27302 -123.13453     140   0.0  Hokulea    0.98    arr-Granville Island,Vancouver,BC
   610   2023-08-09T00:18:42UTC 2023-08-08T14:18:42-10:00 2023-08-08T16:18:42-08:00  49.27305 -123.13457     125   0.2  Hokulea    3.02 *v dep-Maritime Museum,Vancouver,BC (Leg 6)
   611   2023-08-08T21:17:31UTC 2023-08-08T11:17:31-10:00 2023-08-08T13:17:31-08:00  49.27877 -123.14704      34   0.0  Hokulea   73.98 *  (3.1 days)
   612   2023-08-05T19:18:49UTC 2023-08-05T09:18:49-10:00 2023-08-05T11:18:49-08:00  49.27873 -123.14704     127   0.0  Hokulea    1.02    arr-Maritime Museum,Vancouver,BC
   613   2023-08-05T18:17:32UTC 2023-08-05T08:17:32-10:00 2023-08-05T10:17:32-08:00  49.27875 -123.14706     135   0.6  Hokulea    0.98  v
   614   2023-08-05T17:18:37UTC 2023-08-05T07:18:37-10:00 2023-08-05T09:18:37-08:00  49.28608 -123.15809     124   6.4  Hokulea    1.01  v
   615   2023-08-05T16:17:53UTC 2023-08-05T06:17:53-10:00 2023-08-05T08:17:53-08:00  49.34680 -123.29525     145   2.4  Hokulea    0.99  v dep-Snug Cove,BC
   616   2023-08-05T15:18:33UTC 2023-08-05T05:18:33-10:00 2023-08-05T07:18:33-08:00  49.37875 -123.33005     129   0.0  Hokulea   10.00 * 
   617   2023-08-05T05:18:36UTC 2023-08-04T19:18:36-10:00 2023-08-04T21:18:36-08:00  49.37874 -123.33003     127   0.0  Hokulea    1.00    arr-Snug Cove,BC
   618   2023-08-05T04:18:45UTC 2023-08-04T18:18:45-10:00 2023-08-04T20:18:45-08:00  49.37875 -123.33005      63   3.3  Hokulea    1.70 *v
   619   2023-08-05T02:36:38UTC 2023-08-04T16:36:38-10:00 2023-08-04T18:36:38-08:00  49.33629 -123.45871     109   6.6  Hokulea    1.17  v
   620   2023-08-05T01:26:40UTC 2023-08-04T15:26:40-10:00 2023-08-04T17:26:40-08:00  49.37773 -123.64471     106   6.5  Hokulea    1.13  v
   621   2023-08-05T00:18:43UTC 2023-08-04T14:18:43-10:00 2023-08-04T16:18:43-08:00  49.41258 -123.82431     111   7.4  Hokulea    1.01  v
   622   2023-08-04T23:17:50UTC 2023-08-04T13:17:50-10:00 2023-08-04T15:17:50-08:00  49.45701 -124.00397     116   7.8  Hokulea    1.99 *v
   623   2023-08-04T21:18:43UTC 2023-08-04T11:18:43-10:00 2023-08-04T13:18:43-08:00  49.57044 -124.35719     124   7.9  Hokulea    0.87  v
   624   2023-08-04T20:26:42UTC 2023-08-04T10:26:42-10:00 2023-08-04T12:26:42-08:00  49.63494 -124.50233     127   8.0  Hokulea    0.96  v
   625   2023-08-04T19:28:59UTC 2023-08-04T09:28:59-10:00 2023-08-04T11:28:59-08:00  49.71150 -124.66015     129   6.7  Hokulea    1.19  v
   626   2023-08-04T18:17:37UTC 2023-08-04T08:17:37-10:00 2023-08-04T10:17:37-08:00  49.79512 -124.81898     127   7.8  Hokulea    0.98  v
   627   2023-08-04T17:18:53UTC 2023-08-04T07:18:53-10:00 2023-08-04T09:18:53-08:00  49.87271 -124.97613     129   7.4  Hokulea    1.02  v
   628   2023-08-04T16:17:35UTC 2023-08-04T06:17:35-10:00 2023-08-04T08:17:35-08:00  49.95152 -125.12739     139   6.0  Hokulea    0.98  v
   629   2023-08-04T15:18:32UTC 2023-08-04T05:18:32-10:00 2023-08-04T07:18:32-08:00  50.02635 -125.22650     127   0.9  Hokulea    1.00  v dep-Campbell River,BC
   630   2023-08-04T14:18:47UTC 2023-08-04T04:18:47-10:00 2023-08-04T06:18:47-08:00  50.03525 -125.24491     180   0.0  Hokulea   34.01 *  (1.4 days)
   631   2023-08-03T04:18:27UTC 2023-08-02T18:18:27-10:00 2023-08-02T20:18:27-08:00  50.03525 -125.24491       0   0.0  Hokulea    0.99    arr-Campbell River,BC
   632   2023-08-03T03:18:57UTC 2023-08-02T17:18:57-10:00 2023-08-02T19:18:57-08:00  50.03525 -125.24491     153   4.6  Hokulea    2.00 *v
   633   2023-08-03T01:18:41UTC 2023-08-02T15:18:41-10:00 2023-08-02T17:18:41-08:00  50.17302 -125.35555     241   0.5  Hokulea    1.02  v
   634   2023-08-03T00:17:29UTC 2023-08-02T14:17:29-10:00 2023-08-02T16:17:29-08:00  50.17720 -125.34385       0   0.0  Hokulea    0.98   
   635   2023-08-02T23:18:39UTC 2023-08-02T13:18:39-10:00 2023-08-02T15:18:39-08:00  50.17719 -125.34385     155   4.2  Hokulea    0.86  v
   636   2023-08-02T22:27:08UTC 2023-08-02T12:27:08-10:00 2023-08-02T14:27:08-08:00  50.23150 -125.38329     152   8.6  Hokulea    0.86  v
   637   2023-08-02T21:35:14UTC 2023-08-02T11:35:14-10:00 2023-08-02T13:35:14-08:00  50.34061 -125.47414     102   6.1  Hokulea    1.29  v
   638   2023-08-02T20:17:46UTC 2023-08-02T10:17:46-10:00 2023-08-02T12:17:46-08:00  50.36725 -125.67405     100   7.6  Hokulea    0.99  v
   639   2023-08-02T19:18:33UTC 2023-08-02T09:18:33-10:00 2023-08-02T11:18:33-08:00  50.38905 -125.86551     111   6.6  Hokulea    2.00 *v
   640   2023-08-02T17:18:39UTC 2023-08-02T07:18:39-10:00 2023-08-02T09:18:39-08:00  50.46871 -126.18558      98   6.2  Hokulea    2.01 *v
   641   2023-08-02T15:17:51UTC 2023-08-02T05:17:51-10:00 2023-08-02T07:17:51-08:00  50.49662 -126.51044     102   6.5  Hokulea    0.99  v
   642   2023-08-02T14:18:30UTC 2023-08-02T04:18:30-10:00 2023-08-02T06:18:30-08:00  50.51862 -126.67513     113   6.3  Hokulea    1.00  v
   643   2023-08-02T13:18:33UTC 2023-08-02T03:18:33-10:00 2023-08-02T05:18:33-08:00  50.55973 -126.82602     110   1.1  Hokulea    4.00 *v dep-Alert Bay,BC
   644   2023-08-02T09:18:24UTC 2023-08-01T23:18:24-10:00 2023-08-02T01:18:24-08:00  50.58385 -126.92941       0   0.0  Hokulea   54.00 *  (2.2 days)
   645   2023-07-31T03:18:31UTC 2023-07-30T17:18:31-10:00 2023-07-30T19:18:31-08:00  50.58383 -126.92943     231   0.0  Hokulea    0.99    arr-Alert Bay,BC
   646   2023-07-31T02:18:53UTC 2023-07-30T16:18:53-10:00 2023-07-30T18:18:53-08:00  50.58384 -126.92941     138   0.8  Hokulea    0.85  v
   647   2023-07-31T01:27:55UTC 2023-07-30T15:27:55-10:00 2023-07-30T17:27:55-08:00  50.59233 -126.94159     350   0.3  Hokulea    1.17  v
   648   2023-07-31T00:18:01UTC 2023-07-30T14:18:01-10:00 2023-07-30T16:18:01-08:00  50.58755 -126.94028      94   2.3  Hokulea    0.99  v
   649   2023-07-30T23:18:30UTC 2023-07-30T13:18:30-10:00 2023-07-30T15:18:30-08:00  50.59043 -126.99899     109   5.8  Hokulea    0.99  v
   650   2023-07-30T22:18:50UTC 2023-07-30T12:18:50-10:00 2023-07-30T14:18:50-08:00  50.62261 -127.14199     126   7.5  Hokulea    1.00  v
   651   2023-07-30T21:18:44UTC 2023-07-30T11:18:44-10:00 2023-07-30T13:18:44-08:00  50.69648 -127.29991     123   6.5  Hokulea    1.02  v
   652   2023-07-30T20:17:29UTC 2023-07-30T10:17:29-10:00 2023-07-30T12:17:29-08:00  50.75676 -127.44681      37   2.6  Hokulea    0.98  v dep-Port Hardy,BC
   653   2023-07-30T19:18:38UTC 2023-07-30T09:18:38-10:00 2023-07-30T11:18:38-08:00  50.72279 -127.48707       0   0.0  Hokulea   41.99 *  (1.7 days)
   654   2023-07-29T01:19:01UTC 2023-07-28T15:19:01-10:00 2023-07-28T17:19:01-08:00  50.72279 -127.48707     151   0.0  Hokulea    1.02    arr-Port Hardy,BC
   655   2023-07-29T00:17:34UTC 2023-07-28T14:17:34-10:00 2023-07-28T16:17:34-08:00  50.72321 -127.48743     310   0.1  Hokulea    0.98  v
   656   2023-07-28T23:18:46UTC 2023-07-28T13:18:46-10:00 2023-07-28T15:18:46-08:00  50.72226 -127.48565     184   2.8  Hokulea    1.02  v
   657   2023-07-28T22:17:51UTC 2023-07-28T12:17:51-10:00 2023-07-28T14:17:51-08:00  50.76866 -127.48078     134   6.6  Hokulea    0.99  v
   658   2023-07-28T21:18:32UTC 2023-07-28T11:18:32-10:00 2023-07-28T12:18:32-09:00  50.84360 -127.60459     149   8.7  Hokulea    0.86  v
   659   2023-07-28T20:27:01UTC 2023-07-28T10:27:01-10:00 2023-07-28T11:27:01-09:00  50.94951 -127.70557     154   6.7  Hokulea    1.15  v
   660   2023-07-28T19:17:53UTC 2023-07-28T09:17:53-10:00 2023-07-28T10:17:53-09:00  51.06528 -127.79370     163   7.6  Hokulea    0.99  v
   661   2023-07-28T18:18:41UTC 2023-07-28T08:18:41-10:00 2023-07-28T09:18:41-09:00  51.18423 -127.85078     167   8.9  Hokulea    0.91  v
   662   2023-07-28T17:24:11UTC 2023-07-28T07:24:11-10:00 2023-07-28T08:24:11-09:00  51.31504 -127.89826     188   7.6  Hokulea    1.09  v
   663   2023-07-28T16:18:49UTC 2023-07-28T06:18:49-10:00 2023-07-28T07:18:49-09:00  51.45153 -127.86743     172   7.8  Hokulea    1.02  v
   664   2023-07-28T15:17:40UTC 2023-07-28T05:17:40-10:00 2023-07-28T06:17:40-09:00  51.58251 -127.89689     131   6.4  Hokulea    0.99  v
   665   2023-07-28T14:18:29UTC 2023-07-28T04:18:29-10:00 2023-07-28T05:18:29-09:00  51.65148 -128.02587      93   3.9  Hokulea    1.00  v dep-Pruth Harbour,BC
   666   2023-07-28T13:18:34UTC 2023-07-28T03:18:34-10:00 2023-07-28T04:18:34-09:00  51.65453 -128.12876     270   0.0  Hokulea   33.00 *  (1.4 days)
   667   2023-07-27T04:18:33UTC 2023-07-26T18:18:33-10:00 2023-07-26T19:18:33-09:00  51.65454 -128.12874     270   0.0  Hokulea    1.00    arr-Pruth Harbour,BC
   668   2023-07-27T03:18:35UTC 2023-07-26T17:18:35-10:00 2023-07-26T18:18:35-09:00  51.65454 -128.12872     281   0.1  Hokulea    1.01  v
   669   2023-07-27T02:17:43UTC 2023-07-26T16:17:43-10:00 2023-07-26T17:17:43-09:00  51.65405 -128.12473     270   6.3  Hokulea    1.00  v
   670   2023-07-27T01:17:39UTC 2023-07-26T15:17:39-10:00 2023-07-26T16:17:39-09:00  51.65393 -127.95478     192   7.9  Hokulea    0.99  v
   671   2023-07-27T00:18:24UTC 2023-07-26T14:18:24-10:00 2023-07-26T15:18:24-09:00  51.78130 -127.91221     189   5.4  Hokulea    1.01  v
   672   2023-07-26T23:17:54UTC 2023-07-26T13:17:54-10:00 2023-07-26T14:17:54-09:00  51.87089 -127.89060     170   7.3  Hokulea    1.01  v
   673   2023-07-26T22:17:33UTC 2023-07-26T12:17:33-10:00 2023-07-26T13:17:33-09:00  51.99186 -127.92388     142   6.6  Hokulea    1.00  v
   674   2023-07-26T21:17:39UTC 2023-07-26T11:17:39-10:00 2023-07-26T12:17:39-09:00  52.07819 -128.03162     141   6.5  Hokulea    1.00  v dep-Bella Bella,BC
   675   2023-07-26T20:17:39UTC 2023-07-26T10:17:39-10:00 2023-07-26T11:17:39-09:00  52.16167 -128.14148      75   0.0  Hokulea   44.98 *  (1.9 days)
   676   2023-07-24T23:18:36UTC 2023-07-24T13:18:36-10:00 2023-07-24T14:18:36-09:00  52.16169 -128.14148       0   0.0  Hokulea    1.01    arr-Bella Bella,BC
   677   2023-07-24T22:17:44UTC 2023-07-24T12:17:44-10:00 2023-07-24T13:17:44-09:00  52.16166 -128.14148     219   1.1  Hokulea    0.98  v
   678   2023-07-24T21:18:41UTC 2023-07-24T11:18:41-10:00 2023-07-24T12:18:41-09:00  52.17575 -128.12286     129   4.7  Hokulea    1.02  v
   679   2023-07-24T20:17:38UTC 2023-07-24T10:17:38-10:00 2023-07-24T11:17:38-09:00  52.22605 -128.22232     106   7.4  Hokulea    0.98  v
   680   2023-07-24T19:18:45UTC 2023-07-24T09:18:45-10:00 2023-07-24T10:18:45-09:00  52.26033 -128.41187     147   7.1  Hokulea    1.00  v
   681   2023-07-24T18:18:40UTC 2023-07-24T08:18:40-10:00 2023-07-24T09:18:40-09:00  52.36016 -128.51644     195   8.6  Hokulea    0.85  v
   682   2023-07-24T17:27:22UTC 2023-07-24T07:27:22-10:00 2023-07-24T08:27:22-09:00  52.47893 -128.46408     162   6.1  Hokulea    1.14  v dep-Klemtu,BC
   683   2023-07-24T16:18:43UTC 2023-07-24T06:18:43-10:00 2023-07-24T07:18:43-09:00  52.59032 -128.52302     229   0.0  Hokulea   14.00 * 
   684   2023-07-24T02:18:38UTC 2023-07-23T16:18:38-10:00 2023-07-23T17:18:38-09:00  52.59033 -128.52302       0   0.0  Hokulea    1.02    arr-Klemtu,BC
   685   2023-07-24T01:17:26UTC 2023-07-23T15:17:26-10:00 2023-07-23T16:17:26-09:00  52.59033 -128.52302     172   5.2  Hokulea    0.98  v
   686   2023-07-24T00:18:42UTC 2023-07-23T14:18:42-10:00 2023-07-23T15:18:42-09:00  52.67388 -128.54169     179   7.0  Hokulea    1.00  v
   687   2023-07-23T23:18:49UTC 2023-07-23T13:18:49-10:00 2023-07-23T14:18:49-09:00  52.78943 -128.54523     187   8.1  Hokulea    1.02  v
   688   2023-07-23T22:17:52UTC 2023-07-23T12:17:52-10:00 2023-07-23T13:17:52-09:00  52.92506 -128.51946     171   7.4  Hokulea    0.99  v
   689   2023-07-23T21:18:41UTC 2023-07-23T11:18:41-10:00 2023-07-23T12:18:41-09:00  53.04572 -128.55032     156   7.3  Hokulea    1.00  v
   690   2023-07-23T20:18:37UTC 2023-07-23T10:18:37-10:00 2023-07-23T11:18:37-09:00  53.15597 -128.63340     126   6.7  Hokulea    1.01  v
   691   2023-07-23T19:17:44UTC 2023-07-23T09:17:44-10:00 2023-07-23T10:17:44-09:00  53.22328 -128.78468     129   9.2  Hokulea    0.82  v
   692   2023-07-23T18:28:29UTC 2023-07-23T08:28:29-10:00 2023-07-23T09:28:29-09:00  53.30333 -128.94703      99   6.3  Hokulea    1.16  v
   693   2023-07-23T17:18:39UTC 2023-07-23T07:18:39-10:00 2023-07-23T08:18:39-09:00  53.32284 -129.14770     149   7.2  Hokulea    1.00  v dep-Hartley Bay,BC
   694   2023-07-23T16:18:49UTC 2023-07-23T06:18:49-10:00 2023-07-23T07:18:49-09:00  53.42440 -129.25138     297   0.0  Hokulea   58.02 *  (2.4 days)
   695   2023-07-21T06:17:50UTC 2023-07-20T20:17:50-10:00 2023-07-20T21:17:50-09:00  53.42426 -129.25153     270   0.0  Hokulea    0.99    arr-Hartley Bay,BC
   696   2023-07-21T05:18:27UTC 2023-07-20T19:18:27-10:00 2023-07-20T20:18:27-09:00  53.42426 -129.25145     324   0.6  Hokulea    0.83  v
   697   2023-07-21T04:28:22UTC 2023-07-20T18:28:22-10:00 2023-07-20T19:28:22-09:00  53.41701 -129.24256      38   3.2  Hokulea    1.16  v
   698   2023-07-21T03:18:51UTC 2023-07-20T17:18:51-10:00 2023-07-20T18:18:51-09:00  53.36811 -129.30730     130   7.0  Hokulea    1.00  v
   699   2023-07-21T02:18:41UTC 2023-07-20T16:18:41-10:00 2023-07-20T17:18:41-09:00  53.44439 -129.45663     138   7.4  Hokulea    1.02  v
   700   2023-07-21T01:17:41UTC 2023-07-20T15:17:41-10:00 2023-07-20T16:17:41-09:00  53.53845 -129.59702     132   2.9  Hokulea    0.98  v
   701   2023-07-21T00:18:42UTC 2023-07-20T14:18:42-10:00 2023-07-20T15:18:42-09:00  53.57083 -129.65706     146   7.7  Hokulea    1.00  v
   702   2023-07-20T23:18:36UTC 2023-07-20T13:18:36-10:00 2023-07-20T14:18:36-09:00  53.67699 -129.77639     140   8.6  Hokulea    1.01  v
   703   2023-07-20T22:17:52UTC 2023-07-20T12:17:52-10:00 2023-07-20T13:17:52-09:00  53.78680 -129.93393     136   8.7  Hokulea    0.99  v
   704   2023-07-20T21:18:41UTC 2023-07-20T11:18:41-10:00 2023-07-20T12:18:41-09:00  53.89029 -130.10169     147   7.1  Hokulea    1.02  v
   705   2023-07-20T20:17:41UTC 2023-07-20T10:17:41-10:00 2023-07-20T11:17:41-09:00  53.99139 -130.21125     154   7.6  Hokulea    0.99  v
   706   2023-07-20T19:18:31UTC 2023-07-20T09:18:31-10:00 2023-07-20T10:18:31-09:00  54.10260 -130.30416     164   6.0  Hokulea    1.01  v
   707   2023-07-20T18:17:41UTC 2023-07-20T08:17:41-10:00 2023-07-20T09:17:41-09:00  54.19914 -130.35265     187   7.3  Hokulea    0.98  v
   708   2023-07-20T17:18:35UTC 2023-07-20T07:18:35-10:00 2023-07-20T08:18:35-09:00  54.31810 -130.32708     250   0.2  Hokulea    1.00  v dep-Prince Rupert,BC (Leg 5)
   709   2023-07-20T16:18:32UTC 2023-07-20T06:18:32-10:00 2023-07-20T07:18:32-09:00  54.31927 -130.32143       0   0.0  Hokulea  136.02 *  (5.7 days)
   710   2023-07-15T00:17:32UTC 2023-07-14T14:17:32-10:00 2023-07-14T15:17:32-09:00  54.31944 -130.32139      66   0.0  Hokulea    0.98    arr-Prince Rupert,BC
   711   2023-07-14T23:18:29UTC 2023-07-14T13:18:29-10:00 2023-07-14T14:18:29-09:00  54.31943 -130.32143      35   2.7  Hokulea    1.01  v
   712   2023-07-14T22:17:50UTC 2023-07-14T12:17:50-10:00 2023-07-14T13:17:50-09:00  54.28211 -130.36596      37   4.5  Hokulea    0.99  v
   713   2023-07-14T21:18:41UTC 2023-07-14T11:18:41-10:00 2023-07-14T12:18:41-09:00  54.22315 -130.44323      91   7.9  Hokulea    1.01  v
   714   2023-07-14T20:17:49UTC 2023-07-14T10:17:49-10:00 2023-07-14T11:17:49-09:00  54.22527 -130.67104      82   8.2  Hokulea    1.00  v
   715   2023-07-14T19:17:37UTC 2023-07-14T09:17:37-10:00 2023-07-14T10:17:37-09:00  54.20640 -130.90212     104   7.9  Hokulea    1.00  v
   716   2023-07-14T18:17:43UTC 2023-07-14T08:17:43-10:00 2023-07-14T09:17:43-09:00  54.23857 -131.11801     118   8.1  Hokulea    0.98  v
   717   2023-07-14T17:18:38UTC 2023-07-14T07:18:38-10:00 2023-07-14T08:18:38-09:00  54.30103 -131.31756      74   7.7  Hokulea    1.00  v
   718   2023-07-14T16:18:49UTC 2023-07-14T06:18:49-10:00 2023-07-14T07:18:49-09:00  54.26653 -131.52738      68   8.1  Hokulea    1.00  v
   719   2023-07-14T15:18:40UTC 2023-07-14T05:18:40-10:00 2023-07-14T06:18:40-09:00  54.21602 -131.74228      65   7.7  Hokulea    1.00  v
   720   2023-07-14T14:18:44UTC 2023-07-14T04:18:44-10:00 2023-07-14T05:18:44-09:00  54.16269 -131.94202      67   8.0  Hokulea    1.00  v
   721   2023-07-14T13:18:34UTC 2023-07-14T03:18:34-10:00 2023-07-14T04:18:34-09:00  54.10981 -132.15145     360   7.0  Hokulea    0.87  v dep-Old Massett,BC
   722   2023-07-14T12:26:34UTC 2023-07-14T02:26:34-10:00 2023-07-14T03:26:34-09:00  54.00932 -132.15051     125   0.0  Hokulea   57.13 *  (2.4 days)
   723   2023-07-12T03:18:47UTC 2023-07-11T17:18:47-10:00 2023-07-11T18:18:47-09:00  54.00940 -132.15066     311   0.0  Hokulea    1.01    arr-Old Massett,BC
   724   2023-07-12T02:18:28UTC 2023-07-11T16:18:28-10:00 2023-07-11T17:18:28-09:00  54.00938 -132.15061     127   0.6  Hokulea    1.01  v
   725   2023-07-12T01:17:49UTC 2023-07-11T15:17:49-10:00 2023-07-11T16:17:49-09:00  54.01515 -132.16340     144   1.9  Hokulea    0.99  v
   726   2023-07-12T00:18:36UTC 2023-07-11T14:18:36-10:00 2023-07-11T15:18:36-09:00  54.04107 -132.19503     149   4.5  Hokulea    1.01  v
   727   2023-07-11T23:18:03UTC 2023-07-11T13:18:03-10:00 2023-07-11T14:18:03-09:00  54.10571 -132.26074     140   7.8  Hokulea    1.00  v
   728   2023-07-11T22:17:51UTC 2023-07-11T12:17:51-10:00 2023-07-11T13:17:51-09:00  54.20469 -132.40418     152   7.6  Hokulea    1.01  v
   729   2023-07-11T21:17:32UTC 2023-07-11T11:17:32-10:00 2023-07-11T12:17:32-09:00  54.31588 -132.50643     170   5.9  Hokulea    0.98  v
   730   2023-07-11T20:18:31UTC 2023-07-11T10:18:31-10:00 2023-07-11T11:18:31-09:00  54.41068 -132.53623     183   7.4  Hokulea    1.01  v
   731   2023-07-11T19:17:54UTC 2023-07-11T09:17:54-10:00 2023-07-11T10:17:54-09:00  54.53550 -132.52649     180   7.6  Hokulea    0.99  v
   732   2023-07-11T18:18:41UTC 2023-07-11T08:18:41-10:00 2023-07-11T09:18:41-09:00  54.66028 -132.52801     173   6.2  Hokulea    1.02  v
   733   2023-07-11T17:17:30UTC 2023-07-11T07:17:30-10:00 2023-07-11T08:17:30-09:00  54.76510 -132.54943     169   5.4  Hokulea    0.98  v
   734   2023-07-11T16:18:44UTC 2023-07-11T06:18:44-10:00 2023-07-11T07:18:44-09:00  54.85117 -132.57908     165   8.1  Hokulea    1.00  v
   735   2023-07-11T15:18:40UTC 2023-07-11T05:18:40-10:00 2023-07-11T06:18:40-09:00  54.98161 -132.64058     171   7.9  Hokulea    1.00  v
   736   2023-07-11T14:18:37UTC 2023-07-11T04:18:37-10:00 2023-07-11T05:18:37-09:00  55.11105 -132.67568     135   7.3  Hokulea    1.00  v
   737   2023-07-11T13:18:49UTC 2023-07-11T03:18:49-10:00 2023-07-11T04:18:49-09:00  55.19782 -132.82490     168   0.9  Hokulea    0.91  v dep-Hydaburg,AK
   738   2023-07-11T12:24:24UTC 2023-07-11T02:24:24-10:00 2023-07-11T03:24:24-09:00  55.21107 -132.82962      48   0.0  Hokulea   84.11 *  (3.5 days)
   739   2023-07-08T00:17:58UTC 2023-07-07T14:17:58-10:00 2023-07-07T15:17:58-09:00  55.21106 -132.82964     180   0.0  Hokulea    1.01    arr-Hydaburg,AK
   740   2023-07-07T23:17:31UTC 2023-07-07T13:17:31-10:00 2023-07-07T14:17:31-09:00  55.21107 -132.82964      46   0.3  Hokulea    0.98  v
   741   2023-07-07T22:18:27UTC 2023-07-07T12:18:27-10:00 2023-07-07T13:18:27-09:00  55.20744 -132.83614     314   7.6  Hokulea    1.01  v
   742   2023-07-07T21:17:53UTC 2023-07-07T11:17:53-10:00 2023-07-07T12:17:53-09:00  55.11943 -132.67538     351   8.2  Hokulea    0.99  v
   743   2023-07-07T20:18:41UTC 2023-07-07T10:18:41-10:00 2023-07-07T11:18:41-09:00  54.98689 -132.64082     343   7.8  Hokulea    1.02  v
   744   2023-07-07T19:17:33UTC 2023-07-07T09:17:33-10:00 2023-07-07T10:17:33-09:00  54.85992 -132.57176     328   7.8  Hokulea    0.98  v
   745   2023-07-07T18:18:41UTC 2023-07-07T08:18:41-10:00 2023-07-07T09:18:41-09:00  54.75194 -132.45531     296   7.7  Hokulea    1.02  v
   746   2023-07-07T17:17:38UTC 2023-07-07T07:17:38-10:00 2023-07-07T08:17:38-09:00  54.69427 -132.25361     275   7.8  Hokulea    0.98  v
   747   2023-07-07T16:18:38UTC 2023-07-07T06:18:38-10:00 2023-07-07T07:18:38-09:00  54.68287 -132.03301     220   8.8  Hokulea    1.00  v
   748   2023-07-07T15:18:52UTC 2023-07-07T05:18:52-10:00 2023-07-07T06:18:52-09:00  54.79538 -131.87177     204   8.6  Hokulea    1.02  v
   749   2023-07-07T14:17:40UTC 2023-07-07T04:17:40-10:00 2023-07-07T05:17:40-09:00  54.92836 -131.76920     207   8.2  Hokulea    0.99  v
   750   2023-07-07T13:18:33UTC 2023-07-07T03:18:33-10:00 2023-07-07T04:18:33-09:00  55.04888 -131.66357     209   5.5  Hokulea    1.00  v dep-Metlakatla,AK
   751   2023-07-07T12:18:40UTC 2023-07-07T02:18:40-10:00 2023-07-07T03:18:40-09:00  55.12943 -131.58587     150   0.0  Hokulea   82.02 *  (3.4 days)
   752   2023-07-04T02:17:45UTC 2023-07-03T16:17:45-10:00 2023-07-03T17:17:45-09:00  55.12951 -131.58598     270   0.0  Hokulea    0.99   
   753   2023-07-04T01:18:35UTC 2023-07-03T15:18:35-10:00 2023-07-03T16:18:35-09:00  55.12951 -131.58596     246   0.2  Hokulea    1.00  v arr-Metlakatla,AK
   754   2023-07-04T00:18:49UTC 2023-07-03T14:18:49-10:00 2023-07-03T15:18:49-09:00  55.13115 -131.57963     153   3.7  Hokulea    1.02  v
   755   2023-07-03T23:17:37UTC 2023-07-03T13:17:37-10:00 2023-07-03T14:17:37-09:00  55.18699 -131.62936     190   7.0  Hokulea    0.98  v
   756   2023-07-03T22:18:36UTC 2023-07-03T12:18:36-10:00 2023-07-03T13:18:36-09:00  55.29942 -131.59591     173   1.1  Hokulea    1.01  v
   757   2023-07-03T21:17:49UTC 2023-07-03T11:17:49-10:00 2023-07-03T12:17:49-09:00  55.31769 -131.59982     124   2.4  Hokulea    0.99  v
   758   2023-07-03T20:18:39UTC 2023-07-03T10:18:39-10:00 2023-07-03T11:18:39-09:00  55.34018 -131.65797     148   4.6  Hokulea    1.01  v dep-Ketchikan,AK (Leg 4)
   759   2023-07-03T19:17:56UTC 2023-07-03T09:17:56-10:00 2023-07-03T10:17:56-09:00  55.40531 -131.72998      49   0.0  Hokulea   40.99 *  (1.7 days)
   760   2023-07-02T02:18:35UTC 2023-07-01T16:18:35-10:00 2023-07-01T17:18:35-09:00  55.40513 -131.72994     196   0.0  Hokulea    1.00   
   761   2023-07-02T01:18:50UTC 2023-07-01T15:18:50-10:00 2023-07-01T16:18:50-09:00  55.40517 -131.72992       3   0.3  Hokulea    1.02  v arr-WardCove,Ketchikan,AK
   762   2023-07-02T00:17:42UTC 2023-07-01T14:17:42-10:00 2023-07-01T15:17:42-09:00  55.40003 -131.73041     122   5.0  Hokulea    0.85  v
   763   2023-07-01T23:26:57UTC 2023-07-01T13:26:57-10:00 2023-07-01T14:26:57-09:00  55.43724 -131.83611     119   3.3  Hokulea    1.15  v
   764   2023-07-01T22:17:44UTC 2023-07-01T12:17:44-10:00 2023-07-01T13:17:44-09:00  55.46776 -131.93421     126   8.0  Hokulea    0.86  v
   765   2023-07-01T21:26:04UTC 2023-07-01T11:26:04-10:00 2023-07-01T12:26:04-09:00  55.53587 -132.09701     139   6.2  Hokulea    1.14  v
   766   2023-07-01T20:17:39UTC 2023-07-01T10:17:39-10:00 2023-07-01T11:17:39-09:00  55.62496 -132.23312     144   6.8  Hokulea    1.00  v
   767   2023-07-01T19:17:52UTC 2023-07-01T09:17:52-10:00 2023-07-01T10:17:52-09:00  55.71686 -132.34996     148   7.2  Hokulea    1.00  v
   768   2023-07-01T18:17:40UTC 2023-07-01T08:17:40-10:00 2023-07-01T09:17:40-09:00  55.81889 -132.46083     147   7.3  Hokulea    0.98  v
   769   2023-07-01T17:18:44UTC 2023-07-01T07:18:44-10:00 2023-07-01T08:18:44-09:00  55.91967 -132.57569     153   7.3  Hokulea    1.01  v
   770   2023-07-01T16:17:50UTC 2023-07-01T06:17:50-10:00 2023-07-01T07:17:50-09:00  56.02907 -132.67564     164   8.1  Hokulea    0.97  v
   771   2023-07-01T15:19:33UTC 2023-07-01T05:19:33-10:00 2023-07-01T06:19:33-09:00  56.15512 -132.74016     201   7.3  Hokulea    1.02  v
   772   2023-07-01T14:18:09UTC 2023-07-01T04:18:09-10:00 2023-07-01T05:18:09-09:00  56.27148 -132.66159     202   7.3  Hokulea    0.99  v
   773   2023-07-01T13:18:32UTC 2023-07-01T03:18:32-10:00 2023-07-01T04:18:32-09:00  56.38309 -132.57996     231   7.9  Hokulea    1.00  v
   774   2023-07-01T12:18:29UTC 2023-07-01T02:18:29-10:00 2023-07-01T03:18:29-09:00  56.46649 -132.39785     270   0.5  Hokulea    0.99  v dep-Wrangell,AK
   775   2023-07-01T11:18:47UTC 2023-07-01T01:18:47-10:00 2023-07-01T02:18:47-09:00  56.46654 -132.38328       0   0.0  Hokulea   84.01 *  (3.5 days)
   776   2023-06-27T23:18:27UTC 2023-06-27T13:18:27-10:00 2023-06-27T14:18:27-09:00  56.46657 -132.38334     286   0.0  Hokulea    0.83    arr-Wrangell,AK
   777   2023-06-27T22:28:32UTC 2023-06-27T12:28:32-10:00 2023-06-27T13:28:32-09:00  56.46656 -132.38328     141   0.9  Hokulea    1.18  v
   778   2023-06-27T21:17:41UTC 2023-06-27T11:17:41-10:00 2023-06-27T12:17:41-09:00  56.48013 -132.40309      71   6.0  Hokulea    0.99  v
   779   2023-06-27T20:18:02UTC 2023-06-27T10:18:02-10:00 2023-06-27T11:18:02-09:00  56.44815 -132.57264     104   6.8  Hokulea    0.99  v
   780   2023-06-27T19:18:35UTC 2023-06-27T09:18:35-10:00 2023-06-27T10:18:35-09:00  56.47577 -132.76780     110   6.6  Hokulea    1.02  v
   781   2023-06-27T18:17:37UTC 2023-06-27T08:17:37-10:00 2023-06-27T09:17:37-09:00  56.51322 -132.95721     187   7.9  Hokulea    0.98  v
   782   2023-06-27T17:18:36UTC 2023-06-27T07:18:36-10:00 2023-06-27T08:18:36-09:00  56.64219 -132.92850     170   6.8  Hokulea    0.99  v
   783   2023-06-27T16:18:54UTC 2023-06-27T06:18:54-10:00 2023-06-27T07:18:54-09:00  56.75286 -132.96528     182   3.4  Hokulea    1.02  v dep-Petersburg,AK
   784   2023-06-27T15:17:24UTC 2023-06-27T05:17:24-10:00 2023-06-27T06:17:24-09:00  56.81018 -132.96238     180   0.0  Hokulea   37.00 *  (1.5 days)
   785   2023-06-26T02:17:38UTC 2023-06-25T16:17:38-10:00 2023-06-25T17:17:38-09:00  56.81018 -132.96236     151   0.0  Hokulea    0.98   
   786   2023-06-26T01:18:33UTC 2023-06-25T15:18:33-10:00 2023-06-25T16:18:33-09:00  56.81021 -132.96238     206   2.5  Hokulea    1.00  v arr-Petersburg,AK
   787   2023-06-26T00:18:49UTC 2023-06-25T14:18:49-10:00 2023-06-25T15:18:49-09:00  56.84761 -132.92957     156   7.5  Hokulea    1.02  v
   788   2023-06-25T23:17:38UTC 2023-06-25T13:17:38-10:00 2023-06-25T14:17:38-09:00  56.96433 -133.02276     115   7.4  Hokulea    0.98  v
   789   2023-06-25T22:18:35UTC 2023-06-25T12:18:35-10:00 2023-06-25T13:18:35-09:00  57.01560 -133.22464     104   7.7  Hokulea    1.00  v
   790   2023-06-25T21:18:50UTC 2023-06-25T11:18:50-10:00 2023-06-25T12:18:50-09:00  57.04755 -133.44983     108   7.7  Hokulea    1.00  v
   791   2023-06-25T20:18:39UTC 2023-06-25T10:18:39-10:00 2023-06-25T11:18:39-09:00  57.08671 -133.67490      99   6.8  Hokulea    1.02  v
   792   2023-06-25T19:17:42UTC 2023-06-25T09:17:42-10:00 2023-06-25T10:17:42-09:00  57.10425 -133.88240      63   7.0  Hokulea    0.85  v
   793   2023-06-25T18:26:36UTC 2023-06-25T08:26:36-10:00 2023-06-25T09:26:36-09:00  57.05929 -134.04455     332   5.9  Hokulea    1.04  v
   794   2023-06-25T17:24:27UTC 2023-06-25T07:24:27-10:00 2023-06-25T08:24:27-09:00  56.96907 -133.95542     288   1.1  Hokulea    0.85  v dep-Kake,AK
   795   2023-06-25T16:33:25UTC 2023-06-25T06:33:25-10:00 2023-06-25T07:33:25-09:00  56.96413 -133.92729     318   0.0  Hokulea   38.26 *  (1.6 days)
   796   2023-06-24T02:17:48UTC 2023-06-23T16:17:48-10:00 2023-06-23T17:17:48-09:00  56.96406 -133.92718       0   0.0  Hokulea    0.99    arr-Kake,AK
   797   2023-06-24T01:18:35UTC 2023-06-23T15:18:35-10:00 2023-06-23T16:18:35-09:00  56.96406 -133.92718     112   1.3  Hokulea    1.01  v
   798   2023-06-24T00:17:41UTC 2023-06-23T14:17:41-10:00 2023-06-23T15:17:41-09:00  56.97245 -133.96486     105   9.2  Hokulea    0.98  v
   799   2023-06-23T23:18:48UTC 2023-06-23T13:18:48-10:00 2023-06-23T14:18:48-09:00  57.01098 -134.22943      88   8.6  Hokulea    1.02  v
   800   2023-06-23T22:17:39UTC 2023-06-23T12:17:39-10:00 2023-06-23T13:17:39-09:00  57.00565 -134.49574     130   6.4  Hokulea    1.00  v
   801   2023-06-23T21:17:54UTC 2023-06-23T11:17:54-10:00 2023-06-23T12:17:54-09:00  57.07371 -134.64601     175   7.8  Hokulea    1.00  v
   802   2023-06-23T20:17:40UTC 2023-06-23T10:17:40-10:00 2023-06-23T11:17:40-09:00  57.20344 -134.66824     185   8.7  Hokulea    1.00  v
   803   2023-06-23T19:17:27UTC 2023-06-23T09:17:27-10:00 2023-06-23T10:17:27-09:00  57.34848 -134.64599     185   7.5  Hokulea    0.99  v
   804   2023-06-23T18:17:54UTC 2023-06-23T08:17:54-10:00 2023-06-23T09:17:54-09:00  57.47255 -134.62625     232   2.4  Hokulea    1.00  v dep-Angoon,AK
   805   2023-06-23T17:18:01UTC 2023-06-23T07:18:01-10:00 2023-06-23T08:18:01-09:00  57.49644 -134.56889      28   0.0  Hokulea  112.01 *  (4.7 days)
   806   2023-06-19T01:17:33UTC 2023-06-18T15:17:33-10:00 2023-06-18T16:17:33-09:00  57.49640 -134.56892     248   0.0  Hokulea    0.80    arr-Angoon,AK
   807   2023-06-19T00:29:18UTC 2023-06-18T14:29:18-10:00 2023-06-18T15:29:18-09:00  57.49653 -134.56834     138   1.4  Hokulea    1.18  v
   808   2023-06-18T23:18:37UTC 2023-06-18T13:18:37-10:00 2023-06-18T14:18:37-09:00  57.51724 -134.60325     162   0.5  Hokulea    1.02  v
   809   2023-06-18T22:17:35UTC 2023-06-18T12:17:35-10:00 2023-06-18T13:17:35-09:00  57.52603 -134.60857     122   2.6  Hokulea    1.00  v
   810   2023-06-18T21:17:32UTC 2023-06-18T11:17:32-10:00 2023-06-18T12:17:32-09:00  57.54927 -134.67655     156   5.3  Hokulea    1.00  v
   811   2023-06-18T20:17:46UTC 2023-06-18T10:17:46-10:00 2023-06-18T11:17:46-09:00  57.62893 -134.74195     165   7.6  Hokulea    0.99  v
   812   2023-06-18T19:18:34UTC 2023-06-18T09:18:34-10:00 2023-06-18T10:18:34-09:00  57.74851 -134.80355     168   7.4  Hokulea    1.01  v
   813   2023-06-18T18:17:40UTC 2023-06-18T08:17:40-10:00 2023-06-18T09:17:40-09:00  57.87004 -134.85383     169   7.6  Hokulea    1.00  v
   814   2023-06-18T17:17:48UTC 2023-06-18T07:17:48-10:00 2023-06-18T08:17:48-09:00  57.99340 -134.89720     172   8.1  Hokulea    0.99  v
   815   2023-06-18T16:18:33UTC 2023-06-18T06:18:33-10:00 2023-06-18T07:18:33-09:00  58.12435 -134.93318     174   7.7  Hokulea    1.00  v
   816   2023-06-18T15:18:50UTC 2023-06-18T05:18:50-10:00 2023-06-18T06:18:50-09:00  58.25019 -134.96015     176   7.7  Hokulea    1.02  v
   817   2023-06-18T14:17:39UTC 2023-06-18T04:17:39-10:00 2023-06-18T05:17:39-09:00  58.37997 -134.97852     282   5.8  Hokulea    0.98  v
   818   2023-06-18T13:18:33UTC 2023-06-18T03:18:33-10:00 2023-06-18T04:18:33-09:00  58.36101 -134.80141     256   5.0  Hokulea    1.00  v dep-Auke bay/Juneau,AK
   819   2023-06-18T12:18:47UTC 2023-06-18T02:18:47-10:00 2023-06-18T03:18:47-09:00  58.38179 -134.64887     345   0.0  Hokulea    6.00 * 
   820   2023-06-18T06:18:52UTC 2023-06-17T20:18:52-10:00 2023-06-17T21:18:52-09:00  58.38177 -134.64882     143   0.0  Hokulea    1.00    ret-Auke Bay/Juneau,AK
   821   2023-06-18T05:18:53UTC 2023-06-17T19:18:53-10:00 2023-06-17T20:18:53-09:00  58.38184 -134.64893      24   4.3  Hokulea    1.01  v
   822   2023-06-18T04:18:27UTC 2023-06-17T18:18:27-10:00 2023-06-17T19:18:27-09:00  58.31594 -134.70612     114   1.0  Hokulea    1.01  v SW Auke bay,AK
   823   2023-06-18T03:17:49UTC 2023-06-17T17:17:49-10:00 2023-06-17T18:17:49-09:00  58.32298 -134.73556     225   1.9  Hokulea    0.84  v
   824   2023-06-18T02:27:35UTC 2023-06-17T16:27:35-10:00 2023-06-17T17:27:35-09:00  58.34192 -134.69925     212   2.3  Hokulea    1.16  v
   825   2023-06-18T01:18:01UTC 2023-06-17T15:18:01-10:00 2023-06-17T16:18:01-09:00  58.37951 -134.65522     238   0.3  Hokulea    0.99  v dep-Auke bay/Juneau,AK (Leg 3)
   826   2023-06-18T00:18:41UTC 2023-06-17T14:18:41-10:00 2023-06-17T15:18:41-09:00  58.38172 -134.64855     348   0.0  Hokulea  163.88 *  (6.8 days)
   827   2023-06-11T04:25:47UTC 2023-06-10T18:25:47-10:00 2023-06-10T19:25:47-09:00  58.38175 -134.64878       0   0.0  Hokulea    1.11    arr-Auke Bay/Juneau,AK
   828   2023-06-11T03:18:56UTC 2023-06-10T17:18:56-10:00 2023-06-10T18:18:56-09:00  58.38173 -134.64878      82   2.4  Hokulea    1.00  v dep-Auke Bay Recreation Area,Juneau,AK
   829   2023-06-11T02:19:04UTC 2023-06-10T16:19:04-10:00 2023-06-10T17:19:04-09:00  58.37620 -134.72348       0   0.0  Hokulea    2.01 * 
   830   2023-06-11T00:18:33UTC 2023-06-10T14:18:33-10:00 2023-06-10T15:18:33-09:00  58.37606 -134.72270     100   0.0  Hokulea    1.02    arr-Auke Bay Recreation Area,Juneau,AK
   831   2023-06-10T23:17:34UTC 2023-06-10T13:17:34-10:00 2023-06-10T14:17:34-09:00  58.37617 -134.72388       4   1.2  Hokulea    0.82  v
   832   2023-06-10T22:28:25UTC 2023-06-10T12:28:25-10:00 2023-06-10T13:28:25-09:00  58.36050 -134.72601     145   3.3  Hokulea    1.16  v
   833   2023-06-10T21:18:39UTC 2023-06-10T11:18:39-10:00 2023-06-10T12:18:39-09:00  58.41225 -134.79510     161   6.2  Hokulea    1.00  v
   834   2023-06-10T20:18:29UTC 2023-06-10T10:18:29-10:00 2023-06-10T11:18:29-09:00  58.50910 -134.85984     154   9.1  Hokulea    0.83  v
   835   2023-06-10T19:28:55UTC 2023-06-10T09:28:55-10:00 2023-06-10T10:28:55-09:00  58.62186 -134.96363     153   6.2  Hokulea    1.17  v
   836   2023-06-10T18:18:55UTC 2023-06-10T08:18:55-10:00 2023-06-10T09:18:55-09:00  58.72867 -135.06927     157   6.1  Hokulea    1.02  v
   837   2023-06-10T17:17:37UTC 2023-06-10T07:17:37-10:00 2023-06-10T08:17:37-09:00  58.82360 -135.14645     168   5.9  Hokulea    0.98  v
   838   2023-06-10T16:18:33UTC 2023-06-10T06:18:33-10:00 2023-06-10T07:18:33-09:00  58.91748 -135.18492     171   6.8  Hokulea    0.87  v
   839   2023-06-10T15:26:11UTC 2023-06-10T05:26:11-10:00 2023-06-10T06:26:11-09:00  59.01497 -135.21344     171   5.0  Hokulea    0.99  v
   840   2023-06-10T14:26:51UTC 2023-06-10T04:26:51-10:00 2023-06-10T05:26:51-09:00  59.09598 -135.23807     156   5.2  Hokulea    1.14  v
   841   2023-06-10T13:18:31UTC 2023-06-10T03:18:31-10:00 2023-06-10T04:18:31-09:00  59.18610 -135.31506     125   4.4  Hokulea    1.00  v dep-Deishu,Haines,AK
   842   2023-06-10T12:18:31UTC 2023-06-10T02:18:31-10:00 2023-06-10T03:18:31-09:00  59.22771 -135.43267     136   0.0  Hokulea  109.00 *  (4.5 days)
   843   2023-06-05T23:18:49UTC 2023-06-05T13:18:49-10:00 2023-06-05T14:18:49-09:00  59.22779 -135.43257     134   0.0  Hokulea    1.02    arr-Deishu,Haines,AK
   844   2023-06-05T22:17:32UTC 2023-06-05T12:17:32-10:00 2023-06-05T13:17:32-09:00  59.22780 -135.43259     304   3.2  Hokulea    0.98  v
   845   2023-06-05T21:18:47UTC 2023-06-05T11:18:47-10:00 2023-06-05T12:18:47-09:00  59.19934 -135.34929     341   8.7  Hokulea    1.00  v
   846   2023-06-05T20:18:38UTC 2023-06-05T10:18:38-10:00 2023-06-05T11:18:38-09:00  59.06233 -135.25848     348  10.5  Hokulea    0.84  v
   847   2023-06-05T19:27:59UTC 2023-06-05T09:27:59-10:00 2023-06-05T10:27:59-09:00  58.91871 -135.19945     350   7.7  Hokulea    1.16  v
   848   2023-06-05T18:18:41UTC 2023-06-05T08:18:41-10:00 2023-06-05T09:18:41-09:00  58.77215 -135.15132     347   8.5  Hokulea    1.02  v
   849   2023-06-05T17:17:38UTC 2023-06-05T07:17:38-10:00 2023-06-05T08:17:38-09:00  58.63261 -135.09044     351   8.5  Hokulea    0.99  v
   850   2023-06-05T16:18:27UTC 2023-06-05T06:18:27-10:00 2023-06-05T07:18:27-09:00  58.49564 -135.04661     352   7.1  Hokulea    0.99  v
   851   2023-06-05T15:18:51UTC 2023-06-05T05:18:51-10:00 2023-06-05T06:18:51-09:00  58.37948 -135.01494       0   6.9  Hokulea    1.01  v
   852   2023-06-05T14:18:31UTC 2023-06-05T04:18:31-10:00 2023-06-05T05:18:31-09:00  58.26450 -135.01545      29   6.2  Hokulea    1.01  v
   853   2023-06-05T13:17:37UTC 2023-06-05T03:17:37-10:00 2023-06-05T04:17:37-09:00  58.17355 -135.11049      81   7.3  Hokulea    0.98  v
   854   2023-06-05T12:18:42UTC 2023-06-05T02:18:42-10:00 2023-06-05T03:18:42-09:00  58.15522 -135.33238      54   4.6  Hokulea    1.00  v dep-Hoonah,AK
   855   2023-06-05T11:18:38UTC 2023-06-05T01:18:38-10:00 2023-06-05T02:18:38-09:00  58.11050 -135.44840      19   0.0  Hokulea   10.02 * 
   856   2023-06-05T01:17:41UTC 2023-06-04T15:17:41-10:00 2023-06-04T16:17:41-09:00  58.11048 -135.44836      57   0.0  Hokulea    0.99    arr-Hoonah,AK
   857   2023-06-05T00:18:33UTC 2023-06-04T14:18:33-10:00 2023-06-04T15:18:33-09:00  58.11046 -135.44842     115   0.5  Hokulea    1.01  v
   858   2023-06-04T23:17:45UTC 2023-06-04T13:17:45-10:00 2023-06-04T14:17:45-09:00  58.11390 -135.46207     176   1.8  Hokulea    0.99  v
   859   2023-06-04T22:18:33UTC 2023-06-04T12:18:33-10:00 2023-06-04T13:18:33-09:00  58.14417 -135.46617     344   2.1  Hokulea    1.01  v dep-2nm jaunt from Hoonah,AK
   860   2023-06-04T21:17:48UTC 2023-06-04T11:17:48-10:00 2023-06-04T12:17:48-09:00  58.11060 -135.44842     126   0.0  Hokulea   73.01 *  (3.0 days)
   861   2023-06-01T20:17:27UTC 2023-06-01T10:17:27-10:00 2023-06-01T11:17:27-09:00  58.11062 -135.44857       0   0.0  Hokulea    0.98    arr-Hoonah,AK
   862   2023-06-01T19:18:27UTC 2023-06-01T09:18:27-10:00 2023-06-01T10:18:27-09:00  58.11062 -135.44857     135   1.6  Hokulea    1.01  v
   863   2023-06-01T18:17:49UTC 2023-06-01T08:17:49-10:00 2023-06-01T09:17:49-09:00  58.12912 -135.48353     150   6.9  Hokulea    0.99  v
   864   2023-06-01T17:18:39UTC 2023-06-01T07:18:39-10:00 2023-06-01T08:18:39-09:00  58.22752 -135.59097     128   8.6  Hokulea    1.00  v
   865   2023-06-01T16:18:35UTC 2023-06-01T06:18:35-10:00 2023-06-01T07:18:35-09:00  58.31586 -135.80350     136   7.7  Hokulea    1.01  v
   866   2023-06-01T15:17:47UTC 2023-06-01T05:17:47-10:00 2023-06-01T06:17:47-09:00  58.40915 -135.97675     226   4.0  Hokulea    0.99  v dep-Glacier Bay,AK
   867   2023-06-01T14:18:30UTC 2023-06-01T04:18:30-10:00 2023-06-01T05:18:30-09:00  58.45568 -135.88652       0   0.0  Hokulea   14.99 * 
   868   2023-05-31T23:18:51UTC 2023-05-31T13:18:51-10:00 2023-05-31T14:18:51-09:00  58.45568 -135.88652       0   0.0  Hokulea    1.00   
   869   2023-05-31T22:18:43UTC 2023-05-31T12:18:43-10:00 2023-05-31T13:18:43-09:00  58.45568 -135.88652      75   0.3  Hokulea    1.02  v arr-Glacier Bay,AK
   870   2023-05-31T21:17:39UTC 2023-05-31T11:17:39-10:00 2023-05-31T12:17:39-09:00  58.45453 -135.89481      38   6.8  Hokulea    0.98  v
   871   2023-05-31T20:18:53UTC 2023-05-31T10:18:53-10:00 2023-05-31T11:18:53-09:00  58.36723 -136.02360      63   6.4  Hokulea    1.02  v
   872   2023-05-31T19:17:40UTC 2023-05-31T09:17:40-10:00 2023-05-31T10:17:40-09:00  58.31896 -136.20772      70   7.5  Hokulea    0.99  v
   873   2023-05-31T18:18:25UTC 2023-05-31T08:18:25-10:00 2023-05-31T09:18:25-09:00  58.27648 -136.42625      43   8.3  Hokulea    1.00  v
   874   2023-05-31T17:18:38UTC 2023-05-31T07:18:38-10:00 2023-05-31T08:18:38-09:00  58.17615 -136.60403     113   6.5  Hokulea    1.01  v
   875   2023-05-31T16:17:52UTC 2023-05-31T06:17:52-10:00 2023-05-31T07:17:52-09:00  58.21930 -136.79558     139   7.1  Hokulea    0.99  v
   876   2023-05-31T15:18:33UTC 2023-05-31T05:18:33-10:00 2023-05-31T06:18:33-09:00  58.30759 -136.94087     125   7.3  Hokulea    1.00  v
   877   2023-05-31T14:18:30UTC 2023-05-31T04:18:30-10:00 2023-05-31T05:18:30-09:00  58.37701 -137.13021     123   6.7  Hokulea    0.99  v
   878   2023-05-31T13:19:15UTC 2023-05-31T03:19:15-10:00 2023-05-31T04:19:15-09:00  58.43679 -137.30743     135   5.9  Hokulea    1.03  v
   879   2023-05-31T12:17:39UTC 2023-05-31T02:17:39-10:00 2023-05-31T03:17:39-09:00  58.50832 -137.44499     122   6.1  Hokulea    0.99  v
   880   2023-05-31T11:18:30UTC 2023-05-31T01:18:30-10:00 2023-05-31T02:18:30-09:00  58.56131 -137.60653     113   5.0  Hokulea    0.99  v
   881   2023-05-31T10:18:50UTC 2023-05-31T00:18:50-10:00 2023-05-31T01:18:50-09:00  58.59355 -137.75156     132   5.6  Hokulea    1.00  v
   882   2023-05-31T09:18:41UTC 2023-05-30T23:18:41-10:00 2023-05-31T00:18:41-09:00  58.65691 -137.88468     132   6.4  Hokulea    1.00  v
   883   2023-05-31T08:18:38UTC 2023-05-30T22:18:38-10:00 2023-05-30T23:18:38-09:00  58.72778 -138.03647     129   6.6  Hokulea    1.00  v
   884   2023-05-31T07:18:33UTC 2023-05-30T21:18:33-10:00 2023-05-30T22:18:33-09:00  58.79635 -138.20046     130   6.3  Hokulea    1.00  v
   885   2023-05-31T06:18:49UTC 2023-05-30T20:18:49-10:00 2023-05-30T21:18:49-09:00  58.86344 -138.35497     128   7.0  Hokulea    1.00  v
   886   2023-05-31T05:18:39UTC 2023-05-30T19:18:39-10:00 2023-05-30T20:18:39-09:00  58.93616 -138.53172     129   6.7  Hokulea    1.00  v
   887   2023-05-31T04:18:41UTC 2023-05-30T18:18:41-10:00 2023-05-30T19:18:41-09:00  59.00708 -138.69997     128   6.7  Hokulea    1.01  v
   888   2023-05-31T03:17:49UTC 2023-05-30T17:17:49-10:00 2023-05-30T18:17:49-09:00  59.07690 -138.87032     132   6.6  Hokulea    0.99  v
   889   2023-05-31T02:18:38UTC 2023-05-30T16:18:38-10:00 2023-05-30T17:18:38-09:00  59.14922 -139.02548     133   6.9  Hokulea    0.99  v
   890   2023-05-31T01:18:59UTC 2023-05-30T15:18:59-10:00 2023-05-30T16:18:59-09:00  59.22619 -139.18764     131   6.8  Hokulea    1.02  v
   891   2023-05-31T00:17:49UTC 2023-05-30T14:17:49-10:00 2023-05-30T15:17:49-09:00  59.30265 -139.35795     140   6.2  Hokulea    1.00  v
   892   2023-05-30T23:17:38UTC 2023-05-30T13:17:38-10:00 2023-05-30T14:17:38-09:00  59.38206 -139.48907     125   6.3  Hokulea    0.98  v
   893   2023-05-30T22:18:35UTC 2023-05-30T12:18:35-10:00 2023-05-30T13:18:35-09:00  59.44123 -139.65400     128   6.7  Hokulea    1.01  v
   894   2023-05-30T21:17:50UTC 2023-05-30T11:17:50-10:00 2023-05-30T12:17:50-09:00  59.51161 -139.82858     230   3.4  Hokulea    0.99  v
   895   2023-05-30T20:18:36UTC 2023-05-30T10:18:36-10:00 2023-05-30T11:18:36-09:00  59.54791 -139.74401     185   1.0  Hokulea    1.00  v dep-Yakutat,AK (Leg 2)
   896   2023-05-30T19:18:30UTC 2023-05-30T09:18:30-10:00 2023-05-30T10:18:30-09:00  59.56401 -139.74144     316   0.0  Hokulea  185.00 *  (7.7 days)
   897   2023-05-23T02:18:36UTC 2023-05-22T16:18:36-10:00 2023-05-22T17:18:36-09:00  59.56407 -139.74152     330   0.0  Hokulea    1.00   
   898   2023-05-23T01:18:35UTC 2023-05-22T15:18:35-10:00 2023-05-22T16:18:35-09:00  59.56400 -139.74144      60   0.6  Hokulea    1.01  v return-ShipyardCove/Yakutat,AK
   899   2023-05-23T00:17:48UTC 2023-05-22T14:17:48-10:00 2023-05-22T15:17:48-09:00  59.55866 -139.75991     181   7.2  Hokulea    1.00  v
   900   2023-05-22T23:17:36UTC 2023-05-22T13:17:36-10:00 2023-05-22T14:17:36-09:00  59.67866 -139.75457     196   8.9  Hokulea    0.98  v
   901   2023-05-22T22:18:36UTC 2023-05-22T12:18:36-10:00 2023-05-22T13:18:36-09:00  59.81838 -139.67576     205   7.3  Hokulea    1.02  v
   902   2023-05-22T21:17:35UTC 2023-05-22T11:17:35-10:00 2023-05-22T12:17:35-09:00  59.93033 -139.57027      87   0.4  Hokulea    0.98  v
   903   2023-05-22T20:18:43UTC 2023-05-22T10:18:43-10:00 2023-05-22T11:18:43-09:00  59.93000 -139.58272      29   3.7  Hokulea    1.02  v Disenchantment Bay
   904   2023-05-22T19:17:33UTC 2023-05-22T09:17:33-10:00 2023-05-22T10:17:33-09:00  59.87596 -139.64316      17   8.0  Hokulea    0.98  v
   905   2023-05-22T18:18:32UTC 2023-05-22T08:18:32-10:00 2023-05-22T09:18:32-09:00  59.74994 -139.71854      17   7.9  Hokulea    1.01  v
   906   2023-05-22T17:17:45UTC 2023-05-22T07:17:45-10:00 2023-05-22T08:17:45-09:00  59.62282 -139.79536     335   3.9  Hokulea    0.99  v dep-ShipyardCove/Yakutat,AK
   907   2023-05-22T16:18:33UTC 2023-05-22T06:18:33-10:00 2023-05-22T07:18:33-09:00  59.56414 -139.74152     337   0.0  Hokulea   18.00 * 
   908   2023-05-21T22:18:27UTC 2023-05-21T12:18:27-10:00 2023-05-21T13:18:27-09:00  59.56400 -139.74144      28   0.0  Hokulea    1.02   
   909   2023-05-21T21:17:23UTC 2023-05-21T11:17:23-10:00 2023-05-21T12:17:23-09:00  59.56398 -139.74146     135   0.3  Hokulea    0.98  v ShipyardCove/Yakutat,AK
   910   2023-05-21T20:18:52UTC 2023-05-21T10:18:52-10:00 2023-05-21T11:18:52-09:00  59.56793 -139.74918     338   1.3  Hokulea    1.02  v
   911   2023-05-21T19:17:41UTC 2023-05-21T09:17:41-10:00 2023-05-21T10:17:41-09:00  59.54701 -139.73264      46   0.0  Hokulea    0.99   
   912   2023-05-21T18:18:30UTC 2023-05-21T08:18:30-10:00 2023-05-21T09:18:30-09:00  59.54699 -139.73268     165   1.0  Hokulea    1.01  v SandyBeach-ceremony-Yakutat,AK
   913   2023-05-21T17:17:39UTC 2023-05-21T07:17:39-10:00 2023-05-21T08:17:39-09:00  59.56399 -139.74142     180   0.0  Hokulea   19.00 * 
   914   2023-05-20T22:17:26UTC 2023-05-20T12:17:26-10:00 2023-05-20T13:17:26-09:00  59.56403 -139.74152     306   0.0  Hokulea    0.98   
   915   2023-05-20T21:18:24UTC 2023-05-20T11:18:24-10:00 2023-05-20T12:18:24-09:00  59.56400 -139.74144      57   0.5  Hokulea    0.84  v arr-ShipyardCove,Yakutat,AK
   916   2023-05-20T20:28:08UTC 2023-05-20T10:28:08-10:00 2023-05-20T11:28:08-09:00  59.56006 -139.75335      85   3.0  Hokulea    1.18  v
   917   2023-05-20T19:17:35UTC 2023-05-20T09:17:35-10:00 2023-05-20T10:17:35-09:00  59.55485 -139.86956     320   7.8  Hokulea    0.98  v
   918   2023-05-20T18:18:33UTC 2023-05-20T08:18:33-10:00 2023-05-20T09:18:33-09:00  59.45681 -139.70947     311   8.1  Hokulea    1.01  v
   919   2023-05-20T17:18:02UTC 2023-05-20T07:18:02-10:00 2023-05-20T08:18:02-09:00  59.36807 -139.50615     320   8.2  Hokulea    0.99  v
   920   2023-05-20T16:18:45UTC 2023-05-20T06:18:45-10:00 2023-05-20T07:18:45-09:00  59.26546 -139.33569     310   7.5  Hokulea    1.00  v
   921   2023-05-20T15:18:41UTC 2023-05-20T05:18:41-10:00 2023-05-20T06:18:41-09:00  59.18557 -139.14777     308   7.5  Hokulea    1.00  v
   922   2023-05-20T14:18:48UTC 2023-05-20T04:18:48-10:00 2023-05-20T05:18:48-09:00  59.10919 -138.95542     309   7.4  Hokulea    1.00  v
   923   2023-05-20T13:18:32UTC 2023-05-20T03:18:32-10:00 2023-05-20T04:18:32-09:00  59.03146 -138.76964     308   7.7  Hokulea    1.00  v
   924   2023-05-20T12:18:41UTC 2023-05-20T02:18:41-10:00 2023-05-20T03:18:41-09:00  58.95336 -138.57253     309   6.9  Hokulea    1.01  v
   925   2023-05-20T11:17:53UTC 2023-05-20T01:17:53-10:00 2023-05-20T02:17:53-09:00  58.88075 -138.39673     309   6.8  Hokulea    0.99  v
   926   2023-05-20T10:18:33UTC 2023-05-20T00:18:33-10:00 2023-05-20T01:18:33-09:00  58.80954 -138.22925     309   6.7  Hokulea    1.00  v
   927   2023-05-20T09:18:40UTC 2023-05-19T23:18:40-10:00 2023-05-20T00:18:40-09:00  58.73981 -138.06115     310   6.7  Hokulea    1.00  v
   928   2023-05-20T08:18:45UTC 2023-05-19T22:18:45-10:00 2023-05-19T23:18:45-09:00  58.66840 -137.89597     310   7.0  Hokulea    1.00  v
   929   2023-05-20T07:18:37UTC 2023-05-19T21:18:37-10:00 2023-05-19T22:18:37-09:00  58.59446 -137.72476     309   7.2  Hokulea    1.00  v
   930   2023-05-20T06:18:33UTC 2023-05-19T20:18:33-10:00 2023-05-19T21:18:33-09:00  58.51877 -137.54831     308   7.2  Hokulea    1.01  v
   931   2023-05-20T05:17:49UTC 2023-05-19T19:17:49-10:00 2023-05-19T20:17:49-09:00  58.44393 -137.36678     309   7.6  Hokulea    0.99  v
   932   2023-05-20T04:18:33UTC 2023-05-19T18:18:33-10:00 2023-05-19T19:18:33-09:00  58.36566 -137.18044     307   7.3  Hokulea    1.00  v
   933   2023-05-20T03:18:40UTC 2023-05-19T17:18:40-10:00 2023-05-19T18:18:40-09:00  58.29260 -136.99687     308   7.3  Hokulea    1.02  v
   934   2023-05-20T02:17:44UTC 2023-05-19T16:17:44-10:00 2023-05-19T17:17:44-09:00  58.21803 -136.81253     285   7.4  Hokulea    0.99  v
   935   2023-05-20T01:18:32UTC 2023-05-19T15:18:32-10:00 2023-05-19T16:18:32-09:00  58.18626 -136.59203     255   5.5  Hokulea    1.00  v
   936   2023-05-20T00:18:45UTC 2023-05-19T14:18:45-10:00 2023-05-19T15:18:45-09:00  58.21072 -136.42576     253   5.9  Hokulea    1.00  v
   937   2023-05-19T23:18:38UTC 2023-05-19T13:18:38-10:00 2023-05-19T14:18:38-09:00  58.23966 -136.24622     264   7.6  Hokulea    1.01  v
   938   2023-05-19T22:17:49UTC 2023-05-19T12:17:49-10:00 2023-05-19T13:17:49-09:00  58.25358 -136.00553     252   7.7  Hokulea    0.99  v
   939   2023-05-19T21:18:32UTC 2023-05-19T11:18:32-10:00 2023-05-19T12:18:32-09:00  58.29242 -135.77726     287   7.7  Hokulea    1.02  v
   940   2023-05-19T20:17:37UTC 2023-05-19T10:17:37-10:00 2023-05-19T11:17:37-09:00  58.25355 -135.54138     289   8.4  Hokulea    0.98  v
   941   2023-05-19T19:18:44UTC 2023-05-19T09:18:44-10:00 2023-05-19T10:18:44-09:00  58.20962 -135.29616     282   7.7  Hokulea    1.00  v
   942   2023-05-19T18:18:42UTC 2023-05-19T08:18:42-10:00 2023-05-19T09:18:42-09:00  58.18268 -135.05832     195   6.4  Hokulea    1.02  v
   943   2023-05-19T17:17:36UTC 2023-05-19T07:17:36-10:00 2023-05-19T08:17:36-09:00  58.28654 -135.00515     190   6.9  Hokulea    0.98  v
   944   2023-05-19T16:18:44UTC 2023-05-19T06:18:44-10:00 2023-05-19T07:18:44-09:00  58.39740 -134.96992     294   5.7  Hokulea    1.02  v
   945   2023-05-19T15:17:33UTC 2023-05-19T05:17:33-10:00 2023-05-19T06:17:33-09:00  58.35821 -134.80034     254   5.1  Hokulea    0.98  v dep-AukeBay,AK
   946   2023-05-19T14:18:30UTC 2023-05-19T04:18:30-10:00 2023-05-19T05:18:30-09:00  58.38179 -134.64889       0   0.0  Hokulea  ------    AukeBay,AK

             Date-Time(UTC)       Hawaiʻi-Standard-Time    Nautical-Time             Latitude  Longitude  Course Speed  Vessel
         YYYY-MM-DDThh:mm:ss    YYYY-MM-DDThh:mm:ss-10:00 YYYY-MM-DDThh:mm:ss.HH:MM   degrees    degrees degrees knots            delta_hrs
     1   2024-04-16T20:06:16UTC 2024-04-16T10:06:16-10:00 2024-04-16T09:06:16-11:00  21.31313 -157.88862      90   0.0  Hikianalia  138.01 *  (5.8 days)
     2   2024-04-11T02:05:57UTC 2024-04-10T16:05:57-10:00 2024-04-10T15:05:57-11:00  21.31314 -157.88866     242   0.0  Hikianalia    1.00   
     3   2024-04-11T01:06:13UTC 2024-04-10T15:06:13-10:00 2024-04-10T14:06:13-11:00  21.31315 -157.88864     157   0.5  Hikianalia    1.00  v
     4   2024-04-11T00:06:13UTC 2024-04-10T14:06:13-10:00 2024-04-10T13:06:13-11:00  21.32123 -157.89227       0   0.0  Hikianalia  219.00 *  (9.1 days)
     5   2024-04-01T21:06:00UTC 2024-04-01T11:06:00-10:00 2024-04-01T10:06:00-11:00  21.32117 -157.89227     332   0.0  Hikianalia    1.00   
     6   2024-04-01T20:06:13UTC 2024-04-01T10:06:13-10:00 2024-04-01T09:06:13-11:00  21.32054 -157.89190     338   0.5  Hikianalia    0.99  v at Keehi Marine
     7   2024-04-01T19:06:56UTC 2024-04-01T09:06:56-10:00 2024-04-01T08:06:56-11:00  21.31310 -157.88866     180   0.0  Hikianalia   40.00 *  (1.7 days)
     8   2024-03-31T03:06:53UTC 2024-03-30T17:06:53-10:00 2024-03-30T16:06:53-11:00  21.31315 -157.88864     243   0.0  Hikianalia    0.99    arr-METC
     9   2024-03-31T02:07:21UTC 2024-03-30T16:07:21-10:00 2024-03-30T15:07:21-11:00  21.31317 -157.88862      20   2.0  Hikianalia    1.02  v
    10   2024-03-31T01:06:04UTC 2024-03-30T15:06:04-10:00 2024-03-30T14:06:04-11:00  21.28149 -157.90094     350   7.3  Hikianalia    1.00  v
    11   2024-03-31T00:05:51UTC 2024-03-30T14:05:51-10:00 2024-03-30T13:05:51-11:00  21.16135 -157.87791     163   4.9  Hikianalia    0.98  v 9nm South of METC
    12   2024-03-30T23:06:59UTC 2024-03-30T13:06:59-10:00 2024-03-30T12:06:59-11:00  21.23775 -157.90319      28   0.9  Hikianalia    1.01  v
    13   2024-03-30T22:06:18UTC 2024-03-30T12:06:18-10:00 2024-03-30T11:06:18-11:00  21.22438 -157.91091     193   5.4  Hikianalia    1.01  v dep-METC
    14   2024-03-30T21:05:46UTC 2024-03-30T11:05:46-10:00 2024-03-30T10:05:46-11:00  21.31319 -157.88862      46   0.0  Hikianalia  158.98 *  (6.6 days)
    15   2024-03-24T06:06:51UTC 2024-03-23T20:06:51-10:00 2024-03-23T19:06:51-11:00  21.31314 -157.88871      90   0.0  Hikianalia    1.00   
    16   2024-03-24T05:06:56UTC 2024-03-23T19:06:56-10:00 2024-03-23T18:06:56-11:00  21.31314 -157.88875      39   0.6  Hikianalia    0.99  v arr-METC
    17   2024-03-24T04:07:20UTC 2024-03-23T18:07:20-10:00 2024-03-23T17:07:20-11:00  21.30601 -157.89501       4   6.2  Hikianalia    1.01  v
    18   2024-03-24T03:06:58UTC 2024-03-23T17:06:58-10:00 2024-03-23T16:06:58-11:00  21.20231 -157.90351     176   2.6  Hikianalia    1.01  v South Sand Island
    19   2024-03-24T02:06:12UTC 2024-03-23T16:06:12-10:00 2024-03-23T15:06:12-11:00  21.24697 -157.90720     193   4.0  Hikianalia    0.99  v
    20   2024-03-24T01:06:54UTC 2024-03-23T15:06:54-10:00 2024-03-23T14:06:54-11:00  21.31194 -157.89068     236   0.1  Hikianalia    1.01  v dep-METC
    21   2024-03-24T00:06:01UTC 2024-03-23T14:06:01-10:00 2024-03-23T13:06:01-11:00  21.31314 -157.88879     334   0.0  Hikianalia   64.98 *  (2.7 days)
    22   2024-03-21T07:07:11UTC 2024-03-20T21:07:11-10:00 2024-03-20T20:07:11-11:00  21.31309 -157.88886     257   0.0  Hikianalia    1.00   
    23   2024-03-21T06:06:58UTC 2024-03-20T20:06:58-10:00 2024-03-20T19:06:58-11:00  21.31313 -157.88866      33   0.7  Hikianalia    1.00  v arr-METC
    24   2024-03-21T05:06:57UTC 2024-03-20T19:06:57-10:00 2024-03-20T18:06:57-11:00  21.30263 -157.89592     316   4.7  Hikianalia    0.99  v
    25   2024-03-21T04:07:22UTC 2024-03-20T18:07:22-10:00 2024-03-20T17:07:22-11:00  21.24674 -157.83873     130   4.1  Hikianalia    1.02  v outside-Tonggs-Lēʻahi
    26   2024-03-21T03:05:59UTC 2024-03-20T17:05:59-10:00 2024-03-20T16:05:59-11:00  21.29188 -157.89703     198   1.4  Hikianalia    0.98  v dep-METC
    27   2024-03-21T02:06:58UTC 2024-03-20T16:06:58-10:00 2024-03-20T15:06:58-11:00  21.31328 -157.88941       0   0.0  Hikianalia  139.00 *  (5.8 days)
    28   2024-03-15T07:06:46UTC 2024-03-14T21:06:46-10:00 2024-03-14T20:06:46-11:00  21.31346 -157.88997     278   0.0  Hikianalia    1.01   
    29   2024-03-15T06:06:00UTC 2024-03-14T20:06:00-10:00 2024-03-14T19:06:00-11:00  21.31338 -157.88939     354   1.7  Hikianalia    0.99  v arr-METC
    30   2024-03-15T05:06:43UTC 2024-03-14T19:06:43-10:00 2024-03-14T18:06:43-11:00  21.28537 -157.88626     325   1.5  Hikianalia    0.99  v
    31   2024-03-15T04:07:14UTC 2024-03-14T18:07:14-10:00 2024-03-14T17:07:14-11:00  21.26567 -157.87128     133   1.3  Hikianalia    1.02  v off-Ala Moana
    32   2024-03-15T03:05:53UTC 2024-03-14T17:05:53-10:00 2024-03-14T16:05:53-11:00  21.28067 -157.88851     180   2.0  Hikianalia    0.99  v dep-METC
    33   2024-03-15T02:06:42UTC 2024-03-14T16:06:42-10:00 2024-03-14T15:06:42-11:00  21.31315 -157.88875      25   0.0  Hikianalia   67.00 *  (2.8 days)
    34   2024-03-12T07:06:53UTC 2024-03-11T21:06:53-10:00 2024-03-11T20:06:53-11:00  21.31309 -157.88888     328   0.0  Hikianalia    1.00   
    35   2024-03-12T06:06:53UTC 2024-03-11T20:06:53-10:00 2024-03-11T19:06:53-11:00  21.31306 -157.88886      31   0.8  Hikianalia    1.02  v arr-METC
    36   2024-03-12T05:05:43UTC 2024-03-11T19:05:43-10:00 2024-03-11T18:05:43-11:00  21.30180 -157.89602     337   4.1  Hikianalia    0.97  v
    37   2024-03-12T04:07:13UTC 2024-03-11T18:07:13-10:00 2024-03-11T17:07:13-11:00  21.24055 -157.86856     164   2.7  Hikianalia    1.01  v off-Waikiki
    38   2024-03-12T03:06:52UTC 2024-03-11T17:06:52-10:00 2024-03-11T16:06:52-11:00  21.28361 -157.88184     167   1.8  Hikianalia    1.00  v dep-METC
    39   2024-03-12T02:06:50UTC 2024-03-11T16:06:50-10:00 2024-03-11T15:06:50-11:00  21.31302 -157.88881     160   0.0  Hikianalia  216.00 *  (9.0 days)
    40   2024-03-03T02:06:52UTC 2024-03-02T16:06:52-10:00 2024-03-02T15:06:52-11:00  21.31305 -157.88886      43   0.0  Hikianalia    1.01   
    41   2024-03-03T01:06:21UTC 2024-03-02T15:06:21-10:00 2024-03-02T14:06:21-11:00  21.31303 -157.88888      45   0.4  Hikianalia    1.01  v arr-METC
    42   2024-03-03T00:05:50UTC 2024-03-02T14:05:50-10:00 2024-03-02T13:05:50-11:00  21.30812 -157.89416     312   5.1  Hikianalia    0.98  v
    43   2024-03-02T23:06:48UTC 2024-03-02T13:06:48-10:00 2024-03-02T12:06:48-11:00  21.25288 -157.82766     266   4.9  Hikianalia    1.01  v
    44   2024-03-02T22:06:12UTC 2024-03-02T12:06:12-10:00 2024-03-02T11:06:12-11:00  21.25814 -157.74007     207   1.0  Hikianalia    0.99  v
    45   2024-03-02T21:06:53UTC 2024-03-02T11:06:53-10:00 2024-03-02T10:06:53-11:00  21.27213 -157.73243     354   0.1  Hikianalia    1.00  v outside-Niu Peninsula
    46   2024-03-02T20:07:00UTC 2024-03-02T10:07:00-10:00 2024-03-02T09:07:00-11:00  21.27083 -157.73228      74   5.5  Hikianalia    1.00  v
    47   2024-03-02T19:06:53UTC 2024-03-02T09:06:53-10:00 2024-03-02T08:06:53-11:00  21.24500 -157.82579     139   5.4  Hikianalia    0.99  v
    48   2024-03-02T18:07:34UTC 2024-03-02T08:07:34-10:00 2024-03-02T07:07:34-11:00  21.31300 -157.88886      76   0.0  Hikianalia  176.00 *  (7.3 days)
    49   2024-02-24T10:07:20UTC 2024-02-24T00:07:20-10:00 2024-02-23T23:07:20-11:00  21.31303 -157.88886     317   0.0  Hikianalia    4.00 * 
    50   2024-02-24T06:07:10UTC 2024-02-23T20:07:10-10:00 2024-02-23T19:07:10-11:00  21.31300 -157.88883      17   1.6  Hikianalia    1.02  v
    51   2024-02-24T05:05:54UTC 2024-02-23T19:05:54-10:00 2024-02-23T18:05:54-11:00  21.28736 -157.89731      14   1.2  Hikianalia    0.99  v
    52   2024-02-24T04:06:46UTC 2024-02-23T18:06:46-10:00 2024-02-23T17:06:46-11:00  21.26812 -157.90229     190   2.4  Hikianalia    1.00  v SouthSandIsland
    53   2024-02-24T03:06:51UTC 2024-02-23T17:06:51-10:00 2024-02-23T16:06:51-11:00  21.30687 -157.89508     223   0.5  Hikianalia    1.01  v
    54   2024-02-24T02:06:26UTC 2024-02-23T16:06:26-10:00 2024-02-23T15:06:26-11:00  21.31304 -157.88886       0   0.0  Hikianalia  142.99 *  (6.0 days)
    55   2024-02-18T03:06:49UTC 2024-02-17T17:06:49-10:00 2024-02-17T16:06:49-11:00  21.31302 -157.88883     180   0.0  Hikianalia    1.01    arr-METC
    56   2024-02-18T02:06:24UTC 2024-02-17T16:06:24-10:00 2024-02-17T15:06:24-11:00  21.31303 -157.88883      28   1.8  Hikianalia    0.99  v
    57   2024-02-18T01:06:53UTC 2024-02-17T15:06:53-10:00 2024-02-17T14:06:53-11:00  21.28594 -157.90394      87   5.9  Hikianalia    1.02  v
    58   2024-02-18T00:05:44UTC 2024-02-17T14:05:44-10:00 2024-02-17T13:05:44-11:00  21.28018 -158.01131      82   5.6  Hikianalia    1.00  v
    59   2024-02-17T23:05:54UTC 2024-02-17T13:05:54-10:00 2024-02-17T12:05:54-11:00  21.26793 -158.11000     141   6.8  Hikianalia    0.99  v
    60   2024-02-17T22:06:13UTC 2024-02-17T12:06:13-10:00 2024-02-17T11:06:13-11:00  21.35525 -158.18662     151   5.0  Hikianalia    0.99  v
    61   2024-02-17T21:06:50UTC 2024-02-17T11:06:50-10:00 2024-02-17T10:06:50-11:00  21.42806 -158.22967     182   2.6  Hikianalia    1.02  v
    62   2024-02-17T20:05:51UTC 2024-02-17T10:05:51-10:00 2024-02-17T09:05:51-11:00  21.47174 -158.22774     223   0.3  Hikianalia    0.85  v
    63   2024-02-17T19:14:43UTC 2024-02-17T09:14:43-10:00 2024-02-17T08:14:43-11:00  21.47527 -158.22422     243   0.1  Hikianalia    1.13  v
    64   2024-02-17T18:07:10UTC 2024-02-17T08:07:10-10:00 2024-02-17T07:07:10-11:00  21.47575 -158.22319      46   0.2  Hikianalia    1.02  v stop-Makaha
    65   2024-02-17T17:05:55UTC 2024-02-17T07:05:55-10:00 2024-02-17T06:05:55-11:00  21.47322 -158.22602      13   3.6  Hikianalia    0.99  v
    66   2024-02-17T16:06:47UTC 2024-02-17T06:06:47-10:00 2024-02-17T05:06:47-11:00  21.41524 -158.23978     356   3.8  Hikianalia    1.00  v
    67   2024-02-17T15:06:52UTC 2024-02-17T05:06:52-10:00 2024-02-17T04:06:52-11:00  21.35122 -158.23531     322   3.5  Hikianalia    0.99  v
    68   2024-02-17T14:07:12UTC 2024-02-17T04:07:12-10:00 2024-02-17T03:07:12-11:00  21.30498 -158.19647     303   4.6  Hikianalia    1.02  v
    69   2024-02-17T13:05:51UTC 2024-02-17T03:05:51-10:00 2024-02-17T02:05:51-11:00  21.26241 -158.12530     275   6.0  Hikianalia    0.98  v
    70   2024-02-17T12:06:45UTC 2024-02-17T02:06:45-10:00 2024-02-17T01:06:45-11:00  21.25422 -158.02024     258   6.0  Hikianalia    0.86  v
    71   2024-02-17T11:14:52UTC 2024-02-17T01:14:52-10:00 2024-02-17T00:14:52-11:00  21.27236 -157.93044     223   2.9  Hikianalia    1.14  v dep-METC
    72   2024-02-17T10:06:19UTC 2024-02-17T00:06:19-10:00 2024-02-16T23:06:19-11:00  21.31333 -157.88952       0   0.0  Hikianalia  148.00 *  (6.2 days)
    73   2024-02-11T06:06:11UTC 2024-02-10T20:06:11-10:00 2024-02-10T19:06:11-11:00  21.31308 -157.88883     174   0.0  Hikianalia    0.99    arr-METC
    74   2024-02-11T05:06:43UTC 2024-02-10T19:06:43-10:00 2024-02-10T18:06:43-11:00  21.31347 -157.88888      21   0.7  Hikianalia    2.00 *v
    75   2024-02-11T03:06:54UTC 2024-02-10T17:06:54-10:00 2024-02-10T16:06:54-11:00  21.29316 -157.89712     332   0.5  Hikianalia    1.01  v
    76   2024-02-11T02:06:22UTC 2024-02-10T16:06:22-10:00 2024-02-10T15:06:22-11:00  21.28540 -157.89276     187   1.7  Hikianalia    0.99  v dep-METC SouthSandIsland
    77   2024-02-11T01:06:47UTC 2024-02-10T15:06:47-10:00 2024-02-10T14:06:47-11:00  21.31346 -157.88892       0   0.0  Hikianalia  489.00 *  (20.4 days)
    78   2024-01-21T16:06:47UTC 2024-01-21T06:06:47-10:00 2024-01-21T05:06:47-11:00  21.31300 -157.88886      43   0.0  Hikianalia    1.00    arr-METC
    79   2024-01-21T15:06:45UTC 2024-01-21T05:06:45-10:00 2024-01-21T04:06:45-11:00  21.31298 -157.88888     344   2.0  Hikianalia    0.97  v
    80   2024-01-21T14:08:22UTC 2024-01-21T04:08:22-10:00 2024-01-21T03:08:22-11:00  21.28115 -157.87888     297   2.3  Hikianalia    1.02  v
    81   2024-01-21T13:06:52UTC 2024-01-21T03:06:52-10:00 2024-01-21T02:06:52-11:00  21.26339 -157.84107     284   5.2  Hikianalia    1.00  v
    82   2024-01-21T12:06:53UTC 2024-01-21T02:06:53-10:00 2024-01-21T01:06:53-11:00  21.24240 -157.75176     286   7.6  Hikianalia    0.86  v
    83   2024-01-21T11:15:29UTC 2024-01-21T01:15:29-10:00 2024-01-21T00:15:29-11:00  21.21188 -157.63971     301   5.5  Hikianalia    1.16  v
    84   2024-01-21T10:05:47UTC 2024-01-21T00:05:47-10:00 2024-01-20T23:05:47-11:00  21.15733 -157.54122     295   6.3  Hikianalia    0.98  v
    85   2024-01-21T09:06:45UTC 2024-01-20T23:06:45-10:00 2024-01-20T23:06:45-10:00  21.11419 -157.44065     299   6.8  Hikianalia    0.88  v
    86   2024-01-21T08:14:11UTC 2024-01-20T22:14:11-10:00 2024-01-20T22:14:11-10:00  21.06668 -157.34748     297   5.4  Hikianalia    1.12  v
    87   2024-01-21T07:06:46UTC 2024-01-20T21:06:46-10:00 2024-01-20T21:06:46-10:00  21.02079 -157.25152     283   6.8  Hikianalia    1.00  v
    88   2024-01-21T06:07:02UTC 2024-01-20T20:07:02-10:00 2024-01-20T20:07:02-10:00  20.99455 -157.13361     281   6.7  Hikianalia    1.02  v
    89   2024-01-21T05:05:57UTC 2024-01-20T19:05:57-10:00 2024-01-20T19:05:57-10:00  20.97363 -157.01441     283   6.4  Hikianalia    0.98  v
    90   2024-01-21T04:07:13UTC 2024-01-20T18:07:13-10:00 2024-01-20T18:07:13-10:00  20.95069 -156.90498     287   6.7  Hikianalia    1.01  v
    91   2024-01-21T03:06:52UTC 2024-01-20T17:06:52-10:00 2024-01-20T17:06:52-10:00  20.91685 -156.79020     301   7.2  Hikianalia    1.00  v
    92   2024-01-21T02:06:46UTC 2024-01-20T16:06:46-10:00 2024-01-20T16:06:46-10:00  20.85438 -156.67972     299   1.5  Hikianalia    1.00  v dep-Launiupoko Beach Park, Maui
    93   2024-01-21T01:07:01UTC 2024-01-20T15:07:01-10:00 2024-01-20T15:07:01-10:00  20.84259 -156.65697     242   0.0  Hikianalia    4.00 * 
    94   2024-01-20T21:06:45UTC 2024-01-20T11:06:45-10:00 2024-01-20T11:06:45-10:00  20.84255 -156.65682     101   0.0  Hikianalia    1.01   
    95   2024-01-20T20:06:13UTC 2024-01-20T10:06:13-10:00 2024-01-20T10:06:13-10:00  20.84258 -156.65699      78   0.8  Hikianalia    0.99  v off-Launiupoko Beach Park, Maui
    96   2024-01-20T19:06:52UTC 2024-01-20T09:06:52-10:00 2024-01-20T09:06:52-10:00  20.83983 -156.67085     141   1.7  Hikianalia    1.00  v
    97   2024-01-20T18:06:54UTC 2024-01-20T08:06:54-10:00 2024-01-20T08:06:54-10:00  20.86229 -156.69040     178   2.1  Hikianalia    0.99  v
    98   2024-01-20T17:07:21UTC 2024-01-20T07:07:21-10:00 2024-01-20T07:07:21-10:00  20.89696 -156.69193       6   2.6  Hikianalia    1.01  v off-Lahaina
    99   2024-01-20T16:06:56UTC 2024-01-20T06:06:56-10:00 2024-01-20T06:06:56-10:00  20.85413 -156.69660     308   7.1  Hikianalia    1.00  v
   100   2024-01-20T15:06:44UTC 2024-01-20T05:06:44-10:00 2024-01-20T05:06:44-10:00  20.77998 -156.59663     262   4.9  Hikianalia    0.99  v dep-Maalaea
   101   2024-01-20T14:07:16UTC 2024-01-20T04:07:16-10:00 2024-01-20T04:07:16-10:00  20.79186 -156.51121     251   0.0  Hikianalia   20.05 * 
   102   2024-01-19T18:04:26UTC 2024-01-19T08:04:26-10:00 2024-01-19T08:04:26-10:00  20.79188 -156.51110     308   0.0  Hikianalia    0.96   
   103   2024-01-19T17:06:49UTC 2024-01-19T07:06:49-10:00 2024-01-19T07:06:49-10:00  20.79185 -156.51106     112   0.1  Hikianalia    0.04  v
   104   2024-01-19T17:04:21UTC 2024-01-19T07:04:21-10:00 2024-01-19T07:04:21-10:00  20.79188 -156.51114      81   0.0  Hikianalia    6.04 * 
   105   2024-01-19T11:02:10UTC 2024-01-19T01:02:10-10:00 2024-01-19T01:02:10-10:00  20.79188 -156.51108     322   0.0  Hikianalia    1.00   
   106   2024-01-19T10:02:19UTC 2024-01-19T00:02:19-10:00 2024-01-19T00:02:19-10:00  20.79175 -156.51097      37   3.3  Hikianalia    1.00  v
   107   2024-01-19T09:02:08UTC 2024-01-18T23:02:08-10:00 2024-01-18T23:02:08-10:00  20.74799 -156.54657     112   6.8  Hikianalia    0.99  v
   108   2024-01-19T08:02:46UTC 2024-01-18T22:02:46-10:00 2024-01-18T22:02:46-10:00  20.79041 -156.65701     123   7.2  Hikianalia    1.01  v
   109   2024-01-19T07:02:20UTC 2024-01-18T21:02:20-10:00 2024-01-18T21:02:20-10:00  20.85663 -156.76499     133   7.1  Hikianalia    1.00  v
   110   2024-01-19T06:02:19UTC 2024-01-18T20:02:19-10:00 2024-01-18T20:02:19-10:00  20.93818 -156.85732     103   7.2  Hikianalia    1.00  v
   111   2024-01-19T05:02:14UTC 2024-01-18T19:02:14-10:00 2024-01-18T19:02:14-10:00  20.96561 -156.98285     103   7.4  Hikianalia    0.99  v
   112   2024-01-19T04:02:52UTC 2024-01-18T18:02:52-10:00 2024-01-18T18:02:52-10:00  20.99253 -157.10964      98   7.4  Hikianalia    1.01  v
   113   2024-01-19T03:02:13UTC 2024-01-18T17:02:13-10:00 2024-01-18T17:02:13-10:00  21.01026 -157.24120     108   6.9  Hikianalia    1.00  v
   114   2024-01-19T02:02:19UTC 2024-01-18T16:02:19-10:00 2024-01-18T16:02:19-10:00  21.04665 -157.35842     113   6.7  Hikianalia    1.02  v
   115   2024-01-19T01:01:18UTC 2024-01-18T15:01:18-10:00 2024-01-18T15:01:18-10:00  21.09135 -157.47082     112   7.2  Hikianalia    0.99  v
   116   2024-01-19T00:01:49UTC 2024-01-18T14:01:49-10:00 2024-01-18T13:01:49-11:00  21.13692 -157.58926     112   7.5  Hikianalia    0.99  v
   117   2024-01-18T23:02:13UTC 2024-01-18T13:02:13-10:00 2024-01-18T12:02:13-11:00  21.18434 -157.71239     116   7.0  Hikianalia    1.00  v
   118   2024-01-18T22:02:17UTC 2024-01-18T12:02:17-10:00 2024-01-18T11:02:17-11:00  21.23629 -157.82440     135   5.6  Hikianalia    1.01  v
   119   2024-01-18T21:01:34UTC 2024-01-18T11:01:34-10:00 2024-01-18T10:01:34-11:00  21.30355 -157.89572     213   0.7  Hikianalia    0.99  v dep-METC for Maui dep-METC for Maui
   120   2024-01-18T20:02:15UTC 2024-01-18T10:02:15-10:00 2024-01-18T09:02:15-11:00  21.31312 -157.88896     278   0.0  Hikianalia 3857.06 *  (160.7 days)
   121   2023-08-11T02:58:48UTC 2023-08-10T16:58:48-10:00 2023-08-10T15:58:48-11:00  21.31309 -157.88871     255   0.0  Hikianalia    3.02 * 
   122   2023-08-10T23:57:46UTC 2023-08-10T13:57:46-10:00 2023-08-10T12:57:46-11:00  21.31311 -157.88862     155   0.2  Hikianalia    1.99 *v
   123   2023-08-10T21:58:10UTC 2023-08-10T11:58:10-10:00 2023-08-10T10:58:10-11:00  21.32021 -157.89222     335   0.5  Hikianalia    1.01  v
   124   2023-08-10T20:57:47UTC 2023-08-10T10:57:47-10:00 2023-08-10T09:57:47-11:00  21.31312 -157.88866      40   0.0  Hikianalia  154.99 *  (6.5 days)
   125   2023-08-04T09:58:14UTC 2023-08-03T23:58:14-10:00 2023-08-03T22:58:14-11:00  21.31312 -157.88873       0   0.0  Hikianalia   28.00 *  (1.2 days)
   126   2023-08-03T05:58:24UTC 2023-08-02T19:58:24-10:00 2023-08-02T18:58:24-11:00  21.31310 -157.88873     119   0.0  Hikianalia    1.02   
   127   2023-08-03T04:57:11UTC 2023-08-02T18:57:11-10:00 2023-08-02T17:57:11-11:00  21.31312 -157.88877     314   3.1  Hikianalia    0.97  v
   128   2023-08-03T03:58:41UTC 2023-08-02T17:58:41-10:00 2023-08-02T16:58:41-11:00  21.27765 -157.85021     135   3.0  Hikianalia    1.02  v 0.5nm off Magic Island
   129   2023-08-03T02:57:19UTC 2023-08-02T16:57:19-10:00 2023-08-02T15:57:19-11:00  21.31311 -157.88864      62   0.0  Hikianalia   44.98 *  (1.9 days)
   130   2023-08-01T05:58:20UTC 2023-07-31T19:58:20-10:00 2023-07-31T18:58:20-11:00  21.31311 -157.88866     137   0.0  Hikianalia    1.00   
   131   2023-08-01T04:58:17UTC 2023-07-31T18:58:17-10:00 2023-07-31T17:58:17-11:00  21.31315 -157.88871      26   1.9  Hikianalia    1.01  v
   132   2023-08-01T03:57:51UTC 2023-07-31T17:57:51-10:00 2023-07-31T16:57:51-11:00  21.28459 -157.90358     206   1.9  Hikianalia    0.99  v
   133   2023-08-01T02:58:12UTC 2023-07-31T16:58:12-10:00 2023-07-31T15:58:12-11:00  21.31305 -157.88862     124   0.0  Hikianalia   43.99 *  (1.8 days)
   134   2023-07-30T06:58:43UTC 2023-07-29T20:58:43-10:00 2023-07-29T19:58:43-11:00  21.31310 -157.88866     123   0.0  Hikianalia    2.01 * 
   135   2023-07-30T04:58:18UTC 2023-07-29T18:58:18-10:00 2023-07-29T17:58:18-11:00  21.31317 -157.88877     320   2.4  Hikianalia    1.02  v
   136   2023-07-30T03:57:22UTC 2023-07-29T17:57:22-10:00 2023-07-29T16:57:22-11:00  21.28204 -157.86047     323   5.7  Hikianalia    0.98  v
   137   2023-07-30T02:58:41UTC 2023-07-29T16:58:41-10:00 2023-07-29T15:58:41-11:00  21.20697 -157.80077     145   4.1  Hikianalia    1.02  v 3nm South Leahi
   138   2023-07-30T01:57:19UTC 2023-07-29T15:57:19-10:00 2023-07-29T14:57:19-11:00  21.26418 -157.84313     252   0.7  Hikianalia    1.00  v
   139   2023-07-30T00:57:16UTC 2023-07-29T14:57:16-10:00 2023-07-29T13:57:16-11:00  21.26803 -157.83075      90   2.5  Hikianalia    0.99  v off Queens Surf
   140   2023-07-29T23:57:45UTC 2023-07-29T13:57:45-10:00 2023-07-29T12:57:45-11:00  21.26831 -157.87529     164   2.8  Hikianalia    0.99  v
   141   2023-07-29T22:58:18UTC 2023-07-29T12:58:18-10:00 2023-07-29T11:58:18-11:00  21.31307 -157.88873      33   0.0  Hikianalia   40.00 *  (1.7 days)
   142   2023-07-28T06:58:17UTC 2023-07-27T20:58:17-10:00 2023-07-27T19:58:17-11:00  21.31308 -157.88873       0   0.0  Hikianalia    0.88   
   143   2023-07-28T06:05:27UTC 2023-07-27T20:05:27-10:00 2023-07-27T19:05:27-11:00  21.31305 -157.88873      38   0.6  Hikianalia    1.12  v
   144   2023-07-28T04:58:20UTC 2023-07-27T18:58:20-10:00 2023-07-27T17:58:20-11:00  21.30411 -157.89607     344   2.3  Hikianalia    1.00  v
   145   2023-07-28T03:58:17UTC 2023-07-27T17:58:17-10:00 2023-07-27T16:58:17-11:00  21.26717 -157.88495     176   0.2  Hikianalia   13.99 *v 3nm South
   146   2023-07-27T13:59:08UTC 2023-07-27T03:59:08-10:00 2023-07-27T02:59:08-11:00  21.31310 -157.88871      21   0.0  Hikianalia  105.02 *  (4.4 days)
   147   2023-07-23T04:57:43UTC 2023-07-22T18:57:43-10:00 2023-07-22T17:57:43-11:00  21.29321 -157.89705     332   5.4  Hikianalia    0.99  v
   148   2023-07-23T03:58:11UTC 2023-07-22T17:58:11-10:00 2023-07-22T16:58:11-11:00  21.21357 -157.85212     153   1.2  Hikianalia    1.02  v 4.5nm South Ala Moana
   149   2023-07-23T02:57:12UTC 2023-07-22T16:57:12-10:00 2023-07-22T15:57:12-11:00  21.23253 -157.86231     161   5.1  Hikianalia    0.98  v
   150   2023-07-23T01:58:12UTC 2023-07-22T15:58:12-10:00 2023-07-22T14:58:12-11:00  21.31190 -157.89186     248   0.2  Hikianalia    1.01  v
   151   2023-07-23T00:57:47UTC 2023-07-22T14:57:47-10:00 2023-07-22T13:57:47-11:00  21.31315 -157.88862      75   0.0  Hikianalia  233.99 *  (9.7 days)
   152   2023-07-13T06:58:14UTC 2023-07-12T20:58:14-10:00 2023-07-12T19:58:14-11:00  21.31307 -157.88873       0   0.0  Hikianalia    1.00   
   153   2023-07-13T05:58:21UTC 2023-07-12T19:58:21-10:00 2023-07-12T18:58:21-11:00  21.31307 -157.88873     331   3.5  Hikianalia    1.01  v
   154   2023-07-13T04:57:52UTC 2023-07-12T18:57:52-10:00 2023-07-12T17:57:52-11:00  21.26215 -157.85826     267   1.3  Hikianalia    0.99  v
   155   2023-07-13T03:58:26UTC 2023-07-12T17:58:26-10:00 2023-07-12T16:58:26-11:00  21.26324 -157.83448     134   4.2  Hikianalia    1.02  v off-Aquarium
   156   2023-07-13T02:57:11UTC 2023-07-12T16:57:11-10:00 2023-07-12T15:57:11-11:00  21.31307 -157.88873       0   0.0  Hikianalia   91.98 *  (3.8 days)
   157   2023-07-09T06:58:15UTC 2023-07-08T20:58:15-10:00 2023-07-08T19:58:15-11:00  21.31305 -157.88873     180   0.0  Hikianalia    1.02   
   158   2023-07-09T05:57:14UTC 2023-07-08T19:57:14-10:00 2023-07-08T18:57:14-11:00  21.31307 -157.88873      28   3.0  Hikianalia    0.98  v
   159   2023-07-09T04:58:42UTC 2023-07-08T18:58:42-10:00 2023-07-08T17:58:42-11:00  21.26979 -157.91360     236   1.2  Hikianalia    1.03  v
   160   2023-07-09T03:57:08UTC 2023-07-08T17:57:08-10:00 2023-07-08T16:57:08-11:00  21.28121 -157.89525     289   0.3  Hikianalia    0.98  v
   161   2023-07-09T02:58:21UTC 2023-07-08T16:58:21-10:00 2023-07-08T15:58:21-11:00  21.27943 -157.88961     176   1.9  Hikianalia    1.01  v 2nm South
   162   2023-07-09T01:57:47UTC 2023-07-08T15:57:47-10:00 2023-07-08T14:57:47-11:00  21.31208 -157.89203     252   0.2  Hikianalia    0.99  v
   163   2023-07-09T00:58:09UTC 2023-07-08T14:58:09-10:00 2023-07-08T13:58:09-11:00  21.31298 -157.88914       0   0.0  Hikianalia   67.01 *  (2.8 days)
   164   2023-07-06T05:57:21UTC 2023-07-05T19:57:21-10:00 2023-07-05T18:57:21-11:00  21.31294 -157.88903      91   0.0  Hikianalia    0.98   
   165   2023-07-06T04:58:43UTC 2023-07-05T18:58:43-10:00 2023-07-05T17:58:43-11:00  21.31295 -157.88976     320   3.6  Hikianalia    1.01  v
   166   2023-07-06T03:58:18UTC 2023-07-05T17:58:18-10:00 2023-07-05T16:58:18-11:00  21.26632 -157.84847     125   1.6  Hikianalia    1.00  v 1nm South Magic Island
   167   2023-07-06T02:58:21UTC 2023-07-05T16:58:21-10:00 2023-07-05T15:58:21-11:00  21.28143 -157.87122     153   1.1  Hikianalia    1.99 *v
   168   2023-07-06T00:58:43UTC 2023-07-05T14:58:43-10:00 2023-07-05T13:58:43-11:00  21.31305 -157.88873     180   0.0  Hikianalia  138.00 *  (5.7 days)
   169   2023-06-30T06:58:50UTC 2023-06-29T20:58:50-10:00 2023-06-29T19:58:50-11:00  21.31307 -157.88875     242   0.0  Hikianalia    1.01   
   170   2023-06-30T05:58:23UTC 2023-06-29T19:58:23-10:00 2023-06-29T18:58:23-11:00  21.31308 -157.88873      40   0.6  Hikianalia    1.02  v
   171   2023-06-30T04:57:21UTC 2023-06-29T18:57:21-10:00 2023-06-29T17:57:21-11:00  21.30582 -157.89532       1   1.5  Hikianalia    0.98  v
   172   2023-06-30T03:58:43UTC 2023-06-29T17:58:43-10:00 2023-06-29T16:58:43-11:00  21.28090 -157.89596     192   1.0  Hikianalia    2.01 *v 2nm South
   173   2023-06-30T01:58:10UTC 2023-06-29T15:58:10-10:00 2023-06-29T14:58:10-11:00  21.31311 -157.88879     292   0.0  Hikianalia   42.99 *  (1.8 days)
   174   2023-06-28T06:58:49UTC 2023-06-27T20:58:49-10:00 2023-06-27T19:58:49-11:00  21.31308 -157.88868     180   0.0  Hikianalia    1.01   
   175   2023-06-28T05:58:20UTC 2023-06-27T19:58:20-10:00 2023-06-27T18:58:20-11:00  21.31309 -157.88868      27   1.0  Hikianalia    1.00  v
   176   2023-06-28T04:58:12UTC 2023-06-27T18:58:12-10:00 2023-06-27T17:58:12-11:00  21.29759 -157.89701     187   0.2  Hikianalia    1.01  v Just Beyond the Channel
   177   2023-06-28T03:57:52UTC 2023-06-27T17:57:52-10:00 2023-06-27T16:57:52-11:00  21.30151 -157.89649     212   0.8  Hikianalia    0.99  v
   178   2023-06-28T02:58:16UTC 2023-06-27T16:58:16-10:00 2023-06-27T15:58:16-11:00  21.31304 -157.88868     165   0.0  Hikianalia  741.02 *  (30.9 days)
   179   2023-05-28T05:57:20UTC 2023-05-27T19:57:20-10:00 2023-05-27T18:57:20-11:00  21.31321 -157.88909     260   0.0  Hikianalia    0.99   
   180   2023-05-28T04:58:12UTC 2023-05-27T18:58:12-10:00 2023-05-27T17:58:12-11:00  21.31328 -157.88862     323   1.8  Hikianalia    1.00  v
   181   2023-05-28T03:58:19UTC 2023-05-27T17:58:19-10:00 2023-05-27T16:58:19-11:00  21.28938 -157.86937      29   1.9  Hikianalia    0.99  v
   182   2023-05-28T02:58:45UTC 2023-05-27T16:58:45-10:00 2023-05-27T15:58:45-11:00  21.26107 -157.88581     109   1.0  Hikianalia    1.02  v South-SandIsland
   183   2023-05-28T01:57:27UTC 2023-05-27T15:57:27-10:00 2023-05-27T14:57:27-11:00  21.26643 -157.90276     137   0.9  Hikianalia    0.99  v
   184   2023-05-28T00:58:09UTC 2023-05-27T14:58:09-10:00 2023-05-27T13:58:09-11:00  21.27738 -157.91366     213   2.5  Hikianalia    1.01  v
   185   2023-05-27T23:57:47UTC 2023-05-27T13:57:47-10:00 2023-05-27T12:57:47-11:00  21.31307 -157.88873     180   0.0  Hikianalia   98.08 *  (4.1 days)
   186   2023-05-23T21:52:49UTC 2023-05-23T11:52:49-10:00 2023-05-23T10:52:49-11:00  21.31310 -157.88871       0   0.0  Hikianalia  ------    METC